Time,TemperatureF,DewpointF,PressureIn,WindDirection,WindDirectionDegrees,WindSpeedMPH,WindSpeedGustMPH,Humidity,HourlyPrecipIn,Conditions,Clouds,dailyrainin,SoftwareType,DateUTC
2013-01-03 00:00:00,38.5,32.6,30.03,ESE,113,0.4,1.1,79,0.00,,,0.00,WUHU216HW,2013-01-03 08:00:00,
2013-01-03 00:01:00,38.5,32.6,30.03,ESE,113,0.0,1.1,79,0.00,,,0.00,WUHU216HW,2013-01-03 08:01:00,
2013-01-03 00:02:00,38.5,32.6,30.03,ESE,113,0.4,1.1,79,0.00,,,0.00,WUHU216HW,2013-01-03 08:02:00,
2013-01-03 00:03:00,38.5,32.6,30.03,ESE,113,0.4,1.1,79,0.00,,,0.00,WUHU216HW,2013-01-03 08:03:00,
2013-01-03 00:04:00,38.5,32.6,30.03,ESE,113,0.7,1.1,79,0.00,,,0.00,WUHU216HW,2013-01-03 08:04:00,
2013-01-03 00:05:00,38.5,32.6,30.03,ESE,113,0.4,1.1,79,0.00,,,0.00,WUHU216HW,2013-01-03 08:05:00,
2013-01-03 00:06:00,38.3,32.1,30.03,ESE,113,0.0,1.1,78,0.00,,,0.00,WUHU216HW,2013-01-03 08:06:00,
2013-01-03 00:07:00,38.3,32.1,30.03,ESE,113,0.4,1.1,78,0.00,,,0.00,WUHU216HW,2013-01-03 08:07:00,
2013-01-03 00:08:00,38.3,32.1,30.03,ESE,113,0.7,1.1,78,0.00,,,0.00,WUHU216HW,2013-01-03 08:08:00,
2013-01-03 00:09:00,38.3,32.1,30.03,ESE,113,0.4,0.9,78,0.00,,,0.00,WUHU216HW,2013-01-03 08:09:00,
2013-01-03 00:10:00,38.3,32.1,30.03,ESE,113,0.7,0.7,78,0.00,,,0.00,WUHU216HW,2013-01-03 08:10:00,
2013-01-03 00:11:00,38.3,32.1,30.03,SE,135,0.2,0.7,78,0.00,,,0.00,WUHU216HW,2013-01-03 08:11:00,
2013-01-03 00:12:00,38.2,32.0,30.03,SE,135,0.4,0.7,78,0.00,,,0.00,WUHU216HW,2013-01-03 08:12:00,
2013-01-03 00:13:00,38.2,32.0,30.03,SE,135,0.4,0.7,78,0.00,,,0.00,WUHU216HW,2013-01-03 08:13:00,
2013-01-03 00:14:00,38.2,32.0,30.04,SE,135,0.4,0.7,78,0.00,,,0.00,WUHU216HW,2013-01-03 08:14:00,
2013-01-03 00:15:00,38.0,31.8,30.04,SE,135,0.4,0.7,78,0.00,,,0.00,WUHU216HW,2013-01-03 08:15:00,
2013-01-03 00:16:00,38.0,31.8,30.03,ESE,113,0.7,0.7,78,0.00,,,0.00,WUHU216HW,2013-01-03 08:16:00,
2013-01-03 00:17:00,38.0,31.8,30.03,ESE,113,1.1,1.1,78,0.00,,,0.00,WUHU216HW,2013-01-03 08:17:00,
2013-01-03 00:18:00,38.0,31.8,30.03,ESE,113,0.4,1.1,78,0.00,,,0.00,WUHU216HW,2013-01-03 08:18:00,
2013-01-03 00:19:00,38.0,31.8,30.04,ESE,113,0.4,1.1,78,0.00,,,0.00,WUHU216HW,2013-01-03 08:19:00,
2013-01-03 00:20:00,38.0,31.8,30.04,ESE,113,0.7,1.1,78,0.00,,,0.00,WUHU216HW,2013-01-03 08:20:00,
2013-01-03 00:21:00,38.0,31.8,30.04,ESE,113,0.7,1.1,78,0.00,,,0.00,WUHU216HW,2013-01-03 08:21:00,
2013-01-03 00:22:00,38.0,32.0,30.03,ESE,113,0.4,1.1,79,0.00,,,0.00,WUHU216HW,2013-01-03 08:22:00,
2013-01-03 00:23:00,37.8,31.9,30.04,ESE,113,0.4,1.1,79,0.00,,,0.00,WUHU216HW,2013-01-03 08:23:00,
2013-01-03 00:24:00,37.8,31.9,30.04,ESE,113,0.4,1.1,79,0.00,,,0.00,WUHU216HW,2013-01-03 08:24:00,
2013-01-03 00:25:00,37.8,31.9,30.04,ESE,113,0.4,1.1,79,0.00,,,0.00,WUHU216HW,2013-01-03 08:25:00,
2013-01-03 00:26:00,37.8,31.9,30.04,ESE,113,0.4,1.1,79,0.00,,,0.00,WUHU216HW,2013-01-03 08:26:00,
2013-01-03 00:27:00,37.8,31.9,30.04,ESE,113,0.4,0.7,79,0.00,,,0.00,WUHU216HW,2013-01-03 08:27:00,
2013-01-03 00:28:00,37.8,31.9,30.04,ESE,113,0.7,0.7,79,0.00,,,0.00,WUHU216HW,2013-01-03 08:28:00,
2013-01-03 00:29:00,37.6,31.7,30.04,ESE,113,0.7,0.7,79,0.00,,,0.00,WUHU216HW,2013-01-03 08:29:00,
2013-01-03 00:30:00,37.6,31.7,30.04,ESE,113,0.4,0.7,79,0.00,,,0.00,WUHU216HW,2013-01-03 08:30:00,
2013-01-03 00:31:00,37.6,31.7,30.04,ESE,113,0.2,0.7,79,0.00,,,0.00,WUHU216HW,2013-01-03 08:31:00,
2013-01-03 00:32:00,37.6,31.7,30.04,ESE,113,0.0,0.7,79,0.00,,,0.00,WUHU216HW,2013-01-03 08:32:00,
2013-01-03 00:33:00,37.4,31.5,30.04,ESE,113,0.0,0.7,79,0.00,,,0.00,WUHU216HW,2013-01-03 08:33:00,
2013-01-03 00:34:00,37.4,31.5,30.04,ESE,113,0.0,0.7,79,0.00,,,0.00,WUHU216HW,2013-01-03 08:34:00,
2013-01-03 00:35:00,37.4,31.5,30.04,ESE,113,0.0,0.7,79,0.00,,,0.00,WUHU216HW,2013-01-03 08:35:00,
2013-01-03 00:36:00,37.4,31.9,30.03,ESE,113,1.1,1.1,80,0.00,,,0.00,WUHU216HW,2013-01-03 08:36:00,
2013-01-03 00:37:00,37.4,31.9,30.04,SE,135,0.7,1.1,80,0.00,,,0.00,WUHU216HW,2013-01-03 08:37:00,
2013-01-03 00:38:00,37.4,31.9,30.04,SE,135,0.7,1.1,80,0.00,,,0.00,WUHU216HW,2013-01-03 08:38:00,
2013-01-03 00:39:00,37.4,31.9,30.04,SE,135,0.4,1.1,80,0.00,,,0.00,WUHU216HW,2013-01-03 08:39:00,
2013-01-03 00:40:00,37.3,31.3,30.04,ESE,113,0.4,1.1,79,0.00,,,0.00,WUHU216HW,2013-01-03 08:40:00,
2013-01-03 00:41:00,37.3,31.3,30.04,SE,135,1.1,1.1,79,0.00,,,0.00,WUHU216HW,2013-01-03 08:41:00,
2013-01-03 00:42:00,37.3,31.7,30.04,SE,135,0.9,1.1,80,0.00,,,0.00,WUHU216HW,2013-01-03 08:42:00,
2013-01-03 00:43:00,37.3,31.7,30.04,ESE,113,0.9,1.1,80,0.00,,,0.00,WUHU216HW,2013-01-03 08:43:00,
2013-01-03 00:44:00,37.1,31.5,30.04,ESE,113,0.0,1.1,80,0.00,,,0.00,WUHU216HW,2013-01-03 08:44:00,
2013-01-03 00:45:00,37.1,31.5,30.04,ESE,113,0.2,1.1,80,0.00,,,0.00,WUHU216HW,2013-01-03 08:45:00,
2013-01-03 00:46:00,37.1,31.5,30.04,SE,135,0.4,1.1,80,0.00,,,0.00,WUHU216HW,2013-01-03 08:46:00,
2013-01-03 00:47:00,37.1,31.5,30.04,SSE,158,0.4,1.1,80,0.00,,,0.00,WUHU216HW,2013-01-03 08:47:00,
2013-01-03 00:48:00,37.1,31.5,30.04,SE,135,1.1,1.1,80,0.00,,,0.00,WUHU216HW,2013-01-03 08:48:00,
2013-01-03 00:49:00,37.1,31.5,30.04,East,90,0.7,1.1,80,0.00,,,0.00,WUHU216HW,2013-01-03 08:49:00,
2013-01-03 00:50:00,37.1,31.5,30.04,East,90,0.2,1.1,80,0.00,,,0.00,WUHU216HW,2013-01-03 08:50:00,
2013-01-03 00:51:00,37.1,31.5,30.04,East,90,0.9,1.1,80,0.00,,,0.00,WUHU216HW,2013-01-03 08:51:00,
2013-01-03 00:52:00,37.1,31.5,30.04,NE,45,1.1,1.1,80,0.00,,,0.00,WUHU216HW,2013-01-03 08:52:00,
2013-01-03 00:53:00,36.9,31.3,30.04,NE,45,0.0,1.1,80,0.00,,,0.00,WUHU216HW,2013-01-03 08:53:00,
2013-01-03 00:54:00,36.9,31.3,30.04,NE,45,0.4,1.1,80,0.00,,,0.00,WUHU216HW,2013-01-03 08:54:00,
2013-01-03 00:55:00,36.9,31.3,30.04,NW,315,0.4,1.1,80,0.00,,,0.00,WUHU216HW,2013-01-03 08:55:00,
2013-01-03 00:56:00,36.9,31.3,30.04,East,90,0.0,1.1,80,0.00,,,0.00,WUHU216HW,2013-01-03 08:56:00,
2013-01-03 00:57:00,36.9,31.3,30.03,ENE,68,0.4,1.1,80,0.00,,,0.00,WUHU216HW,2013-01-03 08:57:00,
2013-01-03 00:58:00,36.9,31.3,30.03,NNE,23,0.0,1.1,80,0.00,,,0.00,WUHU216HW,2013-01-03 08:58:00,
2013-01-03 00:59:00,36.9,31.3,30.03,SE,135,0.7,1.1,80,0.00,,,0.00,WUHU216HW,2013-01-03 08:59:00,
2013-01-03 01:00:00,36.9,31.3,30.03,SSE,158,0.4,1.1,80,0.00,,,0.00,WUHU216HW,2013-01-03 09:00:00,
2013-01-03 01:01:00,36.7,31.1,30.03,WSW,248,0.4,1.1,80,0.00,,,0.00,WUHU216HW,2013-01-03 09:01:00,
2013-01-03 01:02:00,36.7,31.4,30.03,ESE,113,0.4,1.1,81,0.00,,,0.00,WUHU216HW,2013-01-03 09:02:00,
2013-01-03 01:03:00,36.7,31.4,30.04,ESE,113,1.1,1.1,81,0.00,,,0.00,WUHU216HW,2013-01-03 09:03:00,
2013-01-03 01:04:00,36.7,31.4,30.04,ESE,113,0.7,1.1,81,0.00,,,0.00,WUHU216HW,2013-01-03 09:04:00,
2013-01-03 01:05:00,36.7,31.4,30.04,NE,45,1.3,1.3,81,0.00,,,0.00,WUHU216HW,2013-01-03 09:05:00,
2013-01-03 01:06:00,36.7,31.4,30.03,ESE,113,1.3,1.3,81,0.00,,,0.00,WUHU216HW,2013-01-03 09:06:00,
2013-01-03 01:07:00,36.7,31.4,30.04,NNE,23,0.7,1.3,81,0.00,,,0.00,WUHU216HW,2013-01-03 09:07:00,
2013-01-03 01:08:00,36.7,31.4,30.04,NNE,23,0.4,1.3,81,0.00,,,0.00,WUHU216HW,2013-01-03 09:08:00,
2013-01-03 01:09:00,36.7,31.4,30.04,ESE,113,1.1,1.3,81,0.00,,,0.00,WUHU216HW,2013-01-03 09:09:00,
2013-01-03 01:10:00,36.7,31.4,30.04,ESE,113,1.1,1.3,81,0.00,,,0.00,WUHU216HW,2013-01-03 09:10:00,
2013-01-03 01:11:00,36.7,31.4,30.03,ESE,113,0.7,1.3,81,0.00,,,0.00,WUHU216HW,2013-01-03 09:11:00,
2013-01-03 01:12:00,36.9,31.6,30.03,NE,45,0.0,1.3,81,0.00,,,0.00,WUHU216HW,2013-01-03 09:12:00,
2013-01-03 01:13:00,36.9,31.6,30.03,NE,45,0.0,1.3,81,0.00,,,0.00,WUHU216HW,2013-01-03 09:13:00,
2013-01-03 01:14:00,36.9,31.6,30.03,ESE,113,0.7,1.3,81,0.00,,,0.00,WUHU216HW,2013-01-03 09:14:00,
2013-01-03 01:15:00,36.9,31.6,30.03,ESE,113,1.1,1.3,81,0.00,,,0.00,WUHU216HW,2013-01-03 09:15:00,
2013-01-03 01:16:00,36.9,31.6,30.03,SE,135,0.7,1.1,81,0.00,,,0.00,WUHU216HW,2013-01-03 09:16:00,
2013-01-03 01:17:00,36.9,31.6,30.03,SE,135,0.7,1.1,81,0.00,,,0.00,WUHU216HW,2013-01-03 09:17:00,
2013-01-03 01:18:00,36.9,31.6,30.03,SE,135,0.7,1.1,81,0.00,,,0.00,WUHU216HW,2013-01-03 09:18:00,
2013-01-03 01:19:00,36.9,31.6,30.04,ENE,68,0.4,1.1,81,0.00,,,0.00,WUHU216HW,2013-01-03 09:19:00,
2013-01-03 01:20:00,36.9,31.6,30.04,ESE,113,1.8,1.8,81,0.00,,,0.00,WUHU216HW,2013-01-03 09:20:00,
2013-01-03 01:21:00,36.7,31.4,30.03,ESE,113,1.1,1.8,81,0.00,,,0.00,WUHU216HW,2013-01-03 09:21:00,
2013-01-03 01:22:00,36.7,31.4,30.04,ESE,113,0.0,1.8,81,0.00,,,0.00,WUHU216HW,2013-01-03 09:22:00,
2013-01-03 01:23:00,36.7,31.4,30.03,ESE,113,0.7,1.8,81,0.00,,,0.00,WUHU216HW,2013-01-03 09:23:00,
2013-01-03 01:24:00,36.7,31.4,30.04,East,90,1.1,1.8,81,0.00,,,0.00,WUHU216HW,2013-01-03 09:24:00,
2013-01-03 01:25:00,36.7,31.4,30.04,ESE,113,0.9,1.8,81,0.00,,,0.00,WUHU216HW,2013-01-03 09:25:00,
2013-01-03 01:26:00,36.7,31.7,30.03,ESE,113,0.4,1.8,82,0.00,,,0.00,WUHU216HW,2013-01-03 09:26:00,
2013-01-03 01:27:00,36.7,31.7,30.04,East,90,0.7,1.8,82,0.00,,,0.00,WUHU216HW,2013-01-03 09:27:00,
2013-01-03 01:28:00,36.7,31.4,30.04,East,90,1.1,1.8,81,0.00,,,0.00,WUHU216HW,2013-01-03 09:28:00,
2013-01-03 01:29:00,36.7,31.4,30.04,ESE,113,1.1,1.8,81,0.00,,,0.00,WUHU216HW,2013-01-03 09:29:00,
2013-01-03 01:30:00,36.7,31.7,30.03,ESE,113,0.4,1.1,82,0.00,,,0.00,WUHU216HW,2013-01-03 09:30:00,
2013-01-03 01:31:00,36.7,31.7,30.04,ESE,113,0.4,1.1,82,0.00,,,0.00,WUHU216HW,2013-01-03 09:31:00,
2013-01-03 01:32:00,36.7,31.7,30.04,ESE,113,0.4,1.1,82,0.00,,,0.00,WUHU216HW,2013-01-03 09:32:00,
2013-01-03 01:33:00,36.7,31.7,30.04,ESE,113,0.7,1.1,82,0.00,,,0.00,WUHU216HW,2013-01-03 09:33:00,
2013-01-03 01:34:00,36.5,31.5,30.04,ESE,113,0.4,1.1,82,0.00,,,0.00,WUHU216HW,2013-01-03 09:34:00,
2013-01-03 01:35:00,36.5,31.5,30.04,ESE,113,1.1,1.1,82,0.00,,,0.00,WUHU216HW,2013-01-03 09:35:00,
2013-01-03 01:36:00,36.5,31.5,30.04,ESE,113,0.9,1.1,82,0.00,,,0.00,WUHU216HW,2013-01-03 09:36:00,
2013-01-03 01:37:00,36.5,31.5,30.04,ESE,113,0.7,1.1,82,0.00,,,0.00,WUHU216HW,2013-01-03 09:37:00,
2013-01-03 01:38:00,36.5,31.5,30.04,ESE,113,0.4,1.1,82,0.00,,,0.00,WUHU216HW,2013-01-03 09:38:00,
2013-01-03 01:39:00,36.5,31.5,30.04,ESE,113,1.1,1.1,82,0.00,,,0.00,WUHU216HW,2013-01-03 09:39:00,
2013-01-03 01:40:00,36.4,31.3,30.04,ESE,113,1.3,1.3,82,0.00,,,0.00,WUHU216HW,2013-01-03 09:40:00,
2013-01-03 01:41:00,36.4,31.3,30.04,SE,135,1.6,1.6,82,0.00,,,0.00,WUHU216HW,2013-01-03 09:41:00,
2013-01-03 01:42:00,36.4,31.3,30.04,SE,135,1.1,1.6,82,0.00,,,0.00,WUHU216HW,2013-01-03 09:42:00,
2013-01-03 01:43:00,36.4,31.3,30.04,SE,135,0.9,1.6,82,0.00,,,0.00,WUHU216HW,2013-01-03 09:43:00,
2013-01-03 01:44:00,36.4,31.3,30.04,SE,135,0.9,1.6,82,0.00,,,0.00,WUHU216HW,2013-01-03 09:44:00,
2013-01-03 01:45:00,36.4,31.3,30.04,SE,135,1.1,1.6,82,0.00,,,0.00,WUHU216HW,2013-01-03 09:45:00,
2013-01-03 01:46:00,36.4,31.3,30.04,SE,135,0.7,1.6,82,0.00,,,0.00,WUHU216HW,2013-01-03 09:46:00,
2013-01-03 01:47:00,36.4,31.3,30.04,SE,135,0.7,1.6,82,0.00,,,0.00,WUHU216HW,2013-01-03 09:47:00,
2013-01-03 01:48:00,36.2,31.1,30.04,ESE,113,0.9,1.6,82,0.00,,,0.00,WUHU216HW,2013-01-03 09:48:00,
2013-01-03 01:49:00,36.2,31.1,30.04,ESE,113,0.7,1.6,82,0.00,,,0.00,WUHU216HW,2013-01-03 09:49:00,
2013-01-03 01:50:00,36.2,31.1,30.04,SE,135,1.3,1.6,82,0.00,,,0.00,WUHU216HW,2013-01-03 09:50:00,
2013-01-03 01:51:00,36.2,31.1,30.04,ESE,113,1.6,1.6,82,0.00,,,0.00,WUHU216HW,2013-01-03 09:51:00,
2013-01-03 01:52:00,36.2,31.1,30.04,ESE,113,0.9,1.6,82,0.00,,,0.00,WUHU216HW,2013-01-03 09:52:00,
2013-01-03 01:53:00,36.0,31.0,30.04,ESE,113,0.0,1.6,82,0.00,,,0.00,WUHU216HW,2013-01-03 09:53:00,
2013-01-03 01:54:00,36.0,31.0,30.05,ESE,113,0.4,1.6,82,0.00,,,0.00,WUHU216HW,2013-01-03 09:54:00,
2013-01-03 01:55:00,36.0,31.0,30.04,ESE,113,0.4,1.6,82,0.00,,,0.00,WUHU216HW,2013-01-03 09:55:00,
2013-01-03 01:56:00,36.0,31.0,30.05,ESE,113,0.4,1.6,82,0.00,,,0.00,WUHU216HW,2013-01-03 09:56:00,
2013-01-03 01:57:00,36.0,31.0,30.05,SE,135,0.7,1.6,82,0.00,,,0.00,WUHU216HW,2013-01-03 09:57:00,
2013-01-03 01:58:00,36.0,31.0,30.05,SE,135,0.4,1.6,82,0.00,,,0.00,WUHU216HW,2013-01-03 09:58:00,
2013-01-03 01:59:00,36.0,31.0,30.05,SE,135,0.4,1.6,82,0.00,,,0.00,WUHU216HW,2013-01-03 09:59:00,
2013-01-03 02:01:00,35.8,30.8,30.05,SE,135,0.9,1.6,82,0.00,,,0.00,WUHU216HW,2013-01-03 10:01:00,
2013-01-03 02:02:00,35.8,30.8,30.05,SE,135,0.4,0.9,82,0.00,,,0.00,WUHU216HW,2013-01-03 10:02:00,
2013-01-03 02:03:00,35.8,30.8,30.05,SE,135,0.2,0.9,82,0.00,,,0.00,WUHU216HW,2013-01-03 10:03:00,
2013-01-03 02:04:00,35.8,30.8,30.05,SE,135,0.0,0.9,82,0.00,,,0.00,WUHU216HW,2013-01-03 10:04:00,
2013-01-03 02:05:00,35.8,30.8,30.05,SE,135,0.4,0.9,82,0.00,,,0.00,WUHU216HW,2013-01-03 10:05:00,
2013-01-03 02:06:00,35.8,30.8,30.05,SE,135,0.2,0.9,82,0.00,,,0.00,WUHU216HW,2013-01-03 10:06:00,
2013-01-03 02:07:00,35.6,30.6,30.05,ESE,113,0.2,0.9,82,0.00,,,0.00,WUHU216HW,2013-01-03 10:07:00,
2013-01-03 02:08:00,35.6,30.6,30.05,ESE,113,0.0,0.9,82,0.00,,,0.00,WUHU216HW,2013-01-03 10:08:00,
2013-01-03 02:09:00,35.6,30.6,30.05,East,90,1.1,1.1,82,0.00,,,0.00,WUHU216HW,2013-01-03 10:09:00,
2013-01-03 02:10:00,35.6,30.6,30.04,East,90,0.7,1.1,82,0.00,,,0.00,WUHU216HW,2013-01-03 10:10:00,
2013-01-03 02:11:00,35.6,30.6,30.05,East,90,0.9,1.1,82,0.00,,,0.00,WUHU216HW,2013-01-03 10:11:00,
2013-01-03 02:12:00,35.6,30.6,30.05,East,90,0.4,1.1,82,0.00,,,0.00,WUHU216HW,2013-01-03 10:12:00,
2013-01-03 02:13:00,35.6,30.6,30.04,East,90,0.7,1.1,82,0.00,,,0.00,WUHU216HW,2013-01-03 10:13:00,
2013-01-03 02:14:00,35.6,30.6,30.05,East,90,0.7,1.1,82,0.00,,,0.00,WUHU216HW,2013-01-03 10:14:00,
2013-01-03 02:15:00,35.6,30.6,30.05,SE,135,0.7,1.1,82,0.00,,,0.00,WUHU216HW,2013-01-03 10:15:00,
2013-01-03 02:16:00,35.6,30.6,30.04,SSE,158,0.7,1.1,82,0.00,,,0.00,WUHU216HW,2013-01-03 10:16:00,
2013-01-03 02:17:00,35.5,30.4,30.04,SSE,158,0.4,1.1,82,0.00,,,0.00,WUHU216HW,2013-01-03 10:17:00,
2013-01-03 02:18:00,35.6,30.6,30.04,SSE,158,0.4,1.1,82,0.00,,,0.00,WUHU216HW,2013-01-03 10:18:00,
2013-01-03 02:19:00,35.6,31.0,30.04,SSE,158,0.2,0.9,83,0.00,,,0.00,WUHU216HW,2013-01-03 10:19:00,
2013-01-03 02:20:00,35.6,31.0,30.04,SSE,158,0.0,0.9,83,0.00,,,0.00,WUHU216HW,2013-01-03 10:20:00,
2013-01-03 02:21:00,35.5,30.8,30.04,SSE,158,0.0,0.7,83,0.00,,,0.00,WUHU216HW,2013-01-03 10:21:00,
2013-01-03 02:22:00,35.5,30.8,30.04,ENE,68,0.9,0.9,83,0.00,,,0.00,WUHU216HW,2013-01-03 10:22:00,
2013-01-03 02:23:00,35.5,30.8,30.04,ENE,68,0.2,0.9,83,0.00,,,0.00,WUHU216HW,2013-01-03 10:23:00,
2013-01-03 02:24:00,35.5,30.8,30.04,ENE,68,0.4,0.9,83,0.00,,,0.00,WUHU216HW,2013-01-03 10:24:00,
2013-01-03 02:25:00,35.5,30.8,30.04,ENE,68,0.4,0.9,83,0.00,,,0.00,WUHU216HW,2013-01-03 10:25:00,
2013-01-03 02:26:00,35.5,30.8,30.04,ENE,68,0.2,0.9,83,0.00,,,0.00,WUHU216HW,2013-01-03 10:26:00,
2013-01-03 02:27:00,35.6,31.0,30.04,WNW,293,0.2,0.9,83,0.00,,,0.00,WUHU216HW,2013-01-03 10:27:00,
2013-01-03 02:28:00,35.6,31.0,30.04,SE,135,0.9,0.9,83,0.00,,,0.00,WUHU216HW,2013-01-03 10:28:00,
2013-01-03 02:29:00,35.6,31.0,30.04,SE,135,0.4,0.9,83,0.00,,,0.00,WUHU216HW,2013-01-03 10:29:00,
2013-01-03 02:30:00,35.5,30.8,30.04,SSE,158,0.4,0.9,83,0.00,,,0.00,WUHU216HW,2013-01-03 10:30:00,
2013-01-03 02:31:00,35.6,31.0,30.04,SSE,158,1.1,1.1,83,0.00,,,0.00,WUHU216HW,2013-01-03 10:31:00,
2013-01-03 02:32:00,35.6,31.0,30.04,SSE,158,1.1,1.1,83,0.00,,,0.00,WUHU216HW,2013-01-03 10:32:00,
2013-01-03 02:33:00,35.5,30.8,30.04,SSE,158,1.1,1.1,83,0.00,,,0.00,WUHU216HW,2013-01-03 10:33:00,
2013-01-03 02:34:00,35.5,30.8,30.04,SE,135,1.3,1.3,83,0.00,,,0.00,WUHU216HW,2013-01-03 10:34:00,
2013-01-03 02:35:00,35.5,30.8,30.04,SE,135,0.2,1.3,83,0.00,,,0.00,WUHU216HW,2013-01-03 10:35:00,
2013-01-03 02:36:00,35.5,30.8,30.04,SE,135,0.2,1.3,83,0.00,,,0.00,WUHU216HW,2013-01-03 10:36:00,
2013-01-03 02:37:00,35.3,30.6,30.04,East,90,0.7,1.3,83,0.00,,,0.00,WUHU216HW,2013-01-03 10:37:00,
2013-01-03 02:38:00,35.3,30.6,30.04,ENE,68,0.0,1.3,83,0.00,,,0.00,WUHU216HW,2013-01-03 10:38:00,
2013-01-03 02:39:00,35.3,30.6,30.03,ENE,68,0.0,1.3,83,0.00,,,0.00,WUHU216HW,2013-01-03 10:39:00,
2013-01-03 02:40:00,35.3,30.6,30.03,ENE,68,1.1,1.3,83,0.00,,,0.00,WUHU216HW,2013-01-03 10:40:00,
2013-01-03 02:41:00,35.3,30.6,30.04,ENE,68,0.9,1.3,83,0.00,,,0.00,WUHU216HW,2013-01-03 10:41:00,
2013-01-03 02:42:00,35.3,30.6,30.04,ENE,68,0.2,1.3,83,0.00,,,0.00,WUHU216HW,2013-01-03 10:42:00,
2013-01-03 02:43:00,35.3,30.6,30.03,ENE,68,0.4,1.3,83,0.00,,,0.00,WUHU216HW,2013-01-03 10:43:00,
2013-01-03 02:44:00,35.3,30.6,30.03,ESE,113,0.2,1.1,83,0.00,,,0.00,WUHU216HW,2013-01-03 10:44:00,
2013-01-03 02:45:00,35.3,30.6,30.04,ESE,113,0.7,1.1,83,0.00,,,0.00,WUHU216HW,2013-01-03 10:45:00,
2013-01-03 02:46:00,35.3,30.6,30.03,ENE,68,0.7,1.1,83,0.00,,,0.00,WUHU216HW,2013-01-03 10:46:00,
2013-01-03 02:47:00,35.3,30.6,30.03,SE,135,1.1,1.1,83,0.00,,,0.00,WUHU216HW,2013-01-03 10:47:00,
2013-01-03 02:48:00,35.3,30.6,30.03,SE,135,0.4,1.1,83,0.00,,,0.00,WUHU216HW,2013-01-03 10:48:00,
2013-01-03 02:49:00,35.1,30.4,30.03,SE,135,0.4,1.1,83,0.00,,,0.00,WUHU216HW,2013-01-03 10:49:00,
2013-01-03 02:50:00,35.1,30.4,30.03,SE,135,0.4,1.1,83,0.00,,,0.00,WUHU216HW,2013-01-03 10:50:00,
2013-01-03 02:51:00,35.1,30.4,30.03,SE,135,0.4,1.1,83,0.00,,,0.00,WUHU216HW,2013-01-03 10:51:00,
2013-01-03 02:52:00,35.1,30.4,30.03,SE,135,0.4,1.1,83,0.00,,,0.00,WUHU216HW,2013-01-03 10:52:00,
2013-01-03 02:53:00,35.1,30.4,30.03,SE,135,0.0,1.1,83,0.00,,,0.00,WUHU216HW,2013-01-03 10:53:00,
2013-01-03 02:54:00,35.1,30.4,30.03,SE,135,0.7,1.1,83,0.00,,,0.00,WUHU216HW,2013-01-03 10:54:00,
2013-01-03 02:55:00,35.1,30.7,30.03,SE,135,0.7,1.1,84,0.00,,,0.00,WUHU216HW,2013-01-03 10:55:00,
2013-01-03 02:56:00,34.9,30.5,30.03,SE,135,0.2,1.1,84,0.00,,,0.00,WUHU216HW,2013-01-03 10:56:00,
2013-01-03 02:57:00,34.9,30.5,30.03,SE,135,0.7,0.7,84,0.00,,,0.00,WUHU216HW,2013-01-03 10:57:00,
2013-01-03 02:58:00,35.1,30.7,30.03,East,90,0.7,0.7,84,0.00,,,0.00,WUHU216HW,2013-01-03 10:58:00,
2013-01-03 02:59:00,35.1,30.7,30.03,East,90,0.4,0.7,84,0.00,,,0.00,WUHU216HW,2013-01-03 10:59:00,
2013-01-03 03:01:00,34.9,30.5,30.03,ENE,68,0.4,0.7,84,0.00,,,0.00,WUHU216HW,2013-01-03 11:01:00,
2013-01-03 03:02:00,34.9,30.5,30.04,NE,45,1.1,1.1,84,0.00,,,0.00,WUHU216HW,2013-01-03 11:02:00,
2013-01-03 03:03:00,34.9,30.5,30.04,NE,45,0.9,1.1,84,0.00,,,0.00,WUHU216HW,2013-01-03 11:03:00,
2013-01-03 03:04:00,34.9,30.5,30.03,East,90,0.7,1.1,84,0.00,,,0.00,WUHU216HW,2013-01-03 11:04:00,
2013-01-03 03:05:00,34.9,30.5,30.03,East,90,1.1,1.1,84,0.00,,,0.00,WUHU216HW,2013-01-03 11:05:00,
2013-01-03 03:06:00,34.9,30.5,30.03,ENE,68,1.1,1.1,84,0.00,,,0.00,WUHU216HW,2013-01-03 11:06:00,
2013-01-03 03:07:00,34.9,30.5,30.03,ENE,68,1.8,1.8,84,0.00,,,0.00,WUHU216HW,2013-01-03 11:07:00,
2013-01-03 03:08:00,34.9,30.5,30.03,ENE,68,0.9,1.8,84,0.00,,,0.00,WUHU216HW,2013-01-03 11:08:00,
2013-01-03 03:09:00,35.1,30.7,30.03,ENE,68,0.4,1.8,84,0.00,,,0.00,WUHU216HW,2013-01-03 11:09:00,
2013-01-03 03:10:00,35.1,30.7,30.03,ENE,68,0.4,1.8,84,0.00,,,0.00,WUHU216HW,2013-01-03 11:10:00,
2013-01-03 03:11:00,35.1,30.7,30.03,ENE,68,0.4,1.8,84,0.00,,,0.00,WUHU216HW,2013-01-03 11:11:00,
2013-01-03 03:12:00,35.1,30.7,30.03,ENE,68,0.0,1.8,84,0.00,,,0.00,WUHU216HW,2013-01-03 11:12:00,
2013-01-03 03:13:00,35.1,30.7,30.03,ENE,68,0.0,1.8,84,0.00,,,0.00,WUHU216HW,2013-01-03 11:13:00,
2013-01-03 03:14:00,35.1,30.7,30.03,ENE,68,0.2,1.8,84,0.00,,,0.00,WUHU216HW,2013-01-03 11:14:00,
2013-01-03 03:15:00,35.1,30.7,30.03,ENE,68,0.0,1.8,84,0.00,,,0.00,WUHU216HW,2013-01-03 11:15:00,
2013-01-03 03:16:00,35.1,30.7,30.03,ENE,68,0.4,1.8,84,0.00,,,0.00,WUHU216HW,2013-01-03 11:16:00,
2013-01-03 03:17:00,35.1,30.7,30.03,ENE,68,0.4,0.9,84,0.00,,,0.00,WUHU216HW,2013-01-03 11:17:00,
2013-01-03 03:18:00,34.9,30.5,30.03,ENE,68,0.0,0.4,84,0.00,,,0.00,WUHU216HW,2013-01-03 11:18:00,
2013-01-03 03:19:00,34.9,30.5,30.03,ENE,68,0.0,0.4,84,0.00,,,0.00,WUHU216HW,2013-01-03 11:19:00,
2013-01-03 03:20:00,34.9,30.5,30.03,ENE,68,0.0,0.4,84,0.00,,,0.00,WUHU216HW,2013-01-03 11:20:00,
2013-01-03 03:21:00,34.9,30.5,30.03,ENE,68,0.7,0.7,84,0.00,,,0.00,WUHU216HW,2013-01-03 11:21:00,
2013-01-03 03:22:00,34.9,30.5,30.03,ENE,68,0.2,0.7,84,0.00,,,0.00,WUHU216HW,2013-01-03 11:22:00,
2013-01-03 03:23:00,34.9,30.5,30.03,ENE,68,0.0,0.7,84,0.00,,,0.00,WUHU216HW,2013-01-03 11:23:00,
2013-01-03 03:24:00,34.9,30.5,30.03,ENE,68,0.0,0.7,84,0.00,,,0.00,WUHU216HW,2013-01-03 11:24:00,
2013-01-03 03:25:00,34.9,30.5,30.03,ENE,68,0.4,0.7,84,0.00,,,0.00,WUHU216HW,2013-01-03 11:25:00,
2013-01-03 03:26:00,34.9,30.5,30.03,ENE,68,0.4,0.7,84,0.00,,,0.00,WUHU216HW,2013-01-03 11:26:00,
2013-01-03 03:27:00,34.9,30.5,30.03,ENE,68,0.2,0.7,84,0.00,,,0.00,WUHU216HW,2013-01-03 11:27:00,
2013-01-03 03:28:00,34.7,30.3,30.03,ENE,68,0.0,0.7,84,0.00,,,0.00,WUHU216HW,2013-01-03 11:28:00,
2013-01-03 03:29:00,34.7,30.3,30.03,East,90,0.7,0.7,84,0.00,,,0.00,WUHU216HW,2013-01-03 11:29:00,
2013-01-03 03:30:00,34.7,30.3,30.04,ENE,68,0.2,0.7,84,0.00,,,0.00,WUHU216HW,2013-01-03 11:30:00,
2013-01-03 03:31:00,34.7,30.3,30.04,ENE,68,1.1,1.1,84,0.00,,,0.00,WUHU216HW,2013-01-03 11:31:00,
2013-01-03 03:32:00,34.7,30.3,30.04,East,90,1.1,1.1,84,0.00,,,0.00,WUHU216HW,2013-01-03 11:32:00,
2013-01-03 03:33:00,34.6,30.2,30.04,ENE,68,0.4,1.1,84,0.00,,,0.00,WUHU216HW,2013-01-03 11:33:00,
2013-01-03 03:34:00,34.6,30.2,30.04,ENE,68,0.4,1.1,84,0.00,,,0.00,WUHU216HW,2013-01-03 11:34:00,
2013-01-03 03:35:00,34.6,30.2,30.04,ENE,68,0.2,1.1,84,0.00,,,0.00,WUHU216HW,2013-01-03 11:35:00,
2013-01-03 03:36:00,34.6,30.2,30.04,East,90,0.2,1.1,84,0.00,,,0.00,WUHU216HW,2013-01-03 11:36:00,
2013-01-03 03:37:00,34.6,30.2,30.04,East,90,0.4,1.1,84,0.00,,,0.00,WUHU216HW,2013-01-03 11:37:00,
2013-01-03 03:38:00,34.6,30.2,30.04,East,90,0.9,1.1,84,0.00,,,0.00,WUHU216HW,2013-01-03 11:38:00,
2013-01-03 03:39:00,34.6,30.2,30.04,East,90,0.4,1.1,84,0.00,,,0.00,WUHU216HW,2013-01-03 11:39:00,
2013-01-03 03:40:00,34.6,30.2,30.03,East,90,0.9,1.1,84,0.00,,,0.00,WUHU216HW,2013-01-03 11:40:00,
2013-01-03 03:41:00,34.6,30.2,30.03,ENE,68,1.1,1.1,84,0.00,,,0.00,WUHU216HW,2013-01-03 11:41:00,
2013-01-03 03:42:00,34.6,30.2,30.03,ENE,68,1.8,1.8,84,0.00,,,0.00,WUHU216HW,2013-01-03 11:42:00,
2013-01-03 03:43:00,34.6,30.2,30.03,ENE,68,0.7,1.8,84,0.00,,,0.00,WUHU216HW,2013-01-03 11:43:00,
2013-01-03 03:44:00,34.6,30.2,30.03,ENE,68,0.4,1.8,84,0.00,,,0.00,WUHU216HW,2013-01-03 11:44:00,
2013-01-03 03:45:00,34.6,30.2,30.03,ENE,68,1.3,1.8,84,0.00,,,0.00,WUHU216HW,2013-01-03 11:45:00,
2013-01-03 03:46:00,34.7,30.3,30.03,ENE,68,0.9,1.8,84,0.00,,,0.00,WUHU216HW,2013-01-03 11:46:00,
2013-01-03 03:47:00,34.7,30.3,30.03,ENE,68,0.9,1.8,84,0.00,,,0.00,WUHU216HW,2013-01-03 11:47:00,
2013-01-03 03:48:00,34.7,30.3,30.03,ENE,68,0.7,1.8,84,0.00,,,0.00,WUHU216HW,2013-01-03 11:48:00,
2013-01-03 03:49:00,34.7,30.3,30.02,ENE,68,0.9,1.8,84,0.00,,,0.00,WUHU216HW,2013-01-03 11:49:00,
2013-01-03 03:50:00,34.7,30.3,30.02,ENE,68,0.0,1.8,84,0.00,,,0.00,WUHU216HW,2013-01-03 11:50:00,
2013-01-03 03:51:00,34.6,30.2,30.02,ENE,68,0.0,1.8,84,0.00,,,0.00,WUHU216HW,2013-01-03 11:51:00,
2013-01-03 03:52:00,34.6,30.2,30.02,ENE,68,0.4,1.3,84,0.00,,,0.00,WUHU216HW,2013-01-03 11:52:00,
2013-01-03 03:53:00,34.6,30.2,30.02,ENE,68,0.4,1.3,84,0.00,,,0.00,WUHU216HW,2013-01-03 11:53:00,
2013-01-03 03:54:00,34.6,30.2,30.02,ENE,68,0.0,1.3,84,0.00,,,0.00,WUHU216HW,2013-01-03 11:54:00,
2013-01-03 03:55:00,34.6,30.2,30.02,ENE,68,0.0,0.9,84,0.00,,,0.00,WUHU216HW,2013-01-03 11:55:00,
2013-01-03 03:56:00,34.6,30.2,30.02,NW,315,0.4,0.9,84,0.00,,,0.00,WUHU216HW,2013-01-03 11:56:00,
2013-01-03 03:57:00,34.4,30.0,30.02,NW,315,0.4,0.9,84,0.00,,,0.00,WUHU216HW,2013-01-03 11:57:00,
2013-01-03 03:58:00,34.4,30.0,30.02,NW,315,0.2,0.9,84,0.00,,,0.00,WUHU216HW,2013-01-03 11:58:00,
2013-01-03 03:59:00,34.4,30.2,30.02,West,270,0.4,0.4,85,0.00,,,0.00,WUHU216HW,2013-01-03 11:59:00,
2013-01-03 04:01:00,34.4,30.0,30.02,West,270,0.0,0.4,84,0.00,,,0.00,WUHU216HW,2013-01-03 12:01:00,
2013-01-03 04:02:00,34.4,30.0,30.02,West,270,0.0,0.4,84,0.00,,,0.00,WUHU216HW,2013-01-03 12:02:00,
2013-01-03 04:03:00,34.4,30.0,30.02,West,270,0.0,0.4,84,0.00,,,0.00,WUHU216HW,2013-01-03 12:03:00,
2013-01-03 04:04:00,34.6,30.2,30.02,ESE,113,1.3,1.3,84,0.00,,,0.00,WUHU216HW,2013-01-03 12:04:00,
2013-01-03 04:05:00,34.6,30.2,30.02,ENE,68,0.4,1.3,84,0.00,,,0.00,WUHU216HW,2013-01-03 12:05:00,
2013-01-03 04:06:00,34.6,30.2,30.02,ENE,68,0.7,1.3,84,0.00,,,0.00,WUHU216HW,2013-01-03 12:06:00,
2013-01-03 04:07:00,34.4,30.0,30.02,East,90,0.7,1.3,84,0.00,,,0.00,WUHU216HW,2013-01-03 12:07:00,
2013-01-03 04:08:00,34.4,30.0,30.02,East,90,0.4,1.3,84,0.00,,,0.00,WUHU216HW,2013-01-03 12:08:00,
2013-01-03 04:09:00,34.4,30.0,30.02,East,90,0.7,1.3,84,0.00,,,0.00,WUHU216HW,2013-01-03 12:09:00,
2013-01-03 04:10:00,34.4,30.0,30.02,ESE,113,0.7,1.3,84,0.00,,,0.00,WUHU216HW,2013-01-03 12:10:00,
2013-01-03 04:11:00,34.4,30.0,30.03,ESE,113,0.9,1.3,84,0.00,,,0.00,WUHU216HW,2013-01-03 12:11:00,
2013-01-03 04:12:00,34.2,29.8,30.02,ESE,113,0.9,1.3,84,0.00,,,0.00,WUHU216HW,2013-01-03 12:12:00,
2013-01-03 04:13:00,34.2,30.1,30.02,ESE,113,0.4,1.3,85,0.00,,,0.00,WUHU216HW,2013-01-03 12:13:00,
2013-01-03 04:14:00,34.2,30.1,30.02,ESE,113,0.7,0.9,85,0.00,,,0.00,WUHU216HW,2013-01-03 12:14:00,
2013-01-03 04:15:00,34.2,30.1,30.02,ESE,113,0.4,0.9,85,0.00,,,0.00,WUHU216HW,2013-01-03 12:15:00,
2013-01-03 04:16:00,34.2,29.8,30.03,SSE,158,0.9,0.9,84,0.00,,,0.00,WUHU216HW,2013-01-03 12:16:00,
2013-01-03 04:17:00,34.2,30.1,30.03,SSE,158,0.4,0.9,85,0.00,,,0.00,WUHU216HW,2013-01-03 12:17:00,
2013-01-03 04:18:00,34.2,30.1,30.03,SSE,158,0.4,0.9,85,0.00,,,0.00,WUHU216HW,2013-01-03 12:18:00,
2013-01-03 04:19:00,34.2,29.8,30.03,SSE,158,0.0,0.9,84,0.00,,,0.00,WUHU216HW,2013-01-03 12:19:00,
2013-01-03 04:20:00,34.2,29.8,30.03,SSE,158,0.0,0.9,84,0.00,,,0.00,WUHU216HW,2013-01-03 12:20:00,
2013-01-03 04:21:00,34.2,29.8,30.03,SSE,158,0.0,0.9,84,0.00,,,0.00,WUHU216HW,2013-01-03 12:21:00,
2013-01-03 04:22:00,34.2,29.8,30.03,ESE,113,1.1,1.1,84,0.00,,,0.00,WUHU216HW,2013-01-03 12:22:00,
2013-01-03 04:23:00,34.2,29.8,30.03,ESE,113,1.6,1.6,84,0.00,,,0.00,WUHU216HW,2013-01-03 12:23:00,
2013-01-03 04:24:00,34.2,29.8,30.03,ESE,113,0.4,1.6,84,0.00,,,0.00,WUHU216HW,2013-01-03 12:24:00,
2013-01-03 04:25:00,34.2,29.8,30.03,ESE,113,0.4,1.6,84,0.00,,,0.00,WUHU216HW,2013-01-03 12:25:00,
2013-01-03 04:26:00,34.2,29.8,30.03,ESE,113,0.4,1.6,84,0.00,,,0.00,WUHU216HW,2013-01-03 12:26:00,
2013-01-03 04:27:00,34.2,29.8,30.03,ESE,113,0.7,1.6,84,0.00,,,0.00,WUHU216HW,2013-01-03 12:27:00,
2013-01-03 04:28:00,34.2,29.8,30.03,ESE,113,0.4,1.6,84,0.00,,,0.00,WUHU216HW,2013-01-03 12:28:00,
2013-01-03 04:29:00,34.2,29.8,30.03,ESE,113,0.7,1.6,84,0.00,,,0.00,WUHU216HW,2013-01-03 12:29:00,
2013-01-03 04:30:00,34.2,29.8,30.03,ESE,113,0.7,1.6,84,0.00,,,0.00,WUHU216HW,2013-01-03 12:30:00,
2013-01-03 04:31:00,34.2,29.8,30.03,ESE,113,0.7,1.6,84,0.00,,,0.00,WUHU216HW,2013-01-03 12:31:00,
2013-01-03 04:32:00,34.2,29.8,30.03,ESE,113,0.7,1.6,84,0.00,,,0.00,WUHU216HW,2013-01-03 12:32:00,
2013-01-03 04:33:00,34.2,29.8,30.03,ESE,113,0.7,0.7,84,0.00,,,0.00,WUHU216HW,2013-01-03 12:33:00,
2013-01-03 04:34:00,34.0,29.6,30.03,ESE,113,0.7,0.7,84,0.00,,,0.00,WUHU216HW,2013-01-03 12:34:00,
2013-01-03 04:35:00,34.0,29.6,30.03,ESE,113,0.7,0.7,84,0.00,,,0.00,WUHU216HW,2013-01-03 12:35:00,
2013-01-03 04:36:00,34.0,29.6,30.03,ESE,113,0.0,0.7,84,0.00,,,0.00,WUHU216HW,2013-01-03 12:36:00,
2013-01-03 04:37:00,34.0,29.6,30.03,ESE,113,0.0,0.7,84,0.00,,,0.00,WUHU216HW,2013-01-03 12:37:00,
2013-01-03 04:38:00,34.0,29.6,30.03,ESE,113,0.0,0.7,84,0.00,,,0.00,WUHU216HW,2013-01-03 12:38:00,
2013-01-03 04:39:00,34.0,29.6,30.03,ESE,113,0.0,0.7,84,0.00,,,0.00,WUHU216HW,2013-01-03 12:39:00,
2013-01-03 04:40:00,34.0,29.6,30.03,ESE,113,0.4,0.7,84,0.00,,,0.00,WUHU216HW,2013-01-03 12:40:00,
2013-01-03 04:41:00,34.0,29.6,30.03,ESE,113,0.4,0.7,84,0.00,,,0.00,WUHU216HW,2013-01-03 12:41:00,
2013-01-03 04:42:00,34.0,29.6,30.03,ESE,113,0.7,0.7,84,0.00,,,0.00,WUHU216HW,2013-01-03 12:42:00,
2013-01-03 04:43:00,34.0,29.6,30.03,ESE,113,0.7,0.7,84,0.00,,,0.00,WUHU216HW,2013-01-03 12:43:00,
2013-01-03 04:44:00,33.8,29.4,30.03,ESE,113,0.7,0.7,84,0.00,,,0.00,WUHU216HW,2013-01-03 12:44:00,
2013-01-03 04:45:00,33.8,29.4,30.03,ESE,113,0.9,0.9,84,0.00,,,0.00,WUHU216HW,2013-01-03 12:45:00,
2013-01-03 04:46:00,33.8,29.4,30.03,ESE,113,0.7,0.9,84,0.00,,,0.00,WUHU216HW,2013-01-03 12:46:00,
2013-01-03 04:47:00,33.8,29.4,30.03,ESE,113,1.1,1.1,84,0.00,,,0.00,WUHU216HW,2013-01-03 12:47:00,
2013-01-03 04:48:00,33.8,29.4,30.03,ESE,113,0.7,1.1,84,0.00,,,0.00,WUHU216HW,2013-01-03 12:48:00,
2013-01-03 04:49:00,33.8,29.4,30.03,ESE,113,0.7,1.1,84,0.00,,,0.00,WUHU216HW,2013-01-03 12:49:00,
2013-01-03 04:50:00,33.8,29.4,30.03,ESE,113,0.4,1.1,84,0.00,,,0.00,WUHU216HW,2013-01-03 12:50:00,
2013-01-03 04:51:00,33.8,29.4,30.03,ESE,113,0.4,1.1,84,0.00,,,0.00,WUHU216HW,2013-01-03 12:51:00,
2013-01-03 04:52:00,33.8,29.4,30.03,ENE,68,0.0,1.1,84,0.00,,,0.00,WUHU216HW,2013-01-03 12:52:00,
2013-01-03 04:53:00,33.8,29.7,30.03,NNW,338,1.1,1.1,85,0.00,,,0.00,WUHU216HW,2013-01-03 12:53:00,
2013-01-03 04:54:00,33.7,29.5,30.03,NNW,338,0.0,1.1,85,0.00,,,0.00,WUHU216HW,2013-01-03 12:54:00,
2013-01-03 04:55:00,33.7,29.5,30.03,NNW,338,0.0,1.1,85,0.00,,,0.00,WUHU216HW,2013-01-03 12:55:00,
2013-01-03 04:56:00,33.7,29.5,30.03,NNW,338,0.0,1.1,85,0.00,,,0.00,WUHU216HW,2013-01-03 12:56:00,
2013-01-03 04:57:00,33.7,29.5,30.03,NNW,338,0.0,1.1,85,0.00,,,0.00,WUHU216HW,2013-01-03 12:57:00,
2013-01-03 04:58:00,33.7,29.5,30.03,NNW,338,0.0,1.1,85,0.00,,,0.00,WUHU216HW,2013-01-03 12:58:00,
2013-01-03 04:59:00,33.7,29.5,30.03,NNW,338,0.9,1.1,85,0.00,,,0.00,WUHU216HW,2013-01-03 12:59:00,
2013-01-03 05:01:00,33.7,29.5,30.03,SSE,158,0.4,1.1,85,0.00,,,0.00,WUHU216HW,2013-01-03 13:01:00,
2013-01-03 05:02:00,33.7,29.5,30.03,South,180,0.4,1.1,85,0.00,,,0.00,WUHU216HW,2013-01-03 13:02:00,
2013-01-03 05:03:00,33.7,29.5,30.03,SW,225,0.4,1.1,85,0.00,,,0.00,WUHU216HW,2013-01-03 13:03:00,
2013-01-03 05:04:00,33.7,29.5,30.03,SW,225,0.2,1.1,85,0.00,,,0.00,WUHU216HW,2013-01-03 13:04:00,
2013-01-03 05:05:00,33.7,29.5,30.03,SW,225,0.0,1.1,85,0.00,,,0.00,WUHU216HW,2013-01-03 13:05:00,
2013-01-03 05:06:00,33.7,29.5,30.03,SW,225,0.0,1.1,85,0.00,,,0.00,WUHU216HW,2013-01-03 13:06:00,
2013-01-03 05:07:00,33.7,29.5,30.03,SW,225,0.0,1.1,85,0.00,,,0.00,WUHU216HW,2013-01-03 13:07:00,
2013-01-03 05:08:00,33.7,29.5,30.03,SW,225,0.0,1.1,85,0.00,,,0.00,WUHU216HW,2013-01-03 13:08:00,
2013-01-03 05:09:00,33.5,29.3,30.03,WSW,248,0.0,1.1,85,0.00,,,0.00,WUHU216HW,2013-01-03 13:09:00,
2013-01-03 05:10:00,33.5,29.3,30.03,WNW,293,0.4,0.4,85,0.00,,,0.00,WUHU216HW,2013-01-03 13:10:00,
2013-01-03 05:11:00,33.5,29.3,30.04,WNW,293,0.2,0.4,85,0.00,,,0.00,WUHU216HW,2013-01-03 13:11:00,
2013-01-03 05:12:00,33.5,29.3,30.03,WNW,293,0.0,0.4,85,0.00,,,0.00,WUHU216HW,2013-01-03 13:12:00,
2013-01-03 05:13:00,33.7,29.5,30.03,WNW,293,0.2,0.4,85,0.00,,,0.00,WUHU216HW,2013-01-03 13:13:00,
2013-01-03 05:14:00,33.7,29.5,30.04,SE,135,0.4,0.4,85,0.00,,,0.00,WUHU216HW,2013-01-03 13:14:00,
2013-01-03 05:15:00,33.7,29.5,30.04,SE,135,0.7,0.7,85,0.00,,,0.00,WUHU216HW,2013-01-03 13:15:00,
2013-01-03 05:16:00,33.7,29.5,30.04,SE,135,0.4,0.7,85,0.00,,,0.00,WUHU216HW,2013-01-03 13:16:00,
2013-01-03 05:17:00,33.7,29.5,30.04,ESE,113,0.4,0.7,85,0.00,,,0.00,WUHU216HW,2013-01-03 13:17:00,
2013-01-03 05:18:00,33.5,29.3,30.04,ESE,113,0.9,0.9,85,0.00,,,0.00,WUHU216HW,2013-01-03 13:18:00,
2013-01-03 05:19:00,33.5,29.3,30.04,ESE,113,0.7,0.9,85,0.00,,,0.00,WUHU216HW,2013-01-03 13:19:00,
2013-01-03 05:20:00,33.5,29.3,30.04,ESE,113,0.9,0.9,85,0.00,,,0.00,WUHU216HW,2013-01-03 13:20:00,
2013-01-03 05:21:00,33.5,29.3,30.04,ESE,113,0.0,0.9,85,0.00,,,0.00,WUHU216HW,2013-01-03 13:21:00,
2013-01-03 05:22:00,33.5,29.3,30.04,ESE,113,0.0,0.9,85,0.00,,,0.00,WUHU216HW,2013-01-03 13:22:00,
2013-01-03 05:23:00,33.5,29.3,30.04,ESE,113,0.2,0.9,85,0.00,,,0.00,WUHU216HW,2013-01-03 13:23:00,
2013-01-03 05:24:00,33.5,29.3,30.04,ESE,113,0.4,0.9,85,0.00,,,0.00,WUHU216HW,2013-01-03 13:24:00,
2013-01-03 05:25:00,33.5,29.3,30.04,ESE,113,0.2,0.9,85,0.00,,,0.00,WUHU216HW,2013-01-03 13:25:00,
2013-01-03 05:26:00,33.5,29.3,30.04,ESE,113,0.0,0.9,85,0.00,,,0.00,WUHU216HW,2013-01-03 13:26:00,
2013-01-03 05:27:00,33.5,29.3,30.04,ESE,113,0.4,0.9,85,0.00,,,0.00,WUHU216HW,2013-01-03 13:27:00,
2013-01-03 05:28:00,33.5,29.3,30.04,SE,135,1.1,1.1,85,0.00,,,0.00,WUHU216HW,2013-01-03 13:28:00,
2013-01-03 05:29:00,33.5,29.3,30.04,SE,135,0.7,1.1,85,0.00,,,0.00,WUHU216HW,2013-01-03 13:29:00,
2013-01-03 05:30:00,33.5,29.3,30.04,ESE,113,1.1,1.1,85,0.00,,,0.00,WUHU216HW,2013-01-03 13:30:00,
2013-01-03 05:31:00,33.5,29.3,30.04,ESE,113,0.4,1.1,85,0.00,,,0.00,WUHU216HW,2013-01-03 13:31:00,
2013-01-03 05:32:00,33.3,29.3,30.04,ESE,113,0.7,1.1,85,0.00,,,0.00,WUHU216HW,2013-01-03 13:32:00,
2013-01-03 05:33:00,33.3,29.3,30.04,ESE,113,0.9,1.1,85,0.00,,,0.00,WUHU216HW,2013-01-03 13:33:00,
2013-01-03 05:34:00,33.3,29.3,30.04,ESE,113,0.4,1.1,85,0.00,,,0.00,WUHU216HW,2013-01-03 13:34:00,
2013-01-03 05:35:00,33.3,29.3,30.04,ESE,113,0.2,1.1,85,0.00,,,0.00,WUHU216HW,2013-01-03 13:35:00,
2013-01-03 05:36:00,33.3,29.3,30.04,ESE,113,0.4,1.1,85,0.00,,,0.00,WUHU216HW,2013-01-03 13:36:00,
2013-01-03 05:37:00,33.3,29.3,30.04,ESE,113,0.4,1.1,85,0.00,,,0.00,WUHU216HW,2013-01-03 13:37:00,
2013-01-03 05:38:00,33.3,29.3,30.04,ESE,113,0.4,1.1,85,0.00,,,0.00,WUHU216HW,2013-01-03 13:38:00,
2013-01-03 05:39:00,33.1,29.1,30.04,ESE,113,0.0,1.1,85,0.00,,,0.00,WUHU216HW,2013-01-03 13:39:00,
2013-01-03 05:40:00,33.3,29.3,30.04,ESE,113,0.0,0.9,85,0.00,,,0.00,WUHU216HW,2013-01-03 13:40:00,
2013-01-03 05:41:00,33.3,29.3,30.04,ESE,113,0.0,0.9,85,0.00,,,0.00,WUHU216HW,2013-01-03 13:41:00,
2013-01-03 05:42:00,33.1,29.1,30.04,ESE,113,0.4,0.9,85,0.00,,,0.00,WUHU216HW,2013-01-03 13:42:00,
2013-01-03 05:43:00,33.1,29.1,30.04,ESE,113,0.4,0.4,85,0.00,,,0.00,WUHU216HW,2013-01-03 13:43:00,
2013-01-03 05:44:00,33.1,29.1,30.04,ESE,113,0.4,0.4,85,0.00,,,0.00,WUHU216HW,2013-01-03 13:44:00,
2013-01-03 05:45:00,33.1,29.1,30.04,East,90,0.7,0.7,85,0.00,,,0.00,WUHU216HW,2013-01-03 13:45:00,
2013-01-03 05:46:00,33.1,29.1,30.04,East,90,0.9,0.9,85,0.00,,,0.00,WUHU216HW,2013-01-03 13:46:00,
2013-01-03 05:47:00,33.3,29.3,30.04,East,90,1.3,1.3,85,0.00,,,0.00,WUHU216HW,2013-01-03 13:47:00,
2013-01-03 05:48:00,33.3,29.3,30.04,East,90,1.1,1.3,85,0.00,,,0.00,WUHU216HW,2013-01-03 13:48:00,
2013-01-03 05:49:00,33.3,29.3,30.04,East,90,0.7,1.3,85,0.00,,,0.00,WUHU216HW,2013-01-03 13:49:00,
2013-01-03 05:50:00,33.3,29.3,30.04,East,90,0.4,1.3,85,0.00,,,0.00,WUHU216HW,2013-01-03 13:50:00,
2013-01-03 05:51:00,33.3,29.3,30.04,East,90,0.7,1.3,85,0.00,,,0.00,WUHU216HW,2013-01-03 13:51:00,
2013-01-03 05:52:00,33.3,29.3,30.04,East,90,0.4,1.3,85,0.00,,,0.00,WUHU216HW,2013-01-03 13:52:00,
2013-01-03 05:53:00,33.3,29.3,30.04,East,90,0.4,1.3,85,0.00,,,0.00,WUHU216HW,2013-01-03 13:53:00,
2013-01-03 05:54:00,33.3,29.3,30.04,East,90,0.4,1.3,85,0.00,,,0.00,WUHU216HW,2013-01-03 13:54:00,
2013-01-03 05:55:00,33.3,29.3,30.04,East,90,0.4,1.3,85,0.00,,,0.00,WUHU216HW,2013-01-03 13:55:00,
2013-01-03 05:56:00,33.3,29.3,30.04,East,90,0.2,1.3,85,0.00,,,0.00,WUHU216HW,2013-01-03 13:56:00,
2013-01-03 05:57:00,33.3,29.3,30.04,NNW,338,1.6,1.6,85,0.00,,,0.00,WUHU216HW,2013-01-03 13:57:00,
2013-01-03 05:58:00,33.1,29.1,30.04,NNW,338,0.4,1.6,85,0.00,,,0.00,WUHU216HW,2013-01-03 13:58:00,
2013-01-03 05:59:00,33.1,29.3,30.04,NNW,338,0.0,1.6,86,0.00,,,0.00,WUHU216HW,2013-01-03 13:59:00,
2013-01-03 06:01:00,33.1,29.3,30.04,NNW,338,0.4,1.6,86,0.00,,,0.00,WUHU216HW,2013-01-03 14:01:00,
2013-01-03 06:02:00,33.1,29.3,30.04,NNW,338,0.0,1.6,86,0.00,,,0.00,WUHU216HW,2013-01-03 14:02:00,
2013-01-03 06:03:00,33.1,29.3,30.04,NNW,338,0.0,1.6,86,0.00,,,0.00,WUHU216HW,2013-01-03 14:03:00,
2013-01-03 06:04:00,33.1,29.3,30.04,NNW,338,0.2,1.6,86,0.00,,,0.00,WUHU216HW,2013-01-03 14:04:00,
2013-01-03 06:05:00,33.1,29.3,30.04,NNW,338,0.0,1.6,86,0.00,,,0.00,WUHU216HW,2013-01-03 14:05:00,
2013-01-03 06:06:00,33.1,29.3,30.04,NNW,338,0.2,1.6,86,0.00,,,0.00,WUHU216HW,2013-01-03 14:06:00,
2013-01-03 06:07:00,33.1,29.3,30.04,ESE,113,0.9,1.6,86,0.00,,,0.00,WUHU216HW,2013-01-03 14:07:00,
2013-01-03 06:08:00,33.1,29.3,30.04,ESE,113,0.4,0.9,86,0.00,,,0.00,WUHU216HW,2013-01-03 14:08:00,
2013-01-03 06:09:00,33.1,29.3,30.04,ESE,113,0.0,0.9,86,0.00,,,0.00,WUHU216HW,2013-01-03 14:09:00,
2013-01-03 06:10:00,33.1,29.3,30.05,ESE,113,0.0,0.9,86,0.00,,,0.00,WUHU216HW,2013-01-03 14:10:00,
2013-01-03 06:11:00,33.1,29.3,30.05,ESE,113,0.0,0.9,86,0.00,,,0.00,WUHU216HW,2013-01-03 14:11:00,
2013-01-03 06:12:00,33.1,29.3,30.05,ESE,113,1.1,1.1,86,0.00,,,0.00,WUHU216HW,2013-01-03 14:12:00,
2013-01-03 06:13:00,33.1,29.3,30.04,ESE,113,1.3,1.3,86,0.00,,,0.00,WUHU216HW,2013-01-03 14:13:00,
2013-01-03 06:14:00,33.1,29.3,30.05,ESE,113,1.1,1.3,86,0.00,,,0.00,WUHU216HW,2013-01-03 14:14:00,
2013-01-03 06:15:00,33.1,29.3,30.04,ESE,113,1.1,1.3,86,0.00,,,0.00,WUHU216HW,2013-01-03 14:15:00,
2013-01-03 06:16:00,33.1,29.3,30.04,ESE,113,0.7,1.3,86,0.00,,,0.00,WUHU216HW,2013-01-03 14:16:00,
2013-01-03 06:17:00,33.1,29.3,30.04,ESE,113,0.4,1.3,86,0.00,,,0.00,WUHU216HW,2013-01-03 14:17:00,
2013-01-03 06:18:00,32.9,29.2,30.04,ESE,113,0.4,1.3,86,0.00,,,0.00,WUHU216HW,2013-01-03 14:18:00,
2013-01-03 06:19:00,32.9,29.2,30.05,SSE,158,0.7,1.3,86,0.00,,,0.00,WUHU216HW,2013-01-03 14:19:00,
2013-01-03 06:20:00,32.9,29.2,30.05,SE,135,0.7,1.3,86,0.00,,,0.00,WUHU216HW,2013-01-03 14:20:00,
2013-01-03 06:21:00,32.9,29.2,30.05,SE,135,0.9,1.3,86,0.00,,,0.00,WUHU216HW,2013-01-03 14:21:00,
2013-01-03 06:22:00,32.9,29.2,30.05,SE,135,0.7,1.3,86,0.00,,,0.00,WUHU216HW,2013-01-03 14:22:00,
2013-01-03 06:23:00,32.9,29.2,30.05,SSE,158,0.2,1.1,86,0.00,,,0.00,WUHU216HW,2013-01-03 14:23:00,
2013-01-03 06:24:00,32.9,29.2,30.05,SSE,158,0.4,1.1,86,0.00,,,0.00,WUHU216HW,2013-01-03 14:24:00,
2013-01-03 06:25:00,32.9,29.2,30.05,SSE,158,0.4,0.9,86,0.00,,,0.00,WUHU216HW,2013-01-03 14:25:00,
2013-01-03 06:26:00,32.9,29.2,30.05,SSE,158,0.0,0.9,86,0.00,,,0.00,WUHU216HW,2013-01-03 14:26:00,
2013-01-03 06:27:00,32.9,29.2,30.05,SSE,158,0.0,0.9,86,0.00,,,0.00,WUHU216HW,2013-01-03 14:27:00,
2013-01-03 06:28:00,32.9,29.2,30.05,SSE,158,0.7,0.9,86,0.00,,,0.00,WUHU216HW,2013-01-03 14:28:00,
2013-01-03 06:29:00,32.9,29.2,30.05,SSE,158,0.7,0.9,86,0.00,,,0.00,WUHU216HW,2013-01-03 14:29:00,
2013-01-03 06:30:00,32.9,29.2,30.05,East,90,0.4,0.9,86,0.00,,,0.00,WUHU216HW,2013-01-03 14:30:00,
2013-01-03 06:31:00,32.9,29.2,30.05,ENE,68,0.4,0.7,86,0.00,,,0.00,WUHU216HW,2013-01-03 14:31:00,
2013-01-03 06:32:00,32.9,29.2,30.05,ENE,68,0.4,0.7,86,0.00,,,0.00,WUHU216HW,2013-01-03 14:32:00,
2013-01-03 06:33:00,32.9,29.2,30.05,ENE,68,0.7,0.7,86,0.00,,,0.00,WUHU216HW,2013-01-03 14:33:00,
2013-01-03 06:34:00,32.9,29.2,30.05,ENE,68,0.9,0.9,86,0.00,,,0.00,WUHU216HW,2013-01-03 14:34:00,
2013-01-03 06:35:00,32.9,29.2,30.05,East,90,0.7,0.9,86,0.00,,,0.00,WUHU216HW,2013-01-03 14:35:00,
2013-01-03 06:36:00,32.9,29.2,30.05,ENE,68,0.4,0.9,86,0.00,,,0.00,WUHU216HW,2013-01-03 14:36:00,
2013-01-03 06:37:00,32.9,29.2,30.05,ENE,68,0.4,0.9,86,0.00,,,0.00,WUHU216HW,2013-01-03 14:37:00,
2013-01-03 06:38:00,32.9,29.2,30.05,ENE,68,0.7,0.9,86,0.00,,,0.00,WUHU216HW,2013-01-03 14:38:00,
2013-01-03 06:39:00,32.9,29.2,30.05,ENE,68,1.1,1.1,86,0.00,,,0.00,WUHU216HW,2013-01-03 14:39:00,
2013-01-03 06:40:00,32.9,29.2,30.05,ENE,68,1.6,1.6,86,0.00,,,0.00,WUHU216HW,2013-01-03 14:40:00,
2013-01-03 06:41:00,32.9,29.2,30.05,ENE,68,1.3,1.6,86,0.00,,,0.00,WUHU216HW,2013-01-03 14:41:00,
2013-01-03 06:42:00,32.9,29.2,30.05,ENE,68,1.1,1.6,86,0.00,,,0.00,WUHU216HW,2013-01-03 14:42:00,
2013-01-03 06:43:00,32.9,29.2,30.05,East,90,0.7,1.6,86,0.00,,,0.00,WUHU216HW,2013-01-03 14:43:00,
2013-01-03 06:44:00,32.9,29.2,30.05,East,90,0.7,1.6,86,0.00,,,0.00,WUHU216HW,2013-01-03 14:44:00,
2013-01-03 06:45:00,33.1,29.3,30.05,ESE,113,0.7,1.6,86,0.00,,,0.00,WUHU216HW,2013-01-03 14:45:00,
2013-01-03 06:46:00,32.9,29.2,30.04,ESE,113,0.4,1.6,86,0.00,,,0.00,WUHU216HW,2013-01-03 14:46:00,
2013-01-03 06:47:00,32.9,29.2,30.04,ESE,113,0.0,1.6,86,0.00,,,0.00,WUHU216HW,2013-01-03 14:47:00,
2013-01-03 06:48:00,32.9,29.2,30.04,ESE,113,0.0,1.6,86,0.00,,,0.00,WUHU216HW,2013-01-03 14:48:00,
2013-01-03 06:49:00,32.9,29.2,30.05,ESE,113,0.0,1.6,86,0.00,,,0.00,WUHU216HW,2013-01-03 14:49:00,
2013-01-03 06:50:00,32.9,29.2,30.05,ESE,113,0.0,1.3,86,0.00,,,0.00,WUHU216HW,2013-01-03 14:50:00,
2013-01-03 06:51:00,32.9,29.2,30.04,ESE,113,0.0,1.1,86,0.00,,,0.00,WUHU216HW,2013-01-03 14:51:00,
2013-01-03 06:52:00,32.9,29.2,30.05,ESE,113,0.0,0.7,86,0.00,,,0.00,WUHU216HW,2013-01-03 14:52:00,
2013-01-03 06:53:00,32.9,29.2,30.05,ESE,113,0.0,0.7,86,0.00,,,0.00,WUHU216HW,2013-01-03 14:53:00,
2013-01-03 06:54:00,32.9,29.2,30.05,ESE,113,0.0,0.7,86,0.00,,,0.00,WUHU216HW,2013-01-03 14:54:00,
2013-01-03 06:55:00,32.9,29.2,30.05,NNW,338,0.7,0.7,86,0.00,,,0.00,WUHU216HW,2013-01-03 14:55:00,
2013-01-03 06:56:00,32.8,29.0,30.05,NNW,338,0.0,0.7,86,0.00,,,0.00,WUHU216HW,2013-01-03 14:56:00,
2013-01-03 06:57:00,32.8,29.0,30.05,NW,315,0.2,0.7,86,0.00,,,0.00,WUHU216HW,2013-01-03 14:57:00,
2013-01-03 06:58:00,32.8,29.0,30.05,WNW,293,0.2,0.7,86,0.00,,,0.00,WUHU216HW,2013-01-03 14:58:00,
2013-01-03 06:59:00,32.8,29.0,30.05,WNW,293,0.0,0.7,86,0.00,,,0.00,WUHU216HW,2013-01-03 14:59:00,
2013-01-03 07:00:00,32.8,29.0,30.05,WNW,293,0.4,0.7,86,0.00,,,0.00,WUHU216HW,2013-01-03 15:00:00,
2013-01-03 07:01:00,32.9,29.2,30.05,ESE,113,0.4,0.7,86,0.00,,,0.00,WUHU216HW,2013-01-03 15:01:00,
2013-01-03 07:02:00,32.8,29.0,30.05,ESE,113,1.1,1.1,86,0.00,,,0.00,WUHU216HW,2013-01-03 15:02:00,
2013-01-03 07:03:00,32.8,29.0,30.06,ESE,113,0.9,1.1,86,0.00,,,0.00,WUHU216HW,2013-01-03 15:03:00,
2013-01-03 07:04:00,32.8,29.0,30.06,ESE,113,0.4,1.1,86,0.00,,,0.00,WUHU216HW,2013-01-03 15:04:00,
2013-01-03 07:05:00,32.8,29.0,30.06,ESE,113,0.4,1.1,86,0.00,,,0.00,WUHU216HW,2013-01-03 15:05:00,
2013-01-03 07:06:00,32.8,29.0,30.06,ESE,113,0.2,1.1,86,0.00,,,0.00,WUHU216HW,2013-01-03 15:06:00,
2013-01-03 07:07:00,32.8,29.0,30.06,ESE,113,0.7,1.1,86,0.00,,,0.00,WUHU216HW,2013-01-03 15:07:00,
2013-01-03 07:08:00,32.8,29.0,30.06,ESE,113,0.7,1.1,86,0.00,,,0.00,WUHU216HW,2013-01-03 15:08:00,
2013-01-03 07:09:00,32.8,29.0,30.06,SE,135,1.1,1.1,86,0.00,,,0.00,WUHU216HW,2013-01-03 15:09:00,
2013-01-03 07:10:00,32.8,29.0,30.06,SE,135,0.4,1.1,86,0.00,,,0.00,WUHU216HW,2013-01-03 15:10:00,
2013-01-03 07:11:00,32.8,29.0,30.06,SSW,203,0.7,1.1,86,0.00,,,0.00,WUHU216HW,2013-01-03 15:11:00,
2013-01-03 07:12:00,32.8,29.0,30.06,SSW,203,0.4,1.1,86,0.00,,,0.00,WUHU216HW,2013-01-03 15:12:00,
2013-01-03 07:13:00,32.8,29.0,30.07,SSW,203,0.2,1.1,86,0.00,,,0.00,WUHU216HW,2013-01-03 15:13:00,
2013-01-03 07:14:00,32.8,29.0,30.06,SSW,203,0.2,1.1,86,0.00,,,0.00,WUHU216HW,2013-01-03 15:14:00,
2013-01-03 07:15:00,32.8,29.0,30.06,SSW,203,0.0,1.1,86,0.00,,,0.00,WUHU216HW,2013-01-03 15:15:00,
2013-01-03 07:16:00,32.8,29.0,30.07,SSW,203,0.0,1.1,86,0.00,,,0.00,WUHU216HW,2013-01-03 15:16:00,
2013-01-03 07:17:00,32.8,29.0,30.06,SSW,203,0.0,1.1,86,0.00,,,0.00,WUHU216HW,2013-01-03 15:17:00,
2013-01-03 07:18:00,32.8,29.0,30.06,East,90,1.1,1.1,86,0.00,,,0.00,WUHU216HW,2013-01-03 15:18:00,
2013-01-03 07:19:00,32.8,29.0,30.06,ESE,113,0.4,1.1,86,0.00,,,0.00,WUHU216HW,2013-01-03 15:19:00,
2013-01-03 07:20:00,32.8,29.0,30.06,East,90,0.7,1.1,86,0.00,,,0.00,WUHU216HW,2013-01-03 15:20:00,
2013-01-03 07:21:00,32.8,29.0,30.06,East,90,0.2,1.1,86,0.00,,,0.00,WUHU216HW,2013-01-03 15:21:00,
2013-01-03 07:22:00,32.8,29.0,30.06,East,90,0.0,1.1,86,0.00,,,0.00,WUHU216HW,2013-01-03 15:22:00,
2013-01-03 07:23:00,32.8,29.0,30.06,East,90,0.0,1.1,86,0.00,,,0.00,WUHU216HW,2013-01-03 15:23:00,
2013-01-03 07:24:00,32.8,29.0,30.06,East,90,0.2,1.1,86,0.00,,,0.00,WUHU216HW,2013-01-03 15:24:00,
2013-01-03 07:25:00,32.8,29.0,30.06,East,90,0.2,1.1,86,0.00,,,0.00,WUHU216HW,2013-01-03 15:25:00,
2013-01-03 07:26:00,32.8,29.0,30.06,East,90,0.2,1.1,86,0.00,,,0.00,WUHU216HW,2013-01-03 15:26:00,
2013-01-03 07:27:00,32.8,29.0,30.06,East,90,0.4,1.1,86,0.00,,,0.00,WUHU216HW,2013-01-03 15:27:00,
2013-01-03 07:28:00,32.8,29.0,30.06,East,90,0.2,0.7,86,0.00,,,0.00,WUHU216HW,2013-01-03 15:28:00,
2013-01-03 07:29:00,32.8,29.0,30.06,East,90,0.0,0.7,86,0.00,,,0.00,WUHU216HW,2013-01-03 15:29:00,
2013-01-03 07:30:00,32.8,29.0,30.06,East,90,0.0,0.4,86,0.00,,,0.00,WUHU216HW,2013-01-03 15:30:00,
2013-01-03 07:31:00,32.8,29.0,30.06,ENE,68,0.4,0.4,86,0.00,,,0.00,WUHU216HW,2013-01-03 15:31:00,
2013-01-03 07:32:00,32.8,29.0,30.06,ENE,68,0.4,0.4,86,0.00,,,0.00,WUHU216HW,2013-01-03 15:32:00,
2013-01-03 07:33:00,32.8,29.0,30.06,ENE,68,1.1,1.1,86,0.00,,,0.00,WUHU216HW,2013-01-03 15:33:00,
2013-01-03 07:34:00,32.8,29.0,30.05,ENE,68,0.0,1.1,86,0.00,,,0.00,WUHU216HW,2013-01-03 15:34:00,
2013-01-03 07:35:00,32.8,29.0,30.05,NE,45,1.1,1.1,86,0.00,,,0.00,WUHU216HW,2013-01-03 15:35:00,
2013-01-03 07:36:00,32.8,29.0,30.05,North,0,0.0,1.1,86,0.00,,,0.00,WUHU216HW,2013-01-03 15:36:00,
2013-01-03 07:37:00,32.8,29.0,30.06,North,0,0.0,1.1,86,0.00,,,0.00,WUHU216HW,2013-01-03 15:37:00,
2013-01-03 07:38:00,32.9,29.2,30.06,NNE,23,0.2,1.1,86,0.00,,,0.00,WUHU216HW,2013-01-03 15:38:00,
2013-01-03 07:39:00,32.9,29.2,30.05,NNE,23,0.0,1.1,86,0.00,,,0.00,WUHU216HW,2013-01-03 15:39:00,
2013-01-03 07:40:00,33.1,29.3,30.05,WSW,248,0.4,1.1,86,0.00,,,0.00,WUHU216HW,2013-01-03 15:40:00,
2013-01-03 07:41:00,33.1,29.6,30.05,WSW,248,0.4,1.1,87,0.00,,,0.00,WUHU216HW,2013-01-03 15:41:00,
2013-01-03 07:42:00,33.3,29.8,30.05,West,270,0.4,1.1,87,0.00,,,0.00,WUHU216HW,2013-01-03 15:42:00,
2013-01-03 07:43:00,33.5,30.0,30.05,West,270,0.9,1.1,87,0.00,,,0.00,WUHU216HW,2013-01-03 15:43:00,
2013-01-03 07:44:00,33.5,30.2,30.06,West,270,0.4,1.1,88,0.00,,,0.00,WUHU216HW,2013-01-03 15:44:00,
2013-01-03 07:45:00,33.7,30.4,30.06,NNW,338,1.8,1.8,88,0.00,,,0.00,WUHU216HW,2013-01-03 15:45:00,
2013-01-03 07:46:00,33.8,30.6,30.05,NNW,338,2.9,2.9,88,0.00,,,0.00,WUHU216HW,2013-01-03 15:46:00,
2013-01-03 07:47:00,34.0,31.1,30.05,NW,315,0.7,2.9,89,0.00,,,0.00,WUHU216HW,2013-01-03 15:47:00,
2013-01-03 07:48:00,34.2,31.2,30.05,NNW,338,0.9,2.9,89,0.00,,,0.00,WUHU216HW,2013-01-03 15:48:00,
2013-01-03 07:49:00,34.7,31.8,30.06,NW,315,1.1,2.9,89,0.00,,,0.00,WUHU216HW,2013-01-03 15:49:00,
2013-01-03 07:50:00,34.9,32.0,30.06,NW,315,0.0,2.9,89,0.00,,,0.00,WUHU216HW,2013-01-03 15:50:00,
2013-01-03 07:51:00,35.3,32.1,30.06,WNW,293,0.4,2.9,88,0.00,,,0.00,WUHU216HW,2013-01-03 15:51:00,
2013-01-03 07:52:00,35.6,32.4,30.06,WSW,248,0.2,2.9,88,0.00,,,0.00,WUHU216HW,2013-01-03 15:52:00,
2013-01-03 07:53:00,35.8,32.2,30.06,WSW,248,0.0,2.9,87,0.00,,,0.00,WUHU216HW,2013-01-03 15:53:00,
2013-01-03 07:54:00,36.2,32.6,30.06,East,90,0.7,2.9,87,0.00,,,0.00,WUHU216HW,2013-01-03 15:54:00,
2013-01-03 07:55:00,36.4,32.8,30.06,East,90,0.9,2.9,87,0.00,,,0.00,WUHU216HW,2013-01-03 15:55:00,
2013-01-03 07:56:00,36.4,32.8,30.06,ENE,68,0.4,1.1,87,0.00,,,0.00,WUHU216HW,2013-01-03 15:56:00,
2013-01-03 07:57:00,36.4,32.8,30.06,East,90,0.2,1.1,87,0.00,,,0.00,WUHU216HW,2013-01-03 15:57:00,
2013-01-03 07:58:00,36.4,32.8,30.06,ESE,113,0.9,1.1,87,0.00,,,0.00,WUHU216HW,2013-01-03 15:58:00,
2013-01-03 07:59:00,36.4,32.8,30.06,SE,135,0.9,0.9,87,0.00,,,0.00,WUHU216HW,2013-01-03 15:59:00,
2013-01-03 08:00:00,36.5,32.9,30.07,SE,135,0.4,0.9,87,0.00,,,0.00,WUHU216HW,2013-01-03 16:00:00,
2013-01-03 08:02:00,36.4,32.5,30.07,ESE,113,1.1,1.1,86,0.00,,,0.00,WUHU216HW,2013-01-03 16:02:00,
2013-01-03 08:03:00,36.4,32.5,30.07,NE,45,1.1,1.1,86,0.00,,,0.00,WUHU216HW,2013-01-03 16:03:00,
2013-01-03 08:04:00,36.4,32.5,30.07,ENE,68,0.4,1.1,86,0.00,,,0.00,WUHU216HW,2013-01-03 16:04:00,
2013-01-03 08:05:00,36.4,32.5,30.07,ENE,68,1.8,1.8,86,0.00,,,0.00,WUHU216HW,2013-01-03 16:05:00,
2013-01-03 08:06:00,36.4,32.5,30.07,ENE,68,1.1,1.8,86,0.00,,,0.00,WUHU216HW,2013-01-03 16:06:00,
2013-01-03 08:07:00,36.4,32.5,30.07,ENE,68,1.1,1.8,86,0.00,,,0.00,WUHU216HW,2013-01-03 16:07:00,
2013-01-03 08:08:00,36.5,32.7,30.07,ENE,68,1.8,1.8,86,0.00,,,0.00,WUHU216HW,2013-01-03 16:08:00,
2013-01-03 08:09:00,36.7,32.9,30.07,East,90,0.4,1.8,86,0.00,,,0.00,WUHU216HW,2013-01-03 16:09:00,
2013-01-03 08:10:00,36.7,32.9,30.07,ESE,113,0.4,1.8,86,0.00,,,0.00,WUHU216HW,2013-01-03 16:10:00,
2013-01-03 08:11:00,36.7,32.9,30.07,NE,45,0.7,1.8,86,0.00,,,0.00,WUHU216HW,2013-01-03 16:11:00,
2013-01-03 08:12:00,36.9,33.0,30.08,SE,135,2.5,2.5,86,0.00,,,0.00,WUHU216HW,2013-01-03 16:12:00,
2013-01-03 08:13:00,37.1,33.2,30.08,SE,135,0.4,2.5,86,0.00,,,0.00,WUHU216HW,2013-01-03 16:13:00,
2013-01-03 08:14:00,37.1,33.2,30.08,SE,135,1.3,2.5,86,0.00,,,0.00,WUHU216HW,2013-01-03 16:14:00,
2013-01-03 08:15:00,37.1,33.2,30.08,SE,135,2.2,2.5,86,0.00,,,0.00,WUHU216HW,2013-01-03 16:15:00,
2013-01-03 08:16:00,37.3,33.4,30.08,SE,135,1.8,2.5,86,0.00,,,0.00,WUHU216HW,2013-01-03 16:16:00,
2013-01-03 08:17:00,37.4,33.6,30.08,ESE,113,0.4,2.5,86,0.00,,,0.00,WUHU216HW,2013-01-03 16:17:00,
2013-01-03 08:18:00,37.6,33.8,30.08,East,90,0.4,2.5,86,0.00,,,0.00,WUHU216HW,2013-01-03 16:18:00,
2013-01-03 08:19:00,37.8,33.9,30.08,East,90,1.1,2.5,86,0.00,,,0.00,WUHU216HW,2013-01-03 16:19:00,
2013-01-03 08:20:00,37.8,33.9,30.08,ESE,113,1.8,2.5,86,0.00,,,0.00,WUHU216HW,2013-01-03 16:20:00,
2013-01-03 08:21:00,38.0,34.1,30.08,ENE,68,1.1,2.5,86,0.00,,,0.00,WUHU216HW,2013-01-03 16:21:00,
2013-01-03 08:22:00,38.3,34.5,30.08,ENE,68,0.0,2.2,86,0.00,,,0.00,WUHU216HW,2013-01-03 16:22:00,
2013-01-03 08:23:00,38.3,34.2,30.08,East,90,0.4,2.2,85,0.00,,,0.00,WUHU216HW,2013-01-03 16:23:00,
2013-01-03 08:24:00,38.5,34.4,30.08,East,90,0.2,2.2,85,0.00,,,0.00,WUHU216HW,2013-01-03 16:24:00,
2013-01-03 08:25:00,38.5,34.4,30.08,East,90,0.7,1.8,85,0.00,,,0.00,WUHU216HW,2013-01-03 16:25:00,
2013-01-03 08:26:00,38.7,34.6,30.08,ESE,113,0.9,1.8,85,0.00,,,0.00,WUHU216HW,2013-01-03 16:26:00,
2013-01-03 08:27:00,38.9,34.7,30.08,SE,135,1.1,1.8,85,0.00,,,0.00,WUHU216HW,2013-01-03 16:27:00,
2013-01-03 08:28:00,39.1,34.9,30.08,SE,135,1.1,1.8,85,0.00,,,0.00,WUHU216HW,2013-01-03 16:28:00,
2013-01-03 08:29:00,39.2,35.1,30.08,SE,135,0.0,1.8,85,0.00,,,0.00,WUHU216HW,2013-01-03 16:29:00,
2013-01-03 08:30:00,39.2,35.1,30.08,East,90,0.4,1.1,85,0.00,,,0.00,WUHU216HW,2013-01-03 16:30:00,
2013-01-03 08:31:00,39.4,35.0,30.08,East,90,0.4,1.1,84,0.00,,,0.00,WUHU216HW,2013-01-03 16:31:00,
2013-01-03 08:32:00,39.6,35.2,30.08,East,90,0.0,1.1,84,0.00,,,0.00,WUHU216HW,2013-01-03 16:32:00,
2013-01-03 08:33:00,39.6,35.2,30.08,South,180,1.3,1.3,84,0.00,,,0.00,WUHU216HW,2013-01-03 16:33:00,
2013-01-03 08:34:00,39.8,35.3,30.08,SSW,203,0.4,1.3,84,0.00,,,0.00,WUHU216HW,2013-01-03 16:34:00,
2013-01-03 08:35:00,40.0,35.5,30.08,SSW,203,0.2,1.3,84,0.00,,,0.00,WUHU216HW,2013-01-03 16:35:00,
2013-01-03 08:36:00,40.0,35.5,30.08,SSW,203,0.0,1.3,84,0.00,,,0.00,WUHU216HW,2013-01-03 16:36:00,
2013-01-03 08:37:00,40.1,35.6,30.08,SSW,203,1.1,1.3,84,0.00,,,0.00,WUHU216HW,2013-01-03 16:37:00,
2013-01-03 08:38:00,40.3,35.8,30.08,SSE,158,0.4,1.3,84,0.00,,,0.00,WUHU216HW,2013-01-03 16:38:00,
2013-01-03 08:39:00,40.5,36.0,30.08,SE,135,0.4,1.3,84,0.00,,,0.00,WUHU216HW,2013-01-03 16:39:00,
2013-01-03 08:40:00,40.7,36.2,30.08,SE,135,0.7,1.3,84,0.00,,,0.00,WUHU216HW,2013-01-03 16:40:00,
2013-01-03 08:41:00,40.9,36.0,30.08,SE,135,0.4,1.3,83,0.00,,,0.00,WUHU216HW,2013-01-03 16:41:00,
2013-01-03 08:42:00,41.0,36.2,30.08,East,90,1.1,1.3,83,0.00,,,0.00,WUHU216HW,2013-01-03 16:42:00,
2013-01-03 08:43:00,41.2,36.4,30.08,East,90,0.4,1.1,83,0.00,,,0.00,WUHU216HW,2013-01-03 16:43:00,
2013-01-03 08:44:00,41.4,36.5,30.08,SE,135,0.4,1.1,83,0.00,,,0.00,WUHU216HW,2013-01-03 16:44:00,
2013-01-03 08:45:00,41.6,36.7,30.08,ESE,113,2.5,2.5,83,0.00,,,0.00,WUHU216HW,2013-01-03 16:45:00,
2013-01-03 08:46:00,41.8,36.9,30.08,SE,135,1.1,2.5,83,0.00,,,0.00,WUHU216HW,2013-01-03 16:46:00,
2013-01-03 08:47:00,41.9,37.1,30.08,SE,135,1.3,2.5,83,0.00,,,0.00,WUHU216HW,2013-01-03 16:47:00,
2013-01-03 08:48:00,42.1,37.3,30.08,SE,135,1.3,2.5,83,0.00,,,0.00,WUHU216HW,2013-01-03 16:48:00,
2013-01-03 08:49:00,42.3,37.4,30.08,SE,135,0.4,2.5,83,0.00,,,0.00,WUHU216HW,2013-01-03 16:49:00,
2013-01-03 08:50:00,42.5,37.6,30.08,SE,135,0.4,2.5,83,0.00,,,0.00,WUHU216HW,2013-01-03 16:50:00,
2013-01-03 08:51:00,42.7,37.8,30.08,SW,225,0.4,2.5,83,0.00,,,0.00,WUHU216HW,2013-01-03 16:51:00,
2013-01-03 08:52:00,42.8,37.7,30.08,SW,225,1.1,2.5,82,0.00,,,0.00,WUHU216HW,2013-01-03 16:52:00,
2013-01-03 08:53:00,42.8,37.4,30.08,SW,225,1.1,2.5,81,0.00,,,0.00,WUHU216HW,2013-01-03 16:53:00,
2013-01-03 08:54:00,43.2,37.7,30.08,SW,225,1.8,2.5,81,0.00,,,0.00,WUHU216HW,2013-01-03 16:54:00,
2013-01-03 08:55:00,43.4,37.9,30.08,SW,225,0.2,1.8,81,0.00,,,0.00,WUHU216HW,2013-01-03 16:55:00,
2013-01-03 08:56:00,43.6,37.8,30.08,NW,315,0.4,1.8,80,0.00,,,0.00,WUHU216HW,2013-01-03 16:56:00,
2013-01-03 08:57:00,43.6,37.8,30.08,West,270,1.3,1.8,80,0.00,,,0.00,WUHU216HW,2013-01-03 16:57:00,
2013-01-03 08:58:00,43.7,37.0,30.08,SW,225,2.5,2.5,77,0.00,,,0.00,WUHU216HW,2013-01-03 16:58:00,
2013-01-03 08:59:00,44.1,37.4,30.08,WSW,248,1.8,2.5,77,0.00,,,0.00,WUHU216HW,2013-01-03 16:59:00,
2013-01-03 09:00:00,44.3,36.5,30.08,NW,315,0.4,2.5,74,0.00,,,0.00,WUHU216HW,2013-01-03 17:00:00,
2013-01-03 09:01:00,44.5,36.6,30.09,ENE,68,0.4,2.5,74,0.00,,,0.00,WUHU216HW,2013-01-03 17:01:00,
2013-01-03 09:03:00,44.8,37.0,30.08,WNW,293,0.4,2.5,74,0.00,,,0.00,WUHU216HW,2013-01-03 17:03:00,
2013-01-03 09:04:00,44.8,37.0,30.08,WNW,293,0.0,2.5,74,0.00,,,0.00,WUHU216HW,2013-01-03 17:04:00,
2013-01-03 09:05:00,45.2,37.0,30.09,NNW,338,0.7,2.5,73,0.00,,,0.00,WUHU216HW,2013-01-03 17:05:00,
2013-01-03 09:06:00,45.4,36.9,30.09,NW,315,0.7,2.5,72,0.00,,,0.00,WUHU216HW,2013-01-03 17:06:00,
2013-01-03 09:08:00,45.5,37.1,30.09,ENE,68,0.2,2.5,72,0.00,,,0.00,WUHU216HW,2013-01-03 17:08:00,
2013-01-03 09:10:00,45.7,37.5,30.09,SE,135,2.7,2.7,73,0.00,,,0.00,WUHU216HW,2013-01-03 17:10:00,
2013-01-03 09:11:00,45.9,37.7,30.09,ESE,113,4.7,4.7,73,0.00,,,0.00,WUHU216HW,2013-01-03 17:11:00,
2013-01-03 09:12:00,46.1,38.3,30.09,East,90,3.6,4.7,74,0.00,,,0.00,WUHU216HW,2013-01-03 17:12:00,
2013-01-03 09:13:00,46.3,38.4,30.09,SE,135,4.7,4.7,74,0.00,,,0.00,WUHU216HW,2013-01-03 17:13:00,
2013-01-03 09:14:00,46.4,38.6,30.09,SSE,158,3.6,4.7,74,0.00,,,0.00,WUHU216HW,2013-01-03 17:14:00,
2013-01-03 09:15:00,46.4,39.0,30.09,SE,135,2.9,4.7,75,0.00,,,0.00,WUHU216HW,2013-01-03 17:15:00,
2013-01-03 09:16:00,46.4,39.0,30.09,ESE,113,4.9,4.9,75,0.00,,,0.00,WUHU216HW,2013-01-03 17:16:00,
2013-01-03 09:17:00,46.6,39.2,30.09,SE,135,2.0,4.9,75,0.00,,,0.00,WUHU216HW,2013-01-03 17:17:00,
2013-01-03 09:18:00,46.8,39.3,30.09,SE,135,3.6,4.9,75,0.00,,,0.00,WUHU216HW,2013-01-03 17:18:00,
2013-01-03 09:19:00,46.8,39.3,30.10,ESE,113,2.2,4.9,75,0.00,,,0.00,WUHU216HW,2013-01-03 17:19:00,
2013-01-03 09:20:00,46.8,39.3,30.09,East,90,0.2,4.9,75,0.00,,,0.00,WUHU216HW,2013-01-03 17:20:00,
2013-01-03 09:21:00,46.8,39.3,30.09,ESE,113,0.4,4.9,75,0.00,,,0.00,WUHU216HW,2013-01-03 17:21:00,
2013-01-03 09:22:00,46.8,39.3,30.10,ENE,68,2.2,4.9,75,0.00,,,0.00,WUHU216HW,2013-01-03 17:22:00,
2013-01-03 09:23:00,47.0,39.4,30.10,NNE,23,0.4,4.9,75,0.00,,,0.00,WUHU216HW,2013-01-03 17:23:00,
2013-01-03 09:24:00,47.0,39.4,30.10,SE,135,2.7,4.9,75,0.00,,,0.00,WUHU216HW,2013-01-03 17:24:00,
2013-01-03 09:25:00,47.0,39.4,30.10,SE,135,2.2,4.9,75,0.00,,,0.00,WUHU216HW,2013-01-03 17:25:00,
2013-01-03 09:26:00,47.2,39.6,30.10,SW,225,0.4,3.6,75,0.00,,,0.00,WUHU216HW,2013-01-03 17:26:00,
2013-01-03 09:27:00,47.2,39.6,30.10,SW,225,1.8,3.6,75,0.00,,,0.00,WUHU216HW,2013-01-03 17:27:00,
2013-01-03 09:28:00,47.2,39.6,30.10,East,90,0.2,2.7,75,0.00,,,0.00,WUHU216HW,2013-01-03 17:28:00,
2013-01-03 09:29:00,47.2,39.2,30.10,SSE,158,1.8,2.7,74,0.00,,,0.00,WUHU216HW,2013-01-03 17:29:00,
2013-01-03 09:30:00,47.3,39.4,30.10,SSW,203,1.8,2.7,74,0.00,,,0.00,WUHU216HW,2013-01-03 17:30:00,
2013-01-03 09:31:00,47.5,39.6,30.10,SSW,203,0.7,2.7,74,0.00,,,0.00,WUHU216HW,2013-01-03 17:31:00,
2013-01-03 09:32:00,47.5,39.6,30.10,South,180,0.9,2.7,74,0.00,,,0.00,WUHU216HW,2013-01-03 17:32:00,
2013-01-03 09:33:00,47.5,39.6,30.10,SE,135,0.7,2.7,74,0.00,,,0.00,WUHU216HW,2013-01-03 17:33:00,
2013-01-03 09:34:00,47.7,39.8,30.10,SSE,158,0.7,2.2,74,0.00,,,0.00,WUHU216HW,2013-01-03 17:34:00,
2013-01-03 09:35:00,47.7,39.8,30.10,SSW,203,1.6,1.8,74,0.00,,,0.00,WUHU216HW,2013-01-03 17:35:00,
2013-01-03 09:36:00,47.7,39.8,30.10,SW,225,1.8,1.8,74,0.00,,,0.00,WUHU216HW,2013-01-03 17:36:00,
2013-01-03 09:37:00,47.9,40.0,30.10,ESE,113,0.4,1.8,74,0.00,,,0.00,WUHU216HW,2013-01-03 17:37:00,
2013-01-03 09:38:00,47.9,39.6,30.10,ESE,113,0.4,1.8,73,0.00,,,0.00,WUHU216HW,2013-01-03 17:38:00,
2013-01-03 09:39:00,47.9,39.6,30.10,SE,135,1.1,1.8,73,0.00,,,0.00,WUHU216HW,2013-01-03 17:39:00,
2013-01-03 09:40:00,47.9,39.6,30.10,WSW,248,1.1,1.8,73,0.00,,,0.00,WUHU216HW,2013-01-03 17:40:00,
2013-01-03 09:41:00,48.1,39.1,30.10,WSW,248,1.8,1.8,71,0.00,,,0.00,WUHU216HW,2013-01-03 17:41:00,
2013-01-03 09:42:00,48.1,38.0,30.10,WSW,248,1.8,1.8,68,0.00,,,0.00,WUHU216HW,2013-01-03 17:42:00,
2013-01-03 09:43:00,48.1,38.0,30.10,West,270,0.0,1.8,68,0.00,,,0.00,WUHU216HW,2013-01-03 17:43:00,
2013-01-03 09:44:00,48.2,38.5,30.10,SSW,203,1.8,1.8,69,0.00,,,0.00,WUHU216HW,2013-01-03 17:44:00,
2013-01-03 09:45:00,48.2,38.9,30.10,SE,135,0.0,1.8,70,0.00,,,0.00,WUHU216HW,2013-01-03 17:45:00,
2013-01-03 09:46:00,48.4,39.1,30.10,SSW,203,0.4,1.8,70,0.00,,,0.00,WUHU216HW,2013-01-03 17:46:00,
2013-01-03 09:47:00,48.4,39.1,30.10,South,180,1.3,1.8,70,0.00,,,0.00,WUHU216HW,2013-01-03 17:47:00,
2013-01-03 09:48:00,48.6,39.2,30.10,WSW,248,1.8,1.8,70,0.00,,,0.00,WUHU216HW,2013-01-03 17:48:00,
2013-01-03 09:49:00,48.6,38.9,30.10,SW,225,1.3,1.8,69,0.00,,,0.00,WUHU216HW,2013-01-03 17:49:00,
2013-01-03 09:50:00,48.8,39.4,30.10,SW,225,1.1,1.8,70,0.00,,,0.00,WUHU216HW,2013-01-03 17:50:00,
2013-01-03 09:51:00,48.8,39.4,30.10,SW,225,1.1,1.8,70,0.00,,,0.00,WUHU216HW,2013-01-03 17:51:00,
2013-01-03 09:52:00,48.8,39.1,30.10,SW,225,1.6,1.8,69,0.00,,,0.00,WUHU216HW,2013-01-03 17:52:00,
2013-01-03 09:53:00,48.8,37.9,30.10,SW,225,2.5,2.5,66,0.00,,,0.00,WUHU216HW,2013-01-03 17:53:00,
2013-01-03 09:54:00,48.8,38.3,30.10,WSW,248,1.6,2.5,67,0.00,,,0.00,WUHU216HW,2013-01-03 17:54:00,
2013-01-03 09:55:00,49.0,38.4,30.10,SW,225,1.6,2.5,67,0.00,,,0.00,WUHU216HW,2013-01-03 17:55:00,
2013-01-03 09:56:00,49.0,38.8,30.10,SSW,203,2.5,2.5,68,0.00,,,0.00,WUHU216HW,2013-01-03 17:56:00,
2013-01-03 09:57:00,49.0,38.8,30.10,SW,225,1.8,2.5,68,0.00,,,0.00,WUHU216HW,2013-01-03 17:57:00,
2013-01-03 09:58:00,49.0,38.8,30.10,SW,225,1.1,2.5,68,0.00,,,0.00,WUHU216HW,2013-01-03 17:58:00,
2013-01-03 09:59:00,49.0,38.8,30.10,South,180,1.3,2.5,68,0.00,,,0.00,WUHU216HW,2013-01-03 17:59:00,
2013-01-03 10:00:00,49.0,38.8,30.10,SSE,158,1.6,2.5,68,0.00,,,0.00,WUHU216HW,2013-01-03 18:00:00,
2013-01-03 10:01:00,49.0,38.8,30.10,SW,225,1.6,2.5,68,0.00,,,0.00,WUHU216HW,2013-01-03 18:01:00,
2013-01-03 10:02:00,49.1,39.0,30.10,SW,225,0.4,2.5,68,0.00,,,0.00,WUHU216HW,2013-01-03 18:02:00,
2013-01-03 10:03:00,49.1,39.0,30.10,WSW,248,1.1,2.5,68,0.00,,,0.00,WUHU216HW,2013-01-03 18:03:00,
2013-01-03 10:04:00,49.3,39.2,30.10,SSW,203,2.5,2.5,68,0.00,,,0.00,WUHU216HW,2013-01-03 18:04:00,
2013-01-03 10:05:00,49.3,39.2,30.10,SSW,203,2.0,2.5,68,0.00,,,0.00,WUHU216HW,2013-01-03 18:05:00,
2013-01-03 10:06:00,49.3,39.2,30.10,SSW,203,1.6,2.5,68,0.00,,,0.00,WUHU216HW,2013-01-03 18:06:00,
2013-01-03 10:07:00,49.3,39.2,30.10,SW,225,1.6,2.5,68,0.00,,,0.00,WUHU216HW,2013-01-03 18:07:00,
2013-01-03 10:08:00,49.3,39.6,30.10,South,180,1.1,2.5,69,0.00,,,0.00,WUHU216HW,2013-01-03 18:08:00,
2013-01-03 10:09:00,49.5,39.8,30.10,South,180,0.2,2.5,69,0.00,,,0.00,WUHU216HW,2013-01-03 18:09:00,
2013-01-03 10:10:00,49.5,39.8,30.10,South,180,0.7,2.5,69,0.00,,,0.00,WUHU216HW,2013-01-03 18:10:00,
2013-01-03 10:11:00,49.5,39.8,30.10,SSE,158,1.1,2.5,69,0.00,,,0.00,WUHU216HW,2013-01-03 18:11:00,
2013-01-03 10:12:00,49.5,39.3,30.10,WSW,248,0.2,2.5,68,0.00,,,0.00,WUHU216HW,2013-01-03 18:12:00,
2013-01-03 10:13:00,49.7,40.0,30.10,SE,135,1.1,2.5,69,0.00,,,0.00,WUHU216HW,2013-01-03 18:13:00,
2013-01-03 10:14:00,49.7,40.0,30.10,SE,135,0.4,2.0,69,0.00,,,0.00,WUHU216HW,2013-01-03 18:14:00,
2013-01-03 10:15:00,49.7,39.5,30.10,West,270,0.7,1.6,68,0.00,,,0.00,WUHU216HW,2013-01-03 18:15:00,
2013-01-03 10:16:00,49.7,39.5,30.10,WSW,248,0.9,1.6,68,0.00,,,0.00,WUHU216HW,2013-01-03 18:16:00,
2013-01-03 10:17:00,49.7,39.5,30.10,WSW,248,0.4,1.1,68,0.00,,,0.00,WUHU216HW,2013-01-03 18:17:00,
2013-01-03 10:18:00,49.7,39.5,30.10,WSW,248,0.7,1.1,68,0.00,,,0.00,WUHU216HW,2013-01-03 18:18:00,
2013-01-03 10:19:00,49.7,39.2,30.10,WSW,248,0.4,1.1,67,0.00,,,0.00,WUHU216HW,2013-01-03 18:19:00,
2013-01-03 10:20:00,49.7,39.2,30.10,WSW,248,0.4,1.1,67,0.00,,,0.00,WUHU216HW,2013-01-03 18:20:00,
2013-01-03 10:21:00,49.5,38.2,30.10,WNW,293,1.6,1.6,65,0.00,,,0.00,WUHU216HW,2013-01-03 18:21:00,
2013-01-03 10:22:00,49.5,38.6,30.10,WNW,293,0.4,1.6,66,0.00,,,0.00,WUHU216HW,2013-01-03 18:22:00,
2013-01-03 10:23:00,49.3,38.8,30.10,WNW,293,0.9,1.6,67,0.00,,,0.00,WUHU216HW,2013-01-03 18:23:00,
2013-01-03 10:24:00,49.3,38.8,30.10,West,270,0.0,1.6,67,0.00,,,0.00,WUHU216HW,2013-01-03 18:24:00,
2013-01-03 10:25:00,49.3,39.2,30.10,West,270,0.0,1.6,68,0.00,,,0.00,WUHU216HW,2013-01-03 18:25:00,
2013-01-03 10:26:00,49.3,39.2,30.10,West,270,0.0,1.6,68,0.00,,,0.00,WUHU216HW,2013-01-03 18:26:00,
2013-01-03 10:27:00,49.3,39.2,30.10,West,270,0.9,1.6,68,0.00,,,0.00,WUHU216HW,2013-01-03 18:27:00,
2013-01-03 10:28:00,49.3,39.2,30.10,West,270,0.7,1.6,68,0.00,,,0.00,WUHU216HW,2013-01-03 18:28:00,
2013-01-03 10:29:00,49.3,38.8,30.10,West,270,0.4,1.6,67,0.00,,,0.00,WUHU216HW,2013-01-03 18:29:00,
2013-01-03 10:30:00,49.3,38.8,30.09,West,270,0.7,1.6,67,0.00,,,0.00,WUHU216HW,2013-01-03 18:30:00,
2013-01-03 10:31:00,49.3,38.8,30.10,West,270,0.0,0.9,67,0.00,,,0.00,WUHU216HW,2013-01-03 18:31:00,
2013-01-03 10:32:00,49.3,38.8,30.09,West,270,1.1,1.1,67,0.00,,,0.00,WUHU216HW,2013-01-03 18:32:00,
2013-01-03 10:33:00,49.3,38.8,30.09,West,270,0.4,1.1,67,0.00,,,0.00,WUHU216HW,2013-01-03 18:33:00,
2013-01-03 10:34:00,49.3,38.8,30.10,West,270,0.9,1.1,67,0.00,,,0.00,WUHU216HW,2013-01-03 18:34:00,
2013-01-03 10:35:00,49.3,38.8,30.10,WSW,248,1.6,1.6,67,0.00,,,0.00,WUHU216HW,2013-01-03 18:35:00,
2013-01-03 10:36:00,49.3,38.8,30.10,SW,225,0.7,1.6,67,0.00,,,0.00,WUHU216HW,2013-01-03 18:36:00,
2013-01-03 10:37:00,49.1,38.6,30.10,SW,225,1.8,1.8,67,0.00,,,0.00,WUHU216HW,2013-01-03 18:37:00,
2013-01-03 10:38:00,49.1,39.0,30.09,SW,225,0.2,1.8,68,0.00,,,0.00,WUHU216HW,2013-01-03 18:38:00,
2013-01-03 10:39:00,49.1,39.0,30.09,SSW,203,0.2,1.8,68,0.00,,,0.00,WUHU216HW,2013-01-03 18:39:00,
2013-01-03 10:40:00,49.1,38.3,30.09,WSW,248,1.1,1.8,66,0.00,,,0.00,WUHU216HW,2013-01-03 18:40:00,
2013-01-03 10:41:00,49.1,38.3,30.09,West,270,0.4,1.8,66,0.00,,,0.00,WUHU216HW,2013-01-03 18:41:00,
2013-01-03 10:42:00,49.1,38.3,30.09,West,270,0.4,1.8,66,0.00,,,0.00,WUHU216HW,2013-01-03 18:42:00,
2013-01-03 10:43:00,49.3,38.8,30.09,West,270,0.4,1.8,67,0.00,,,0.00,WUHU216HW,2013-01-03 18:43:00,
2013-01-03 10:44:00,49.3,38.8,30.09,WSW,248,0.0,1.8,67,0.00,,,0.00,WUHU216HW,2013-01-03 18:44:00,
2013-01-03 10:45:00,49.3,38.8,30.09,WSW,248,0.2,1.8,67,0.00,,,0.00,WUHU216HW,2013-01-03 18:45:00,
2013-01-03 10:46:00,49.3,39.2,30.09,WSW,248,0.4,1.8,68,0.00,,,0.00,WUHU216HW,2013-01-03 18:46:00,
2013-01-03 10:47:00,49.3,38.8,30.09,WSW,248,0.7,1.1,67,0.00,,,0.00,WUHU216HW,2013-01-03 18:47:00,
2013-01-03 10:48:00,49.3,38.8,30.09,WSW,248,0.7,1.1,67,0.00,,,0.00,WUHU216HW,2013-01-03 18:48:00,
2013-01-03 10:49:00,49.3,38.8,30.09,WSW,248,0.9,1.1,67,0.00,,,0.00,WUHU216HW,2013-01-03 18:49:00,
2013-01-03 10:50:00,49.3,38.8,30.09,WSW,248,0.4,0.9,67,0.00,,,0.00,WUHU216HW,2013-01-03 18:50:00,
2013-01-03 10:51:00,49.3,38.8,30.10,WSW,248,0.2,0.9,67,0.00,,,0.00,WUHU216HW,2013-01-03 18:51:00,
2013-01-03 10:52:00,49.3,38.8,30.09,WSW,248,0.4,0.9,67,0.00,,,0.00,WUHU216HW,2013-01-03 18:52:00,
2013-01-03 10:53:00,49.5,39.0,30.09,NW,315,0.0,0.9,67,0.00,,,0.00,WUHU216HW,2013-01-03 18:53:00,
2013-01-03 10:54:00,49.5,38.6,30.09,NNW,338,0.4,0.9,66,0.00,,,0.00,WUHU216HW,2013-01-03 18:54:00,
2013-01-03 10:55:00,49.3,38.0,30.09,NNW,338,1.1,1.1,65,0.00,,,0.00,WUHU216HW,2013-01-03 18:55:00,
2013-01-03 10:56:00,49.3,38.0,30.09,NNW,338,0.7,1.1,65,0.00,,,0.00,WUHU216HW,2013-01-03 18:56:00,
2013-01-03 10:57:00,49.3,38.4,30.09,West,270,0.7,1.1,66,0.00,,,0.00,WUHU216HW,2013-01-03 18:57:00,
2013-01-03 10:58:00,49.3,38.4,30.09,West,270,1.1,1.1,66,0.00,,,0.00,WUHU216HW,2013-01-03 18:58:00,
2013-01-03 10:59:00,49.3,38.8,30.09,WNW,293,0.9,1.1,67,0.00,,,0.00,WUHU216HW,2013-01-03 18:59:00,
2013-01-03 11:00:00,49.3,38.4,30.09,NW,315,1.1,1.1,66,0.00,,,0.00,WUHU216HW,2013-01-03 19:00:00,
2013-01-03 11:01:00,49.3,38.4,30.09,NNW,338,1.8,1.8,66,0.00,,,0.00,WUHU216HW,2013-01-03 19:01:00,
2013-01-03 11:02:00,49.3,38.4,30.09,NNW,338,0.2,1.8,66,0.00,,,0.00,WUHU216HW,2013-01-03 19:02:00,
2013-01-03 11:03:00,49.3,38.4,30.08,NNW,338,0.0,1.8,66,0.00,,,0.00,WUHU216HW,2013-01-03 19:03:00,
2013-01-03 11:11:00,50.2,38.4,30.08,NNW,338,2.5,4.7,64,0.00,,,0.00,WUHU216HW,2013-01-03 19:11:00,
2013-01-03 11:35:00,52.2,38.7,30.08,NNE,23,1.8,6.0,60,0.00,,,0.00,WUHU216HW,2013-01-03 19:35:00,
2013-01-03 11:36:00,52.2,39.2,30.08,ESE,113,4.3,6.0,61,0.00,,,0.00,WUHU216HW,2013-01-03 19:36:00,
2013-01-03 11:37:00,52.4,39.7,30.08,ESE,113,3.4,6.0,62,0.00,,,0.00,WUHU216HW,2013-01-03 19:37:00,
2013-01-03 11:38:00,52.4,39.7,30.08,SE,135,3.4,6.0,62,0.00,,,0.00,WUHU216HW,2013-01-03 19:38:00,
2013-01-03 11:39:00,52.6,39.9,30.08,ESE,113,2.9,6.0,62,0.00,,,0.00,WUHU216HW,2013-01-03 19:39:00,
2013-01-03 11:40:00,52.6,39.9,30.08,NE,45,1.3,6.0,62,0.00,,,0.00,WUHU216HW,2013-01-03 19:40:00,
2013-01-03 11:41:00,52.7,40.4,30.08,South,180,2.0,6.0,63,0.00,,,0.00,WUHU216HW,2013-01-03 19:41:00,
2013-01-03 11:42:00,52.7,40.4,30.08,SSE,158,3.6,6.0,63,0.00,,,0.00,WUHU216HW,2013-01-03 19:42:00,
2013-01-03 11:43:00,52.7,40.4,30.08,SE,135,2.0,5.1,63,0.00,,,0.00,WUHU216HW,2013-01-03 19:43:00,
2013-01-03 11:44:00,52.9,40.6,30.08,SSE,158,0.4,4.3,63,0.00,,,0.00,WUHU216HW,2013-01-03 19:44:00,
2013-01-03 11:45:00,52.7,40.4,30.08,ESE,113,0.7,4.3,63,0.00,,,0.00,WUHU216HW,2013-01-03 19:45:00,
2013-01-03 11:46:00,52.9,40.6,30.08,ESE,113,0.4,3.6,63,0.00,,,0.00,WUHU216HW,2013-01-03 19:46:00,
2013-01-03 11:47:00,52.9,40.6,30.08,SE,135,0.2,3.6,63,0.00,,,0.00,WUHU216HW,2013-01-03 19:47:00,
2013-01-03 11:48:00,53.1,40.8,30.08,East,90,1.1,3.6,63,0.00,,,0.00,WUHU216HW,2013-01-03 19:48:00,
2013-01-03 11:49:00,53.3,41.0,30.08,ESE,113,0.4,3.6,63,0.00,,,0.00,WUHU216HW,2013-01-03 19:49:00,
2013-01-03 11:50:00,53.3,41.4,30.08,South,180,1.1,3.6,64,0.00,,,0.00,WUHU216HW,2013-01-03 19:50:00,
2013-01-03 11:51:00,53.3,41.4,30.08,South,180,0.2,3.6,64,0.00,,,0.00,WUHU216HW,2013-01-03 19:51:00,
2013-01-03 11:52:00,53.5,41.1,30.08,WSW,248,1.1,2.0,63,0.00,,,0.00,WUHU216HW,2013-01-03 19:52:00,
2013-01-03 11:53:00,53.5,41.1,30.08,SW,225,0.9,1.1,63,0.00,,,0.00,WUHU216HW,2013-01-03 19:53:00,
2013-01-03 11:54:00,53.5,41.1,30.08,SE,135,0.0,1.1,63,0.00,,,0.00,WUHU216HW,2013-01-03 19:54:00,
2013-01-03 11:55:00,53.6,41.0,30.08,ESE,113,3.8,3.8,62,0.00,,,0.00,WUHU216HW,2013-01-03 19:55:00,
2013-01-03 11:56:00,53.6,41.3,30.08,SSE,158,1.3,3.8,63,0.00,,,0.00,WUHU216HW,2013-01-03 19:56:00,
2013-01-03 11:57:00,53.6,41.3,30.08,WNW,293,0.9,3.8,63,0.00,,,0.00,WUHU216HW,2013-01-03 19:57:00,
2013-01-03 11:58:00,53.6,41.0,30.08,NW,315,0.7,3.8,62,0.00,,,0.00,WUHU216HW,2013-01-03 19:58:00,
2013-01-03 11:59:00,53.6,41.0,30.08,SW,225,0.4,3.8,62,0.00,,,0.00,WUHU216HW,2013-01-03 19:59:00,
2013-01-03 12:00:00,53.6,41.0,30.08,WSW,248,0.4,3.8,62,0.00,,,0.00,WUHU216HW,2013-01-03 20:00:00,
2013-01-03 12:01:00,53.8,41.5,30.08,NW,315,0.4,3.8,63,0.00,,,0.00,WUHU216HW,2013-01-03 20:01:00,
2013-01-03 12:02:00,53.6,39.7,30.08,North,0,0.9,3.8,59,0.00,,,0.00,WUHU216HW,2013-01-03 20:02:00,
2013-01-03 12:03:00,53.6,39.7,30.08,NNE,23,0.9,3.8,59,0.00,,,0.00,WUHU216HW,2013-01-03 20:03:00,
2013-01-03 12:04:00,53.6,39.3,30.08,NW,315,0.9,3.8,58,0.00,,,0.00,WUHU216HW,2013-01-03 20:04:00,
2013-01-03 12:05:00,53.6,39.7,30.08,ENE,68,3.8,3.8,59,0.00,,,0.00,WUHU216HW,2013-01-03 20:05:00,
2013-01-03 12:06:00,53.6,40.1,30.08,NE,45,6.3,6.3,60,0.00,,,0.00,WUHU216HW,2013-01-03 20:06:00,
2013-01-03 12:07:00,53.8,39.9,30.08,North,0,1.1,6.3,59,0.00,,,0.00,WUHU216HW,2013-01-03 20:07:00,
2013-01-03 12:08:00,53.6,39.7,30.08,NNW,338,1.3,6.3,59,0.00,,,0.00,WUHU216HW,2013-01-03 20:08:00,
2013-01-03 12:09:00,53.6,38.7,30.08,NW,315,1.6,6.3,57,0.00,,,0.00,WUHU216HW,2013-01-03 20:09:00,
2013-01-03 12:10:00,53.6,38.7,30.08,NE,45,4.0,6.3,57,0.00,,,0.00,WUHU216HW,2013-01-03 20:10:00,
2013-01-03 12:11:00,53.6,39.3,30.08,NNE,23,2.2,6.3,58,0.00,,,0.00,WUHU216HW,2013-01-03 20:11:00,
2013-01-03 12:12:00,53.6,39.3,30.08,NNE,23,0.7,6.3,58,0.00,,,0.00,WUHU216HW,2013-01-03 20:12:00,
2013-01-03 12:13:00,53.8,39.9,30.08,NE,45,2.0,6.3,59,0.00,,,0.00,WUHU216HW,2013-01-03 20:13:00,
2013-01-03 12:14:00,54.0,40.0,30.08,NNW,338,0.4,6.3,59,0.00,,,0.00,WUHU216HW,2013-01-03 20:14:00,
2013-01-03 12:15:00,54.0,39.5,30.08,ENE,68,1.8,6.3,58,0.00,,,0.00,WUHU216HW,2013-01-03 20:15:00,
2013-01-03 12:16:00,54.2,39.7,30.08,NW,315,2.0,4.0,58,0.00,,,0.00,WUHU216HW,2013-01-03 20:16:00,
2013-01-03 12:17:00,54.2,38.8,30.08,NE,45,4.0,4.0,56,0.00,,,0.00,WUHU216HW,2013-01-03 20:17:00,
2013-01-03 12:18:00,54.4,39.4,30.08,North,0,1.6,4.0,57,0.00,,,0.00,WUHU216HW,2013-01-03 20:18:00,
2013-01-03 12:19:00,54.4,39.4,30.08,NE,45,5.4,5.4,57,0.00,,,0.00,WUHU216HW,2013-01-03 20:19:00,
2013-01-03 12:20:00,54.4,39.9,30.08,NE,45,2.5,5.4,58,0.00,,,0.00,WUHU216HW,2013-01-03 20:20:00,
2013-01-03 12:21:00,54.4,39.9,30.08,NNE,23,2.0,5.4,58,0.00,,,0.00,WUHU216HW,2013-01-03 20:21:00,
2013-01-03 12:22:00,54.4,38.9,30.07,NW,315,1.6,5.4,56,0.00,,,0.00,WUHU216HW,2013-01-03 20:22:00,
2013-01-03 12:23:00,54.4,39.4,30.07,NE,45,4.7,5.4,57,0.00,,,0.00,WUHU216HW,2013-01-03 20:23:00,
2013-01-03 12:24:00,54.4,39.9,30.07,North,0,1.6,5.4,58,0.00,,,0.00,WUHU216HW,2013-01-03 20:24:00,
2013-01-03 12:25:00,54.4,39.4,30.07,NW,315,1.1,5.4,57,0.00,,,0.00,WUHU216HW,2013-01-03 20:25:00,
2013-01-03 12:26:00,54.2,39.3,30.07,North,0,1.6,5.4,57,0.00,,,0.00,WUHU216HW,2013-01-03 20:26:00,
2013-01-03 12:27:00,54.2,39.7,30.07,NW,315,0.9,5.4,58,0.00,,,0.00,WUHU216HW,2013-01-03 20:27:00,
2013-01-03 12:28:00,54.2,39.7,30.07,NE,45,4.0,5.4,58,0.00,,,0.00,WUHU216HW,2013-01-03 20:28:00,
2013-01-03 12:29:00,54.2,39.7,30.07,NNW,338,2.0,4.7,58,0.00,,,0.00,WUHU216HW,2013-01-03 20:29:00,
2013-01-03 12:30:00,54.2,39.7,30.07,North,0,4.0,4.7,58,0.00,,,0.00,WUHU216HW,2013-01-03 20:30:00,
2013-01-03 12:31:00,54.2,40.1,30.07,North,0,0.9,4.7,59,0.00,,,0.00,WUHU216HW,2013-01-03 20:31:00,
2013-01-03 12:32:00,54.4,40.3,30.07,NE,45,2.0,4.7,59,0.00,,,0.00,WUHU216HW,2013-01-03 20:32:00,
2013-01-03 12:33:00,54.4,40.3,30.07,ENE,68,4.7,4.7,59,0.00,,,0.00,WUHU216HW,2013-01-03 20:33:00,
2013-01-03 12:34:00,54.4,40.3,30.07,ENE,68,2.9,4.7,59,0.00,,,0.00,WUHU216HW,2013-01-03 20:34:00,
2013-01-03 12:35:00,54.4,40.3,30.07,North,0,0.4,4.7,59,0.00,,,0.00,WUHU216HW,2013-01-03 20:35:00,
2013-01-03 12:36:00,54.4,40.3,30.07,NNE,23,3.1,4.7,59,0.00,,,0.00,WUHU216HW,2013-01-03 20:36:00,
2013-01-03 12:37:00,54.5,40.5,30.07,NE,45,3.6,4.7,59,0.00,,,0.00,WUHU216HW,2013-01-03 20:37:00,
2013-01-03 12:38:00,54.5,40.5,30.07,NE,45,1.8,4.7,59,0.00,,,0.00,WUHU216HW,2013-01-03 20:38:00,
2013-01-03 12:39:00,54.5,40.5,30.07,NNE,23,0.7,4.7,59,0.00,,,0.00,WUHU216HW,2013-01-03 20:39:00,
2013-01-03 12:40:00,54.5,41.0,30.07,NW,315,0.4,4.7,60,0.00,,,0.00,WUHU216HW,2013-01-03 20:40:00,
2013-01-03 12:41:00,54.7,41.1,30.07,NE,45,4.7,4.7,60,0.00,,,0.00,WUHU216HW,2013-01-03 20:41:00,
2013-01-03 12:42:00,54.7,40.7,30.07,NNE,23,10.3,10.3,59,0.00,,,0.00,WUHU216HW,2013-01-03 20:42:00,
2013-01-03 12:43:00,54.7,40.7,30.06,NNW,338,2.5,10.3,59,0.00,,,0.00,WUHU216HW,2013-01-03 20:43:00,
2013-01-03 12:44:00,54.9,40.8,30.06,North,0,0.4,10.3,59,0.00,,,0.00,WUHU216HW,2013-01-03 20:44:00,
2013-01-03 12:45:00,54.7,40.7,30.06,NE,45,4.3,10.3,59,0.00,,,0.00,WUHU216HW,2013-01-03 20:45:00,
2013-01-03 12:46:00,54.7,40.7,30.07,NE,45,5.1,10.3,59,0.00,,,0.00,WUHU216HW,2013-01-03 20:46:00,
2013-01-03 12:47:00,54.9,41.3,30.06,North,0,2.2,10.3,60,0.00,,,0.00,WUHU216HW,2013-01-03 20:47:00,
2013-01-03 12:48:00,54.9,41.3,30.06,NW,315,0.4,10.3,60,0.00,,,0.00,WUHU216HW,2013-01-03 20:48:00,
2013-01-03 12:49:00,54.9,41.3,30.06,NE,45,2.0,10.3,60,0.00,,,0.00,WUHU216HW,2013-01-03 20:49:00,
2013-01-03 12:50:00,55.1,41.9,30.06,ENE,68,1.8,10.3,61,0.00,,,0.00,WUHU216HW,2013-01-03 20:50:00,
2013-01-03 12:51:00,55.1,41.9,30.06,NE,45,5.8,10.3,61,0.00,,,0.00,WUHU216HW,2013-01-03 20:51:00,
2013-01-03 12:52:00,55.1,41.0,30.06,ENE,68,1.1,5.8,59,0.00,,,0.00,WUHU216HW,2013-01-03 20:52:00,
2013-01-03 12:53:00,55.3,41.6,30.06,NE,45,4.0,5.8,60,0.00,,,0.00,WUHU216HW,2013-01-03 20:53:00,
2013-01-03 12:54:00,55.3,41.6,30.06,NE,45,4.7,5.8,60,0.00,,,0.00,WUHU216HW,2013-01-03 20:54:00,
2013-01-03 12:55:00,55.4,41.8,30.06,NNE,23,4.0,5.8,60,0.00,,,0.00,WUHU216HW,2013-01-03 20:55:00,
2013-01-03 12:56:00,55.4,41.3,30.06,ENE,68,5.8,5.8,59,0.00,,,0.00,WUHU216HW,2013-01-03 20:56:00,
2013-01-03 12:57:00,55.4,41.8,30.06,NNE,23,5.6,5.8,60,0.00,,,0.00,WUHU216HW,2013-01-03 20:57:00,
2013-01-03 12:58:00,55.6,41.5,30.06,SSE,158,4.0,5.8,59,0.00,,,0.00,WUHU216HW,2013-01-03 20:58:00,
2013-01-03 12:59:00,55.6,41.9,30.06,NNE,23,1.1,5.8,60,0.00,,,0.00,WUHU216HW,2013-01-03 20:59:00,
2013-01-03 13:00:00,55.8,42.1,30.06,NE,45,3.4,5.8,60,0.00,,,0.00,WUHU216HW,2013-01-03 21:00:00,
2013-01-03 13:01:00,55.8,42.1,30.06,NE,45,0.7,5.8,60,0.00,,,0.00,WUHU216HW,2013-01-03 21:01:00,
2013-01-03 13:02:00,55.8,42.1,30.06,North,0,2.5,5.8,60,0.00,,,0.00,WUHU216HW,2013-01-03 21:02:00,
2013-01-03 13:04:00,55.8,41.7,30.06,North,0,0.2,5.8,59,0.00,,,0.00,WUHU216HW,2013-01-03 21:04:00,
2013-01-03 13:05:00,55.8,40.7,30.06,WSW,248,4.0,5.8,57,0.00,,,0.00,WUHU216HW,2013-01-03 21:05:00,
2013-01-03 13:06:00,55.8,41.2,30.06,East,90,4.3,5.8,58,0.00,,,0.00,WUHU216HW,2013-01-03 21:06:00,
2013-01-03 13:07:00,55.6,41.5,30.06,North,0,6.5,6.5,59,0.00,,,0.00,WUHU216HW,2013-01-03 21:07:00,
2013-01-03 13:08:00,55.6,41.5,30.06,North,0,2.5,6.5,59,0.00,,,0.00,WUHU216HW,2013-01-03 21:08:00,
2013-01-03 13:09:00,55.6,41.5,30.06,NE,45,2.0,6.5,59,0.00,,,0.00,WUHU216HW,2013-01-03 21:09:00,
2013-01-03 13:10:00,55.6,41.5,30.06,NE,45,7.4,7.4,59,0.00,,,0.00,WUHU216HW,2013-01-03 21:10:00,
2013-01-03 13:11:00,55.6,41.5,30.06,NNE,23,2.2,7.4,59,0.00,,,0.00,WUHU216HW,2013-01-03 21:11:00,
2013-01-03 13:12:00,55.8,41.7,30.06,NW,315,1.8,7.4,59,0.00,,,0.00,WUHU216HW,2013-01-03 21:12:00,
2013-01-03 13:13:00,55.8,41.7,30.06,NNW,338,1.1,7.4,59,0.00,,,0.00,WUHU216HW,2013-01-03 21:13:00,
2013-01-03 13:14:00,55.8,42.1,30.06,SW,225,0.4,7.4,60,0.00,,,0.00,WUHU216HW,2013-01-03 21:14:00,
2013-01-03 13:15:00,55.8,42.1,30.06,ESE,113,2.0,7.4,60,0.00,,,0.00,WUHU216HW,2013-01-03 21:15:00,
2013-01-03 13:16:00,55.8,42.1,30.06,ESE,113,3.4,7.4,60,0.00,,,0.00,WUHU216HW,2013-01-03 21:16:00,
2013-01-03 13:17:00,56.0,42.3,30.06,ESE,113,2.0,7.4,60,0.00,,,0.00,WUHU216HW,2013-01-03 21:17:00,
2013-01-03 13:18:00,56.2,42.9,30.06,East,90,0.9,7.4,61,0.00,,,0.00,WUHU216HW,2013-01-03 21:18:00,
2013-01-03 13:19:00,56.2,42.9,30.06,ESE,113,1.8,7.4,61,0.00,,,0.00,WUHU216HW,2013-01-03 21:19:00,
2013-01-03 13:20:00,56.2,42.9,30.06,ESE,113,2.5,3.4,61,0.00,,,0.00,WUHU216HW,2013-01-03 21:20:00,
2013-01-03 13:21:00,56.3,43.0,30.06,SE,135,0.4,3.4,61,0.00,,,0.00,WUHU216HW,2013-01-03 21:21:00,
2013-01-03 13:22:00,56.3,43.0,30.06,ESE,113,0.9,3.4,61,0.00,,,0.00,WUHU216HW,2013-01-03 21:22:00,
2013-01-03 13:23:00,56.5,43.2,30.07,ESE,113,0.4,3.4,61,0.00,,,0.00,WUHU216HW,2013-01-03 21:23:00,
2013-01-03 13:24:00,56.5,43.2,30.06,SSW,203,0.4,3.4,61,0.00,,,0.00,WUHU216HW,2013-01-03 21:24:00,
2013-01-03 13:25:00,56.5,43.2,30.06,SE,135,0.4,3.4,61,0.00,,,0.00,WUHU216HW,2013-01-03 21:25:00,
2013-01-03 13:26:00,56.5,43.2,30.06,NNE,23,0.4,2.5,61,0.00,,,0.00,WUHU216HW,2013-01-03 21:26:00,
2013-01-03 13:27:00,56.5,43.2,30.06,SSE,158,0.4,2.5,61,0.00,,,0.00,WUHU216HW,2013-01-03 21:27:00,
2013-01-03 13:29:00,56.7,43.4,30.06,SE,135,0.0,2.5,61,0.00,,,0.00,WUHU216HW,2013-01-03 21:29:00,
2013-01-03 13:30:00,56.7,43.4,30.06,NE,45,2.0,2.0,61,0.00,,,0.00,WUHU216HW,2013-01-03 21:30:00,
2013-01-03 13:31:00,56.7,43.4,30.07,NNE,23,1.3,2.0,61,0.00,,,0.00,WUHU216HW,2013-01-03 21:31:00,
2013-01-03 13:32:00,56.7,43.4,30.06,NE,45,1.1,2.0,61,0.00,,,0.00,WUHU216HW,2013-01-03 21:32:00,
2013-01-03 13:33:00,56.7,43.4,30.06,ENE,68,0.9,2.0,61,0.00,,,0.00,WUHU216HW,2013-01-03 21:33:00,
2013-01-03 13:34:00,56.9,42.3,30.06,NNE,23,0.4,2.0,58,0.00,,,0.00,WUHU216HW,2013-01-03 21:34:00,
2013-01-03 13:35:00,56.7,42.6,30.06,NNE,23,1.1,2.0,59,0.00,,,0.00,WUHU216HW,2013-01-03 21:35:00,
2013-01-03 13:36:00,56.7,42.6,30.06,WNW,293,1.8,2.0,59,0.00,,,0.00,WUHU216HW,2013-01-03 21:36:00,
2013-01-03 13:37:00,56.7,42.6,30.06,NNW,338,1.1,2.0,59,0.00,,,0.00,WUHU216HW,2013-01-03 21:37:00,
2013-01-03 13:38:00,56.7,42.1,30.06,North,0,0.7,2.0,58,0.00,,,0.00,WUHU216HW,2013-01-03 21:38:00,
2013-01-03 13:39:00,56.7,42.1,30.06,NE,45,4.0,4.0,58,0.00,,,0.00,WUHU216HW,2013-01-03 21:39:00,
2013-01-03 13:40:00,56.5,42.0,30.06,NE,45,6.0,6.0,58,0.00,,,0.00,WUHU216HW,2013-01-03 21:40:00,
2013-01-03 13:41:00,56.5,41.4,30.06,North,0,3.1,6.0,57,0.00,,,0.00,WUHU216HW,2013-01-03 21:41:00,
2013-01-03 13:42:00,56.5,42.0,30.06,ENE,68,0.4,6.0,58,0.00,,,0.00,WUHU216HW,2013-01-03 21:42:00,
2013-01-03 13:43:00,56.5,42.0,30.06,NNE,23,2.0,6.0,58,0.00,,,0.00,WUHU216HW,2013-01-03 21:43:00,
2013-01-03 13:44:00,56.7,42.1,30.06,NNW,338,1.8,6.0,58,0.00,,,0.00,WUHU216HW,2013-01-03 21:44:00,
2013-01-03 13:45:00,56.7,42.1,30.06,North,0,0.7,6.0,58,0.00,,,0.00,WUHU216HW,2013-01-03 21:45:00,
2013-01-03 13:46:00,56.7,41.6,30.06,North,0,1.3,6.0,57,0.00,,,0.00,WUHU216HW,2013-01-03 21:46:00,
2013-01-03 13:47:00,56.5,41.4,30.06,NE,45,1.8,6.0,57,0.00,,,0.00,WUHU216HW,2013-01-03 21:47:00,
2013-01-03 13:48:00,56.5,41.4,30.06,NW,315,1.8,6.0,57,0.00,,,0.00,WUHU216HW,2013-01-03 21:48:00,
2013-01-03 13:49:00,56.5,41.4,30.06,NE,45,2.5,6.0,57,0.00,,,0.00,WUHU216HW,2013-01-03 21:49:00,
2013-01-03 13:50:00,56.5,41.4,30.06,NE,45,6.3,6.3,57,0.00,,,0.00,WUHU216HW,2013-01-03 21:50:00,
2013-01-03 13:51:00,56.5,41.4,30.06,NNE,23,3.8,6.3,57,0.00,,,0.00,WUHU216HW,2013-01-03 21:51:00,
2013-01-03 13:52:00,56.5,41.4,30.06,NE,45,4.5,6.3,57,0.00,,,0.00,WUHU216HW,2013-01-03 21:52:00,
2013-01-03 13:53:00,56.7,42.1,30.06,NNE,23,2.5,6.3,58,0.00,,,0.00,WUHU216HW,2013-01-03 21:53:00,
2013-01-03 13:54:00,56.7,41.6,30.06,East,90,5.6,6.3,57,0.00,,,0.00,WUHU216HW,2013-01-03 21:54:00,
2013-01-03 13:55:00,56.7,42.1,30.06,NNE,23,3.4,6.3,58,0.00,,,0.00,WUHU216HW,2013-01-03 21:55:00,
2013-01-03 13:56:00,56.7,41.6,30.06,North,0,0.9,6.3,57,0.00,,,0.00,WUHU216HW,2013-01-03 21:56:00,
2013-01-03 13:57:00,56.7,41.6,30.06,NNW,338,0.4,6.3,57,0.00,,,0.00,WUHU216HW,2013-01-03 21:57:00,
2013-01-03 13:58:00,56.7,41.6,30.06,NW,315,1.8,6.3,57,0.00,,,0.00,WUHU216HW,2013-01-03 21:58:00,
2013-01-03 13:59:00,56.9,42.3,30.06,NW,315,1.3,6.3,58,0.00,,,0.00,WUHU216HW,2013-01-03 21:59:00,
2013-01-03 14:00:00,56.9,42.3,30.06,NNE,23,1.8,5.6,58,0.00,,,0.00,WUHU216HW,2013-01-03 22:00:00,
2013-01-03 14:01:00,57.1,42.5,30.06,NE,45,2.5,5.6,58,0.00,,,0.00,WUHU216HW,2013-01-03 22:01:00,
2013-01-03 14:02:00,57.1,41.9,30.06,ENE,68,5.4,5.6,57,0.00,,,0.00,WUHU216HW,2013-01-03 22:02:00,
2013-01-03 14:03:00,57.1,42.5,30.06,ESE,113,1.3,5.6,58,0.00,,,0.00,WUHU216HW,2013-01-03 22:03:00,
2013-01-03 14:04:00,57.2,42.7,30.06,NE,45,0.9,5.4,58,0.00,,,0.00,WUHU216HW,2013-01-03 22:04:00,
2013-01-03 14:05:00,57.2,42.7,30.06,NE,45,0.4,5.4,58,0.00,,,0.00,WUHU216HW,2013-01-03 22:05:00,
2013-01-03 14:07:00,57.2,43.1,30.06,North,0,1.6,5.4,59,0.00,,,0.00,WUHU216HW,2013-01-03 22:07:00,
2013-01-03 14:08:00,57.4,43.3,30.06,ESE,113,1.8,5.4,59,0.00,,,0.00,WUHU216HW,2013-01-03 22:08:00,
2013-01-03 14:10:00,57.4,42.8,30.06,NE,45,1.6,5.4,58,0.00,,,0.00,WUHU216HW,2013-01-03 22:10:00,
2013-01-03 14:11:00,57.4,42.8,30.06,East,90,3.6,5.4,58,0.00,,,0.00,WUHU216HW,2013-01-03 22:11:00,
2013-01-03 14:12:00,57.6,42.9,30.06,WNW,293,3.1,5.4,58,0.00,,,0.00,WUHU216HW,2013-01-03 22:12:00,
2013-01-03 14:13:00,57.4,41.4,30.06,ESE,113,4.0,4.0,55,0.00,,,0.00,WUHU216HW,2013-01-03 22:13:00,
2013-01-03 14:14:00,57.4,41.9,30.06,NE,45,1.1,4.0,56,0.00,,,0.00,WUHU216HW,2013-01-03 22:14:00,
2013-01-03 14:15:00,57.2,42.1,30.06,ENE,68,3.1,4.0,57,0.00,,,0.00,WUHU216HW,2013-01-03 22:15:00,
2013-01-03 14:16:00,57.2,42.1,30.06,North,0,1.1,4.0,57,0.00,,,0.00,WUHU216HW,2013-01-03 22:16:00,
2013-01-03 14:17:00,57.2,42.1,30.06,NE,45,3.4,4.0,57,0.00,,,0.00,WUHU216HW,2013-01-03 22:17:00,
2013-01-03 14:18:00,57.2,41.7,30.06,North,0,1.8,4.0,56,0.00,,,0.00,WUHU216HW,2013-01-03 22:18:00,
2013-01-03 14:19:00,57.2,41.7,30.06,NNW,338,1.6,4.0,56,0.00,,,0.00,WUHU216HW,2013-01-03 22:19:00,
2013-01-03 14:20:00,57.2,41.7,30.06,NNE,23,0.2,4.0,56,0.00,,,0.00,WUHU216HW,2013-01-03 22:20:00,
2013-01-03 14:21:00,57.2,42.1,30.06,ENE,68,1.8,4.0,57,0.00,,,0.00,WUHU216HW,2013-01-03 22:21:00,
2013-01-03 14:22:00,57.2,42.1,30.06,North,0,1.8,4.0,57,0.00,,,0.00,WUHU216HW,2013-01-03 22:22:00,
2013-01-03 14:23:00,57.2,42.1,30.06,East,90,6.0,6.0,57,0.00,,,0.00,WUHU216HW,2013-01-03 22:23:00,
2013-01-03 14:24:00,57.2,41.7,30.06,NE,45,1.1,6.0,56,0.00,,,0.00,WUHU216HW,2013-01-03 22:24:00,
2013-01-03 14:25:00,57.2,41.2,30.06,NE,45,5.4,6.0,55,0.00,,,0.00,WUHU216HW,2013-01-03 22:25:00,
2013-01-03 14:26:00,57.2,41.7,30.06,NW,315,2.5,6.0,56,0.00,,,0.00,WUHU216HW,2013-01-03 22:26:00,
2013-01-03 14:27:00,57.2,41.7,30.06,North,0,1.8,6.0,56,0.00,,,0.00,WUHU216HW,2013-01-03 22:27:00,
2013-01-03 14:28:00,57.2,41.2,30.06,ENE,68,7.6,7.6,55,0.00,,,0.00,WUHU216HW,2013-01-03 22:28:00,
2013-01-03 14:29:00,57.2,41.7,30.06,NNE,23,1.8,7.6,56,0.00,,,0.00,WUHU216HW,2013-01-03 22:29:00,
2013-01-03 14:30:00,57.2,42.1,30.06,SSE,158,1.1,7.6,57,0.00,,,0.00,WUHU216HW,2013-01-03 22:30:00,
2013-01-03 14:31:00,57.2,42.1,30.06,SSE,158,1.3,7.6,57,0.00,,,0.00,WUHU216HW,2013-01-03 22:31:00,
2013-01-03 14:32:00,57.2,42.1,30.06,WSW,248,1.8,7.6,57,0.00,,,0.00,WUHU216HW,2013-01-03 22:32:00,
2013-01-03 14:33:00,57.2,42.1,30.06,WSW,248,0.4,7.6,57,0.00,,,0.00,WUHU216HW,2013-01-03 22:33:00,
2013-01-03 14:34:00,57.2,42.1,30.06,SSE,158,1.1,7.6,57,0.00,,,0.00,WUHU216HW,2013-01-03 22:34:00,
2013-01-03 14:35:00,57.2,42.1,30.06,ENE,68,1.1,7.6,57,0.00,,,0.00,WUHU216HW,2013-01-03 22:35:00,
2013-01-03 14:36:00,57.2,42.7,30.06,NNE,23,3.1,7.6,58,0.00,,,0.00,WUHU216HW,2013-01-03 22:36:00,
2013-01-03 14:37:00,57.2,41.7,30.06,NE,45,3.4,7.6,56,0.00,,,0.00,WUHU216HW,2013-01-03 22:37:00,
2013-01-03 14:38:00,57.2,41.7,30.06,NNE,23,0.9,3.4,56,0.00,,,0.00,WUHU216HW,2013-01-03 22:38:00,
2013-01-03 14:39:00,57.2,41.7,30.06,NE,45,0.4,3.4,56,0.00,,,0.00,WUHU216HW,2013-01-03 22:39:00,
2013-01-03 14:40:00,57.2,42.1,30.06,NE,45,2.5,3.4,57,0.00,,,0.00,WUHU216HW,2013-01-03 22:40:00,
2013-01-03 14:41:00,57.2,42.1,30.06,North,0,5.1,5.1,57,0.00,,,0.00,WUHU216HW,2013-01-03 22:41:00,
2013-01-03 14:42:00,57.2,42.1,30.06,ESE,113,3.4,5.1,57,0.00,,,0.00,WUHU216HW,2013-01-03 22:42:00,
2013-01-03 14:43:00,57.1,41.9,30.06,South,180,2.2,5.1,57,0.00,,,0.00,WUHU216HW,2013-01-03 22:43:00,
2013-01-03 14:44:00,57.2,42.1,30.06,NE,45,1.8,5.1,57,0.00,,,0.00,WUHU216HW,2013-01-03 22:44:00,
2013-01-03 14:45:00,57.2,42.1,30.07,East,90,1.3,5.1,57,0.00,,,0.00,WUHU216HW,2013-01-03 22:45:00,
2013-01-03 14:46:00,57.2,42.1,30.06,ENE,68,3.6,5.1,57,0.00,,,0.00,WUHU216HW,2013-01-03 22:46:00,
2013-01-03 14:47:00,57.2,42.1,30.06,ENE,68,2.2,5.1,57,0.00,,,0.00,WUHU216HW,2013-01-03 22:47:00,
2013-01-03 14:48:00,57.2,41.7,30.06,NE,45,3.4,5.1,56,0.00,,,0.00,WUHU216HW,2013-01-03 22:48:00,
2013-01-03 14:49:00,57.2,41.7,30.06,ESE,113,1.8,5.1,56,0.00,,,0.00,WUHU216HW,2013-01-03 22:49:00,
2013-01-03 14:50:00,57.2,42.1,30.06,NW,315,1.1,5.1,57,0.00,,,0.00,WUHU216HW,2013-01-03 22:50:00,
2013-01-03 14:51:00,57.2,41.2,30.06,NNW,338,1.6,3.6,55,0.00,,,0.00,WUHU216HW,2013-01-03 22:51:00,
2013-01-03 14:52:00,57.2,41.7,30.06,NNW,338,0.4,3.6,56,0.00,,,0.00,WUHU216HW,2013-01-03 22:52:00,
2013-01-03 14:53:00,57.2,42.1,30.06,SE,135,1.6,3.6,57,0.00,,,0.00,WUHU216HW,2013-01-03 22:53:00,
2013-01-03 14:54:00,57.2,42.1,30.06,ESE,113,2.5,3.6,57,0.00,,,0.00,WUHU216HW,2013-01-03 22:54:00,
2013-01-03 14:55:00,57.2,42.1,30.06,North,0,3.8,3.8,57,0.00,,,0.00,WUHU216HW,2013-01-03 22:55:00,
2013-01-03 14:56:00,57.2,42.1,30.06,ENE,68,6.9,6.9,57,0.00,,,0.00,WUHU216HW,2013-01-03 22:56:00,
2013-01-03 14:57:00,57.2,41.7,30.06,NE,45,2.2,6.9,56,0.00,,,0.00,WUHU216HW,2013-01-03 22:57:00,
2013-01-03 14:58:00,57.2,42.1,30.06,ESE,113,3.6,6.9,57,0.00,,,0.00,WUHU216HW,2013-01-03 22:58:00,
2013-01-03 14:59:00,57.2,42.1,30.06,NE,45,3.1,6.9,57,0.00,,,0.00,WUHU216HW,2013-01-03 22:59:00,
2013-01-03 15:00:00,57.2,42.1,30.06,ESE,113,0.4,6.9,57,0.00,,,0.00,WUHU216HW,2013-01-03 23:00:00,
2013-01-03 15:02:00,57.2,42.1,30.06,NE,45,2.0,6.9,57,0.00,,,0.00,WUHU216HW,2013-01-03 23:02:00,
2013-01-03 15:03:00,57.2,42.1,30.06,ENE,68,1.8,6.9,57,0.00,,,0.00,WUHU216HW,2013-01-03 23:03:00,
2013-01-03 15:04:00,57.2,42.1,30.06,ENE,68,3.4,6.9,57,0.00,,,0.00,WUHU216HW,2013-01-03 23:04:00,
2013-01-03 15:05:00,57.2,41.7,30.06,NE,45,3.4,6.9,56,0.00,,,0.00,WUHU216HW,2013-01-03 23:05:00,
2013-01-03 15:06:00,57.2,42.1,30.06,ENE,68,0.9,3.6,57,0.00,,,0.00,WUHU216HW,2013-01-03 23:06:00,
2013-01-03 15:07:00,57.2,42.1,30.06,ENE,68,0.7,3.6,57,0.00,,,0.00,WUHU216HW,2013-01-03 23:07:00,
2013-01-03 15:08:00,57.2,42.1,30.06,NE,45,1.1,3.4,57,0.00,,,0.00,WUHU216HW,2013-01-03 23:08:00,
2013-01-03 15:09:00,57.2,42.1,30.05,NE,45,2.2,3.4,57,0.00,,,0.00,WUHU216HW,2013-01-03 23:09:00,
2013-01-03 15:10:00,57.2,42.1,30.06,East,90,2.7,3.4,57,0.00,,,0.00,WUHU216HW,2013-01-03 23:10:00,
2013-01-03 15:11:00,57.2,42.1,30.06,East,90,1.8,3.4,57,0.00,,,0.00,WUHU216HW,2013-01-03 23:11:00,
2013-01-03 15:12:00,57.2,42.1,30.05,ESE,113,0.7,3.4,57,0.00,,,0.00,WUHU216HW,2013-01-03 23:12:00,
2013-01-03 15:13:00,57.2,42.7,30.06,NE,45,1.8,3.4,58,0.00,,,0.00,WUHU216HW,2013-01-03 23:13:00,
2013-01-03 15:14:00,57.2,42.7,30.06,ENE,68,1.8,3.4,58,0.00,,,0.00,WUHU216HW,2013-01-03 23:14:00,
2013-01-03 15:15:00,57.2,42.7,30.06,ENE,68,2.2,2.7,58,0.00,,,0.00,WUHU216HW,2013-01-03 23:15:00,
2013-01-03 15:16:00,57.2,42.1,30.06,ENE,68,2.5,2.7,57,0.00,,,0.00,WUHU216HW,2013-01-03 23:16:00,
2013-01-03 15:17:00,57.2,42.1,30.06,ENE,68,4.0,4.0,57,0.00,,,0.00,WUHU216HW,2013-01-03 23:17:00,
2013-01-03 15:18:00,57.2,42.1,30.06,NNW,338,1.8,4.0,57,0.00,,,0.00,WUHU216HW,2013-01-03 23:18:00,
2013-01-03 15:19:00,57.2,42.1,30.06,NNW,338,1.1,4.0,57,0.00,,,0.00,WUHU216HW,2013-01-03 23:19:00,
2013-01-03 15:20:00,57.1,41.9,30.06,NE,45,3.1,4.0,57,0.00,,,0.00,WUHU216HW,2013-01-03 23:20:00,
2013-01-03 15:21:00,57.1,41.9,30.06,North,0,2.2,4.0,57,0.00,,,0.00,WUHU216HW,2013-01-03 23:21:00,
2013-01-03 15:22:00,56.9,42.3,30.06,NE,45,1.1,4.0,58,0.00,,,0.00,WUHU216HW,2013-01-03 23:22:00,
2013-01-03 15:23:00,56.9,41.8,30.06,NW,315,0.4,4.0,57,0.00,,,0.00,WUHU216HW,2013-01-03 23:23:00,
2013-01-03 15:24:00,56.9,42.3,30.06,NE,45,1.8,4.0,58,0.00,,,0.00,WUHU216HW,2013-01-03 23:24:00,
2013-01-03 15:25:00,56.9,42.3,30.06,NE,45,5.1,5.1,58,0.00,,,0.00,WUHU216HW,2013-01-03 23:25:00,
2013-01-03 15:26:00,56.9,41.8,30.06,ENE,68,1.1,5.1,57,0.00,,,0.00,WUHU216HW,2013-01-03 23:26:00,
2013-01-03 15:27:00,56.7,42.1,30.06,NNE,23,1.3,5.1,58,0.00,,,0.00,WUHU216HW,2013-01-03 23:27:00,
2013-01-03 15:28:00,56.7,42.1,30.06,NE,45,1.1,5.1,58,0.00,,,0.00,WUHU216HW,2013-01-03 23:28:00,
2013-01-03 15:29:00,56.7,42.1,30.06,NNW,338,1.1,5.1,58,0.00,,,0.00,WUHU216HW,2013-01-03 23:29:00,
2013-01-03 15:30:00,56.5,42.0,30.06,NNW,338,1.1,5.1,58,0.00,,,0.00,WUHU216HW,2013-01-03 23:30:00,
2013-01-03 15:31:00,56.5,41.4,30.06,ENE,68,8.5,8.5,57,0.00,,,0.00,WUHU216HW,2013-01-03 23:31:00,
2013-01-03 15:32:00,56.5,41.0,30.06,North,0,4.0,8.5,56,0.00,,,0.00,WUHU216HW,2013-01-03 23:32:00,
2013-01-03 15:33:00,56.5,41.4,30.06,NNE,23,2.9,8.5,57,0.00,,,0.00,WUHU216HW,2013-01-03 23:33:00,
2013-01-03 15:34:00,56.5,41.4,30.06,NW,315,1.1,8.5,57,0.00,,,0.00,WUHU216HW,2013-01-03 23:34:00,
2013-01-03 15:35:00,56.5,41.4,30.06,NNE,23,1.1,8.5,57,0.00,,,0.00,WUHU216HW,2013-01-03 23:35:00,
2013-01-03 15:36:00,56.3,40.8,30.06,ENE,68,4.3,8.5,56,0.00,,,0.00,WUHU216HW,2013-01-03 23:36:00,
2013-01-03 15:37:00,56.3,41.2,30.06,ESE,113,4.3,8.5,57,0.00,,,0.00,WUHU216HW,2013-01-03 23:37:00,
2013-01-03 15:38:00,56.5,41.4,30.06,SE,135,3.6,8.5,57,0.00,,,0.00,WUHU216HW,2013-01-03 23:38:00,
2013-01-03 15:39:00,56.5,41.4,30.06,SW,225,0.7,8.5,57,0.00,,,0.00,WUHU216HW,2013-01-03 23:39:00,
2013-01-03 15:40:00,56.3,41.2,30.06,ENE,68,0.7,8.5,57,0.00,,,0.00,WUHU216HW,2013-01-03 23:40:00,
2013-01-03 15:41:00,56.3,40.8,30.06,NNW,338,2.5,4.3,56,0.00,,,0.00,WUHU216HW,2013-01-03 23:41:00,
2013-01-03 15:42:00,56.3,40.8,30.06,NE,45,4.7,4.7,56,0.00,,,0.00,WUHU216HW,2013-01-03 23:42:00,
2013-01-03 15:43:00,56.3,40.8,30.06,East,90,3.8,4.7,56,0.00,,,0.00,WUHU216HW,2013-01-03 23:43:00,
2013-01-03 15:44:00,56.2,40.6,30.06,South,180,0.0,4.7,56,0.00,,,0.00,WUHU216HW,2013-01-03 23:44:00,
2013-01-03 15:45:00,56.3,41.2,30.06,SE,135,0.2,4.7,57,0.00,,,0.00,WUHU216HW,2013-01-03 23:45:00,
2013-01-03 15:46:00,56.2,41.0,30.06,SE,135,0.4,4.7,57,0.00,,,0.00,WUHU216HW,2013-01-03 23:46:00,
2013-01-03 15:47:00,56.2,41.0,30.06,SE,135,2.9,4.7,57,0.00,,,0.00,WUHU216HW,2013-01-03 23:47:00,
2013-01-03 15:48:00,56.2,41.0,30.06,SE,135,1.6,4.7,57,0.00,,,0.00,WUHU216HW,2013-01-03 23:48:00,
2013-01-03 15:49:00,56.2,41.0,30.06,SE,135,2.9,4.7,57,0.00,,,0.00,WUHU216HW,2013-01-03 23:49:00,
2013-01-03 15:50:00,56.2,41.0,30.06,SE,135,0.4,4.7,57,0.00,,,0.00,WUHU216HW,2013-01-03 23:50:00,
2013-01-03 15:51:00,56.0,40.9,30.06,ESE,113,0.9,4.7,57,0.00,,,0.00,WUHU216HW,2013-01-03 23:51:00,
2013-01-03 15:52:00,55.8,40.7,30.06,SSE,158,1.1,3.8,57,0.00,,,0.00,WUHU216HW,2013-01-03 23:52:00,
2013-01-03 15:53:00,55.8,40.7,30.06,South,180,0.0,2.9,57,0.00,,,0.00,WUHU216HW,2013-01-03 23:53:00,
2013-01-03 15:54:00,55.8,40.7,30.06,South,180,0.0,2.9,57,0.00,,,0.00,WUHU216HW,2013-01-03 23:54:00,
2013-01-03 15:55:00,55.8,41.2,30.06,SE,135,0.4,2.9,58,0.00,,,0.00,WUHU216HW,2013-01-03 23:55:00,
2013-01-03 15:56:00,55.8,41.2,30.06,North,0,0.0,2.9,58,0.00,,,0.00,WUHU216HW,2013-01-03 23:56:00,
2013-01-03 15:57:00,55.6,40.5,30.06,NW,315,0.4,2.9,57,0.00,,,0.00,WUHU216HW,2013-01-03 23:57:00,
2013-01-03 15:58:00,55.4,40.3,30.06,NNE,23,0.7,2.9,57,0.00,,,0.00,WUHU216HW,2013-01-03 23:58:00,
2013-01-03 15:59:00,55.4,40.9,30.06,ENE,68,1.8,1.8,58,0.00,,,0.00,WUHU216HW,2013-01-03 23:59:00,
2013-01-03 16:00:00,55.4,40.9,30.06,NNE,23,1.1,1.8,58,0.00,,,0.00,WUHU216HW,2013-01-04 00:00:00,
2013-01-03 16:02:00,55.4,40.9,30.07,North,0,0.4,1.8,58,0.00,,,0.00,WUHU216HW,2013-01-04 00:02:00,
2013-01-03 16:03:00,55.4,40.9,30.06,NNE,23,0.0,1.8,58,0.00,,,0.00,WUHU216HW,2013-01-04 00:03:00,
2013-01-03 16:04:00,55.3,41.1,30.06,NNW,338,1.8,1.8,59,0.00,,,0.00,WUHU216HW,2013-01-04 00:04:00,
2013-01-03 16:05:00,55.1,41.0,30.06,NW,315,0.7,1.8,59,0.00,,,0.00,WUHU216HW,2013-01-04 00:05:00,
2013-01-03 16:06:00,55.1,41.0,30.06,NW,315,0.4,1.8,59,0.00,,,0.00,WUHU216HW,2013-01-04 00:06:00,
2013-01-03 16:07:00,55.1,41.0,30.06,NNW,338,1.3,1.8,59,0.00,,,0.00,WUHU216HW,2013-01-04 00:07:00,
2013-01-03 16:08:00,54.9,40.8,30.06,WNW,293,0.9,1.8,59,0.00,,,0.00,WUHU216HW,2013-01-04 00:08:00,
2013-01-03 16:09:00,54.9,40.8,30.06,NNW,338,0.2,1.8,59,0.00,,,0.00,WUHU216HW,2013-01-04 00:09:00,
2013-01-03 16:10:00,54.7,41.1,30.06,North,0,0.2,1.8,60,0.00,,,0.00,WUHU216HW,2013-01-04 00:10:00,
2013-01-03 16:11:00,54.7,41.1,30.06,NW,315,0.4,1.8,60,0.00,,,0.00,WUHU216HW,2013-01-04 00:11:00,
2013-01-03 16:12:00,54.7,41.1,30.06,NNE,23,0.4,1.8,60,0.00,,,0.00,WUHU216HW,2013-01-04 00:12:00,
2013-01-03 16:13:00,54.5,41.0,30.07,NNW,338,0.7,1.8,60,0.00,,,0.00,WUHU216HW,2013-01-04 00:13:00,
2013-01-03 16:14:00,54.5,41.0,30.07,NNE,23,0.9,1.3,60,0.00,,,0.00,WUHU216HW,2013-01-04 00:14:00,
2013-01-03 16:15:00,54.5,41.0,30.07,North,0,0.4,1.3,60,0.00,,,0.00,WUHU216HW,2013-01-04 00:15:00,
2013-01-03 16:16:00,54.4,41.2,30.07,NW,315,0.4,1.3,61,0.00,,,0.00,WUHU216HW,2013-01-04 00:16:00,
2013-01-03 16:17:00,54.4,41.2,30.07,NNW,338,0.7,0.9,61,0.00,,,0.00,WUHU216HW,2013-01-04 00:17:00,
2013-01-03 16:18:00,54.4,41.2,30.07,NNW,338,0.4,0.9,61,0.00,,,0.00,WUHU216HW,2013-01-04 00:18:00,
2013-01-03 16:19:00,54.2,41.1,30.07,NW,315,0.4,0.9,61,0.00,,,0.00,WUHU216HW,2013-01-04 00:19:00,
2013-01-03 16:20:00,54.2,41.1,30.07,NW,315,0.2,0.9,61,0.00,,,0.00,WUHU216HW,2013-01-04 00:20:00,
2013-01-03 16:21:00,54.2,41.1,30.07,NNW,338,0.4,0.9,61,0.00,,,0.00,WUHU216HW,2013-01-04 00:21:00,
2013-01-03 16:22:00,54.0,40.9,30.07,WNW,293,2.2,2.2,61,0.00,,,0.00,WUHU216HW,2013-01-04 00:22:00,
2013-01-03 16:23:00,54.0,41.2,30.07,North,0,1.1,2.2,62,0.00,,,0.00,WUHU216HW,2013-01-04 00:23:00,
2013-01-03 16:24:00,54.0,40.9,30.07,NNW,338,3.1,3.1,61,0.00,,,0.00,WUHU216HW,2013-01-04 00:24:00,
2013-01-03 16:25:00,53.8,41.1,30.07,NNW,338,0.4,3.1,62,0.00,,,0.00,WUHU216HW,2013-01-04 00:25:00,
2013-01-03 16:26:00,53.8,41.1,30.07,NNW,338,0.4,3.1,62,0.00,,,0.00,WUHU216HW,2013-01-04 00:26:00,
2013-01-03 16:27:00,53.8,41.1,30.07,NNW,338,0.4,3.1,62,0.00,,,0.00,WUHU216HW,2013-01-04 00:27:00,
2013-01-03 16:28:00,53.8,41.1,30.07,North,0,0.0,3.1,62,0.00,,,0.00,WUHU216HW,2013-01-04 00:28:00,
2013-01-03 16:29:00,53.6,41.0,30.07,North,0,0.0,3.1,62,0.00,,,0.00,WUHU216HW,2013-01-04 00:29:00,
2013-01-03 16:30:00,53.6,41.0,30.08,North,0,0.0,3.1,62,0.00,,,0.00,WUHU216HW,2013-01-04 00:30:00,
2013-01-03 16:31:00,53.6,41.0,30.07,North,0,0.0,3.1,62,0.00,,,0.00,WUHU216HW,2013-01-04 00:31:00,
2013-01-03 16:32:00,53.6,41.0,30.07,North,0,0.2,3.1,62,0.00,,,0.00,WUHU216HW,2013-01-04 00:32:00,
2013-01-03 16:33:00,53.6,41.3,30.07,NNW,338,1.8,3.1,63,0.00,,,0.00,WUHU216HW,2013-01-04 00:33:00,
2013-01-03 16:34:00,53.5,41.1,30.08,NNW,338,2.7,2.7,63,0.00,,,0.00,WUHU216HW,2013-01-04 00:34:00,
2013-01-03 16:35:00,53.3,41.0,30.08,North,0,2.0,2.7,63,0.00,,,0.00,WUHU216HW,2013-01-04 00:35:00,
2013-01-03 16:36:00,53.3,41.0,30.08,North,0,0.4,2.7,63,0.00,,,0.00,WUHU216HW,2013-01-04 00:36:00,
2013-01-03 16:37:00,53.3,41.0,30.08,NNW,338,0.9,2.7,63,0.00,,,0.00,WUHU216HW,2013-01-04 00:37:00,
2013-01-03 16:38:00,53.1,40.8,30.08,NNW,338,2.7,2.7,63,0.00,,,0.00,WUHU216HW,2013-01-04 00:38:00,
2013-01-03 16:39:00,53.1,40.8,30.08,NNW,338,0.2,2.7,63,0.00,,,0.00,WUHU216HW,2013-01-04 00:39:00,
2013-01-03 16:40:00,53.1,41.2,30.08,NNW,338,0.4,2.7,64,0.00,,,0.00,WUHU216HW,2013-01-04 00:40:00,
2013-01-03 16:41:00,52.9,41.1,30.08,NNW,338,0.2,2.7,64,0.00,,,0.00,WUHU216HW,2013-01-04 00:41:00,
2013-01-03 16:42:00,52.9,41.1,30.08,NNW,338,0.4,2.7,64,0.00,,,0.00,WUHU216HW,2013-01-04 00:42:00,
2013-01-03 16:43:00,52.9,41.1,30.08,NNW,338,0.2,2.7,64,0.00,,,0.00,WUHU216HW,2013-01-04 00:43:00,
2013-01-03 16:44:00,52.9,41.1,30.08,NW,315,0.4,2.7,64,0.00,,,0.00,WUHU216HW,2013-01-04 00:44:00,
2013-01-03 16:45:00,52.7,40.9,30.08,NW,315,0.0,2.7,64,0.00,,,0.00,WUHU216HW,2013-01-04 00:45:00,
2013-01-03 16:46:00,52.7,40.9,30.08,NNW,338,0.7,2.7,64,0.00,,,0.00,WUHU216HW,2013-01-04 00:46:00,
2013-01-03 16:47:00,52.6,40.7,30.08,NNW,338,0.0,2.7,64,0.00,,,0.00,WUHU216HW,2013-01-04 00:47:00,
2013-01-03 16:48:00,52.6,40.7,30.08,NW,315,0.2,0.7,64,0.00,,,0.00,WUHU216HW,2013-01-04 00:48:00,
2013-01-03 16:49:00,52.6,40.7,30.08,NW,315,0.4,0.7,64,0.00,,,0.00,WUHU216HW,2013-01-04 00:49:00,
2013-01-03 16:50:00,52.4,41.0,30.08,NNW,338,0.4,0.7,65,0.00,,,0.00,WUHU216HW,2013-01-04 00:50:00,
2013-01-03 16:51:00,52.4,41.0,30.08,NNW,338,1.6,1.6,65,0.00,,,0.00,WUHU216HW,2013-01-04 00:51:00,
2013-01-03 16:52:00,52.2,40.8,30.08,NNW,338,1.3,1.6,65,0.00,,,0.00,WUHU216HW,2013-01-04 00:52:00,
2013-01-03 16:53:00,52.2,40.8,30.08,NNW,338,1.1,1.6,65,0.00,,,0.00,WUHU216HW,2013-01-04 00:53:00,
2013-01-03 16:54:00,52.2,40.8,30.09,NNW,338,0.0,1.6,65,0.00,,,0.00,WUHU216HW,2013-01-04 00:54:00,
2013-01-03 16:55:00,52.2,40.8,30.09,NNW,338,0.4,1.6,65,0.00,,,0.00,WUHU216HW,2013-01-04 00:55:00,
2013-01-03 16:56:00,52.0,40.6,30.09,NNW,338,0.0,1.6,65,0.00,,,0.00,WUHU216HW,2013-01-04 00:56:00,
2013-01-03 16:57:00,52.0,40.6,30.08,NNW,338,0.0,1.6,65,0.00,,,0.00,WUHU216HW,2013-01-04 00:57:00,
2013-01-03 16:58:00,52.0,40.6,30.08,NNW,338,0.0,1.6,65,0.00,,,0.00,WUHU216HW,2013-01-04 00:58:00,
2013-01-03 16:59:00,51.8,40.4,30.08,NNW,338,0.0,1.6,65,0.00,,,0.00,WUHU216HW,2013-01-04 00:59:00,
2013-01-03 17:00:00,51.8,40.4,30.09,NNW,338,0.0,1.6,65,0.00,,,0.00,WUHU216HW,2013-01-04 01:00:00,
2013-01-03 17:01:00,51.8,40.4,30.08,NNW,338,0.0,1.3,65,0.00,,,0.00,WUHU216HW,2013-01-04 01:01:00,
2013-01-03 17:02:00,51.8,40.4,30.08,NNW,338,0.0,1.1,65,0.00,,,0.00,WUHU216HW,2013-01-04 01:02:00,
2013-01-03 17:03:00,51.7,40.7,30.08,NNW,338,0.2,0.4,66,0.00,,,0.00,WUHU216HW,2013-01-04 01:03:00,
2013-01-03 17:04:00,51.5,40.5,30.08,NNW,338,0.0,0.4,66,0.00,,,0.00,WUHU216HW,2013-01-04 01:04:00,
2013-01-03 17:05:00,51.5,40.5,30.08,NNW,338,0.0,0.2,66,0.00,,,0.00,WUHU216HW,2013-01-04 01:05:00,
2013-01-03 17:07:00,51.5,40.5,30.09,NNW,338,0.0,0.2,66,0.00,,,0.00,WUHU216HW,2013-01-04 01:07:00,
2013-01-03 17:08:00,51.5,40.5,30.08,NNW,338,0.2,0.2,66,0.00,,,0.00,WUHU216HW,2013-01-04 01:08:00,
2013-01-03 17:09:00,51.3,40.3,30.08,NE,45,0.9,0.9,66,0.00,,,0.00,WUHU216HW,2013-01-04 01:09:00,
2013-01-03 17:10:00,51.3,40.3,30.08,NE,45,2.5,2.5,66,0.00,,,0.00,WUHU216HW,2013-01-04 01:10:00,
2013-01-03 17:11:00,51.3,40.3,30.08,NE,45,3.8,3.8,66,0.00,,,0.00,WUHU216HW,2013-01-04 01:11:00,
2013-01-03 17:12:00,51.1,40.2,30.08,NE,45,1.6,3.8,66,0.00,,,0.00,WUHU216HW,2013-01-04 01:12:00,
2013-01-03 17:13:00,51.1,40.2,30.08,NNE,23,1.8,3.8,66,0.00,,,0.00,WUHU216HW,2013-01-04 01:13:00,
2013-01-03 17:14:00,51.1,40.2,30.08,NE,45,1.1,3.8,66,0.00,,,0.00,WUHU216HW,2013-01-04 01:14:00,
2013-01-03 17:15:00,51.1,40.2,30.08,NE,45,1.8,3.8,66,0.00,,,0.00,WUHU216HW,2013-01-04 01:15:00,
2013-01-03 17:16:00,51.1,40.2,30.08,NNE,23,1.8,3.8,66,0.00,,,0.00,WUHU216HW,2013-01-04 01:16:00,
2013-01-03 17:17:00,50.9,40.0,30.08,NNE,23,0.7,3.8,66,0.00,,,0.00,WUHU216HW,2013-01-04 01:17:00,
2013-01-03 17:18:00,50.9,40.0,30.08,NNE,23,0.0,3.8,66,0.00,,,0.00,WUHU216HW,2013-01-04 01:18:00,
2013-01-03 17:19:00,50.9,40.0,30.08,North,0,0.0,3.8,66,0.00,,,0.00,WUHU216HW,2013-01-04 01:19:00,
2013-01-03 17:20:00,50.8,39.8,30.08,North,0,0.4,3.8,66,0.00,,,0.00,WUHU216HW,2013-01-04 01:20:00,
2013-01-03 17:21:00,50.8,40.2,30.08,North,0,0.2,1.8,67,0.00,,,0.00,WUHU216HW,2013-01-04 01:21:00,
2013-01-03 17:22:00,50.8,40.2,30.08,North,0,0.4,1.8,67,0.00,,,0.00,WUHU216HW,2013-01-04 01:22:00,
2013-01-03 17:23:00,50.8,40.2,30.08,North,0,0.2,1.8,67,0.00,,,0.00,WUHU216HW,2013-01-04 01:23:00,
2013-01-03 17:24:00,50.6,40.4,30.08,WSW,248,0.9,1.8,68,0.00,,,0.00,WUHU216HW,2013-01-04 01:24:00,
2013-01-03 17:25:00,50.6,40.4,30.08,North,0,0.2,1.8,68,0.00,,,0.00,WUHU216HW,2013-01-04 01:25:00,
2013-01-03 17:26:00,50.4,39.9,30.08,North,0,0.2,0.9,67,0.00,,,0.00,WUHU216HW,2013-01-04 01:26:00,
2013-01-03 17:27:00,50.4,39.9,30.08,NNW,338,0.7,0.9,67,0.00,,,0.00,WUHU216HW,2013-01-04 01:27:00,
2013-01-03 17:28:00,50.4,39.9,30.08,NNE,23,0.4,0.9,67,0.00,,,0.00,WUHU216HW,2013-01-04 01:28:00,
2013-01-03 17:29:00,50.4,39.9,30.08,North,0,1.1,1.1,67,0.00,,,0.00,WUHU216HW,2013-01-04 01:29:00,
2013-01-03 17:30:00,50.4,39.9,30.08,North,0,0.9,1.1,67,0.00,,,0.00,WUHU216HW,2013-01-04 01:30:00,
2013-01-03 17:31:00,50.2,39.7,30.09,WNW,293,0.7,1.1,67,0.00,,,0.00,WUHU216HW,2013-01-04 01:31:00,
2013-01-03 17:32:00,50.2,40.1,30.08,NW,315,1.1,1.1,68,0.00,,,0.00,WUHU216HW,2013-01-04 01:32:00,
2013-01-03 17:33:00,50.2,40.1,30.09,NW,315,0.0,1.1,68,0.00,,,0.00,WUHU216HW,2013-01-04 01:33:00,
2013-01-03 17:34:00,50.2,39.7,30.09,NW,315,0.0,1.1,67,0.00,,,0.00,WUHU216HW,2013-01-04 01:34:00,
2013-01-03 17:35:00,50.2,40.1,30.09,North,0,1.1,1.1,68,0.00,,,0.00,WUHU216HW,2013-01-04 01:35:00,
2013-01-03 17:36:00,50.2,40.1,30.09,SSW,203,1.1,1.1,68,0.00,,,0.00,WUHU216HW,2013-01-04 01:36:00,
2013-01-03 17:37:00,50.2,40.1,30.09,NNW,338,0.0,1.1,68,0.00,,,0.00,WUHU216HW,2013-01-04 01:37:00,
2013-01-03 17:38:00,50.2,40.1,30.09,NW,315,0.2,1.1,68,0.00,,,0.00,WUHU216HW,2013-01-04 01:38:00,
2013-01-03 17:39:00,50.2,40.1,30.09,NNW,338,1.1,1.1,68,0.00,,,0.00,WUHU216HW,2013-01-04 01:39:00,
2013-01-03 17:40:00,50.2,40.1,30.09,NNW,338,0.2,1.1,68,0.00,,,0.00,WUHU216HW,2013-01-04 01:40:00,
2013-01-03 17:41:00,50.0,39.9,30.09,NNE,23,0.2,1.1,68,0.00,,,0.00,WUHU216HW,2013-01-04 01:41:00,
2013-01-03 17:42:00,50.0,39.9,30.09,North,0,0.4,1.1,68,0.00,,,0.00,WUHU216HW,2013-01-04 01:42:00,
2013-01-03 17:43:00,50.0,39.9,30.09,NNW,338,1.1,1.1,68,0.00,,,0.00,WUHU216HW,2013-01-04 01:43:00,
2013-01-03 17:44:00,50.0,39.9,30.09,North,0,0.4,1.1,68,0.00,,,0.00,WUHU216HW,2013-01-04 01:44:00,
2013-01-03 17:45:00,50.0,39.9,30.09,NNW,338,0.4,1.1,68,0.00,,,0.00,WUHU216HW,2013-01-04 01:45:00,
2013-01-03 17:46:00,50.0,39.9,30.09,NNW,338,0.0,1.1,68,0.00,,,0.00,WUHU216HW,2013-01-04 01:46:00,
2013-01-03 17:47:00,50.0,39.9,30.09,WNW,293,0.4,1.1,68,0.00,,,0.00,WUHU216HW,2013-01-04 01:47:00,
2013-01-03 17:48:00,50.0,39.9,30.09,WNW,293,0.4,1.1,68,0.00,,,0.00,WUHU216HW,2013-01-04 01:48:00,
2013-01-03 17:49:00,50.0,39.9,30.09,NW,315,0.2,1.1,68,0.00,,,0.00,WUHU216HW,2013-01-04 01:49:00,
2013-01-03 17:50:00,50.0,39.9,30.09,NW,315,0.0,1.1,68,0.00,,,0.00,WUHU216HW,2013-01-04 01:50:00,
2013-01-03 17:51:00,50.0,39.9,30.09,NW,315,0.0,1.1,68,0.00,,,0.00,WUHU216HW,2013-01-04 01:51:00,
2013-01-03 17:52:00,50.0,39.9,30.09,NW,315,0.4,1.1,68,0.00,,,0.00,WUHU216HW,2013-01-04 01:52:00,
2013-01-03 17:53:00,50.0,39.9,30.10,NNW,338,1.1,1.1,68,0.00,,,0.00,WUHU216HW,2013-01-04 01:53:00,
2013-01-03 17:54:00,50.0,39.9,30.10,NNW,338,0.2,1.1,68,0.00,,,0.00,WUHU216HW,2013-01-04 01:54:00,
2013-01-03 17:55:00,50.0,39.9,30.10,NNW,338,0.0,1.1,68,0.00,,,0.00,WUHU216HW,2013-01-04 01:55:00,
2013-01-03 17:56:00,49.9,39.7,30.10,NNW,338,0.0,1.1,68,0.00,,,0.00,WUHU216HW,2013-01-04 01:56:00,
2013-01-03 17:57:00,49.9,39.7,30.10,NNW,338,0.0,1.1,68,0.00,,,0.00,WUHU216HW,2013-01-04 01:57:00,
2013-01-03 17:58:00,49.9,39.7,30.10,North,0,0.0,1.1,68,0.00,,,0.00,WUHU216HW,2013-01-04 01:58:00,
2013-01-03 17:59:00,49.7,39.5,30.10,North,0,0.0,1.1,68,0.00,,,0.00,WUHU216HW,2013-01-04 01:59:00,
2013-01-03 18:00:00,49.7,39.5,30.10,NW,315,0.2,1.1,68,0.00,,,0.00,WUHU216HW,2013-01-04 02:00:00,
2013-01-03 18:02:00,49.7,39.5,30.10,NW,315,0.0,1.1,68,0.00,,,0.00,WUHU216HW,2013-01-04 02:02:00,
2013-01-03 18:03:00,49.5,39.8,30.10,NW,315,0.2,1.1,69,0.00,,,0.00,WUHU216HW,2013-01-04 02:03:00,
2013-01-03 18:04:00,49.3,39.6,30.10,NNW,338,0.9,0.9,69,0.00,,,0.00,WUHU216HW,2013-01-04 02:04:00,
2013-01-03 18:05:00,49.3,39.6,30.10,NNW,338,0.2,0.9,69,0.00,,,0.00,WUHU216HW,2013-01-04 02:05:00,
2013-01-03 18:06:00,49.3,39.6,30.10,NNW,338,0.4,0.9,69,0.00,,,0.00,WUHU216HW,2013-01-04 02:06:00,
2013-01-03 18:07:00,49.1,39.4,30.10,NNW,338,0.2,0.9,69,0.00,,,0.00,WUHU216HW,2013-01-04 02:07:00,
2013-01-03 18:08:00,49.1,39.4,30.10,NNW,338,0.7,0.9,69,0.00,,,0.00,WUHU216HW,2013-01-04 02:08:00,
2013-01-03 18:09:00,49.0,39.3,30.10,NNW,338,0.4,0.9,69,0.00,,,0.00,WUHU216HW,2013-01-04 02:09:00,
2013-01-03 18:10:00,49.0,39.3,30.10,NNW,338,0.7,0.9,69,0.00,,,0.00,WUHU216HW,2013-01-04 02:10:00,
2013-01-03 18:11:00,48.8,39.4,30.10,NW,315,1.6,1.6,70,0.00,,,0.00,WUHU216HW,2013-01-04 02:11:00,
2013-01-03 18:12:00,48.6,39.6,30.10,NNW,338,1.8,1.8,71,0.00,,,0.00,WUHU216HW,2013-01-04 02:12:00,
2013-01-03 18:13:00,48.6,40.0,30.10,NNW,338,1.1,1.8,72,0.00,,,0.00,WUHU216HW,2013-01-04 02:13:00,
2013-01-03 18:14:00,48.4,39.8,30.10,NNW,338,0.4,1.8,72,0.00,,,0.00,WUHU216HW,2013-01-04 02:14:00,
2013-01-03 18:15:00,48.2,39.6,30.10,NNW,338,0.2,1.8,72,0.00,,,0.00,WUHU216HW,2013-01-04 02:15:00,
2013-01-03 18:16:00,48.2,39.6,30.10,NNW,338,0.2,1.8,72,0.00,,,0.00,WUHU216HW,2013-01-04 02:16:00,
2013-01-03 18:17:00,48.2,39.6,30.10,NNW,338,0.2,1.8,72,0.00,,,0.00,WUHU216HW,2013-01-04 02:17:00,
2013-01-03 18:18:00,48.1,39.4,30.10,NNW,338,1.1,1.8,72,0.00,,,0.00,WUHU216HW,2013-01-04 02:18:00,
2013-01-03 18:19:00,48.1,39.4,30.10,NNW,338,0.0,1.8,72,0.00,,,0.00,WUHU216HW,2013-01-04 02:19:00,
2013-01-03 18:20:00,48.1,39.4,30.10,NNW,338,0.2,1.8,72,0.00,,,0.00,WUHU216HW,2013-01-04 02:20:00,
2013-01-03 18:21:00,47.9,39.2,30.10,NNW,338,0.4,1.8,72,0.00,,,0.00,WUHU216HW,2013-01-04 02:21:00,
2013-01-03 18:22:00,47.9,39.2,30.10,WNW,293,0.9,1.1,72,0.00,,,0.00,WUHU216HW,2013-01-04 02:22:00,
2013-01-03 18:23:00,47.9,39.6,30.10,NNW,338,0.7,1.1,73,0.00,,,0.00,WUHU216HW,2013-01-04 02:23:00,
2013-01-03 18:24:00,47.9,39.6,30.10,North,0,1.1,1.1,73,0.00,,,0.00,WUHU216HW,2013-01-04 02:24:00,
2013-01-03 18:25:00,47.9,39.6,30.10,NNW,338,0.4,1.1,73,0.00,,,0.00,WUHU216HW,2013-01-04 02:25:00,
2013-01-03 18:26:00,47.9,40.0,30.10,NNW,338,0.4,1.1,74,0.00,,,0.00,WUHU216HW,2013-01-04 02:26:00,
2013-01-03 18:27:00,47.9,40.0,30.10,NNW,338,0.9,1.1,74,0.00,,,0.00,WUHU216HW,2013-01-04 02:27:00,
2013-01-03 18:28:00,47.9,40.0,30.10,NNW,338,0.4,1.1,74,0.00,,,0.00,WUHU216HW,2013-01-04 02:28:00,
2013-01-03 18:29:00,47.9,40.0,30.10,NNW,338,2.5,2.5,74,0.00,,,0.00,WUHU216HW,2013-01-04 02:29:00,
2013-01-03 18:30:00,47.9,40.0,30.10,NNW,338,2.5,2.5,74,0.00,,,0.00,WUHU216HW,2013-01-04 02:30:00,
2013-01-03 18:31:00,47.9,40.0,30.10,North,0,1.6,2.5,74,0.00,,,0.00,WUHU216HW,2013-01-04 02:31:00,
2013-01-03 18:32:00,48.1,40.1,30.10,North,0,2.0,2.5,74,0.00,,,0.00,WUHU216HW,2013-01-04 02:32:00,
2013-01-03 18:33:00,48.1,40.1,30.09,NW,315,0.4,2.5,74,0.00,,,0.00,WUHU216HW,2013-01-04 02:33:00,
2013-01-03 18:34:00,48.1,40.1,30.10,NNW,338,1.3,2.5,74,0.00,,,0.00,WUHU216HW,2013-01-04 02:34:00,
2013-01-03 18:35:00,48.1,40.1,30.10,NNW,338,3.1,3.1,74,0.00,,,0.00,WUHU216HW,2013-01-04 02:35:00,
2013-01-03 18:36:00,48.1,40.1,30.10,NNW,338,0.9,3.1,74,0.00,,,0.00,WUHU216HW,2013-01-04 02:36:00,
2013-01-03 18:37:00,47.9,40.0,30.10,North,0,0.2,3.1,74,0.00,,,0.00,WUHU216HW,2013-01-04 02:37:00,
2013-01-03 18:38:00,47.9,40.0,30.10,NNW,338,1.6,3.1,74,0.00,,,0.00,WUHU216HW,2013-01-04 02:38:00,
2013-01-03 18:39:00,47.9,40.2,30.10,NNW,338,1.3,3.1,75,0.00,,,0.00,WUHU216HW,2013-01-04 02:39:00,
2013-01-03 18:40:00,47.9,40.2,30.10,NNW,338,1.1,3.1,75,0.00,,,0.00,WUHU216HW,2013-01-04 02:40:00,
2013-01-03 18:41:00,47.9,40.2,30.10,NNW,338,0.4,3.1,75,0.00,,,0.00,WUHU216HW,2013-01-04 02:41:00,
2013-01-03 18:42:00,47.9,40.0,30.10,NNE,23,0.2,3.1,74,0.00,,,0.00,WUHU216HW,2013-01-04 02:42:00,
2013-01-03 18:43:00,47.7,39.8,30.10,North,0,0.4,3.1,74,0.00,,,0.00,WUHU216HW,2013-01-04 02:43:00,
2013-01-03 18:44:00,47.7,39.8,30.10,NNW,338,0.0,3.1,74,0.00,,,0.00,WUHU216HW,2013-01-04 02:44:00,
2013-01-03 18:45:00,47.7,39.8,30.10,NNW,338,0.0,1.6,74,0.00,,,0.00,WUHU216HW,2013-01-04 02:45:00,
2013-01-03 18:46:00,47.7,39.8,30.10,NNW,338,0.4,1.6,74,0.00,,,0.00,WUHU216HW,2013-01-04 02:46:00,
2013-01-03 18:47:00,47.5,39.6,30.10,NNW,338,1.3,1.6,74,0.00,,,0.00,WUHU216HW,2013-01-04 02:47:00,
2013-01-03 18:48:00,47.5,39.6,30.10,NNW,338,1.3,1.3,74,0.00,,,0.00,WUHU216HW,2013-01-04 02:48:00,
2013-01-03 18:49:00,47.5,40.0,30.10,NNW,338,0.2,1.3,75,0.00,,,0.00,WUHU216HW,2013-01-04 02:49:00,
2013-01-03 18:50:00,47.5,40.0,30.10,NNW,338,0.0,1.3,75,0.00,,,0.00,WUHU216HW,2013-01-04 02:50:00,
2013-01-03 18:51:00,47.5,40.0,30.10,NW,315,0.2,1.3,75,0.00,,,0.00,WUHU216HW,2013-01-04 02:51:00,
2013-01-03 18:52:00,47.5,40.0,30.10,NW,315,0.0,1.3,75,0.00,,,0.00,WUHU216HW,2013-01-04 02:52:00,
2013-01-03 18:53:00,47.5,40.0,30.10,NW,315,0.2,1.3,75,0.00,,,0.00,WUHU216HW,2013-01-04 02:53:00,
2013-01-03 18:54:00,47.5,39.6,30.10,North,0,0.4,1.3,74,0.00,,,0.00,WUHU216HW,2013-01-04 02:54:00,
2013-01-03 18:55:00,47.5,39.6,30.10,North,0,0.2,1.3,74,0.00,,,0.00,WUHU216HW,2013-01-04 02:55:00,
2013-01-03 18:56:00,47.5,39.6,30.10,North,0,0.0,1.3,74,0.00,,,0.00,WUHU216HW,2013-01-04 02:56:00,
2013-01-03 18:57:00,47.5,39.6,30.10,North,0,0.0,1.3,74,0.00,,,0.00,WUHU216HW,2013-01-04 02:57:00,
2013-01-03 18:58:00,47.5,39.6,30.10,North,0,0.4,0.4,74,0.00,,,0.00,WUHU216HW,2013-01-04 02:58:00,
2013-01-03 18:59:00,47.5,40.0,30.10,NNW,338,2.0,2.0,75,0.00,,,0.00,WUHU216HW,2013-01-04 02:59:00,
2013-01-03 19:00:00,47.3,39.8,30.10,NNW,338,1.1,2.0,75,0.00,,,0.00,WUHU216HW,2013-01-04 03:00:00,
2013-01-03 19:02:00,47.3,39.8,30.10,NW,315,0.0,2.0,75,0.00,,,0.00,WUHU216HW,2013-01-04 03:02:00,
2013-01-03 19:03:00,47.3,39.8,30.10,NW,315,0.2,2.0,75,0.00,,,0.00,WUHU216HW,2013-01-04 03:03:00,
2013-01-03 19:04:00,47.3,39.8,30.10,NW,315,2.0,2.0,75,0.00,,,0.00,WUHU216HW,2013-01-04 03:04:00,
2013-01-03 19:05:00,47.3,39.8,30.10,NW,315,1.1,2.0,75,0.00,,,0.00,WUHU216HW,2013-01-04 03:05:00,
2013-01-03 19:06:00,47.3,39.8,30.10,NW,315,0.2,2.0,75,0.00,,,0.00,WUHU216HW,2013-01-04 03:06:00,
2013-01-03 19:07:00,47.3,39.4,30.10,NW,315,0.0,2.0,74,0.00,,,0.00,WUHU216HW,2013-01-04 03:07:00,
2013-01-03 19:08:00,47.3,39.8,30.10,NW,315,1.1,2.0,75,0.00,,,0.00,WUHU216HW,2013-01-04 03:08:00,
2013-01-03 19:09:00,47.3,39.8,30.10,NW,315,0.2,2.0,75,0.00,,,0.00,WUHU216HW,2013-01-04 03:09:00,
2013-01-03 19:10:00,47.3,39.8,30.10,NW,315,0.9,2.0,75,0.00,,,0.00,WUHU216HW,2013-01-04 03:10:00,
2013-01-03 19:11:00,47.3,40.2,30.10,WNW,293,0.9,2.0,76,0.00,,,0.00,WUHU216HW,2013-01-04 03:11:00,
2013-01-03 19:12:00,47.5,40.3,30.10,North,0,2.2,2.2,76,0.00,,,0.00,WUHU216HW,2013-01-04 03:12:00,
2013-01-03 19:13:00,47.5,40.0,30.10,NNW,338,0.4,2.2,75,0.00,,,0.00,WUHU216HW,2013-01-04 03:13:00,
2013-01-03 19:14:00,47.5,40.0,30.10,ENE,68,0.2,2.2,75,0.00,,,0.00,WUHU216HW,2013-01-04 03:14:00,
2013-01-03 19:15:00,47.5,40.0,30.10,NNW,338,2.2,2.2,75,0.00,,,0.00,WUHU216HW,2013-01-04 03:15:00,
2013-01-03 19:16:00,47.7,40.2,30.10,North,0,1.1,2.2,75,0.00,,,0.00,WUHU216HW,2013-01-04 03:16:00,
2013-01-03 19:17:00,47.9,40.2,30.10,North,0,0.0,2.2,75,0.00,,,0.00,WUHU216HW,2013-01-04 03:17:00,
2013-01-03 19:18:00,47.9,40.2,30.10,NNE,23,0.4,2.2,75,0.00,,,0.00,WUHU216HW,2013-01-04 03:18:00,
2013-01-03 19:19:00,47.9,40.2,30.10,North,0,0.7,2.2,75,0.00,,,0.00,WUHU216HW,2013-01-04 03:19:00,
2013-01-03 19:20:00,47.9,40.2,30.10,NNE,23,0.4,2.2,75,0.00,,,0.00,WUHU216HW,2013-01-04 03:20:00,
2013-01-03 19:21:00,47.9,40.0,30.10,NW,315,0.7,2.2,74,0.00,,,0.00,WUHU216HW,2013-01-04 03:21:00,
2013-01-03 19:22:00,47.9,40.0,30.10,NNW,338,0.4,2.2,74,0.00,,,0.00,WUHU216HW,2013-01-04 03:22:00,
2013-01-03 19:23:00,48.1,40.1,30.10,NW,315,0.4,2.2,74,0.00,,,0.00,WUHU216HW,2013-01-04 03:23:00,
2013-01-03 19:24:00,48.1,40.1,30.10,NNW,338,0.7,2.2,74,0.00,,,0.00,WUHU216HW,2013-01-04 03:24:00,
2013-01-03 19:25:00,48.1,40.1,30.10,NE,45,4.7,4.7,74,0.00,,,0.00,WUHU216HW,2013-01-04 03:25:00,
2013-01-03 19:26:00,48.1,40.1,30.11,North,0,0.4,4.7,74,0.00,,,0.00,WUHU216HW,2013-01-04 03:26:00,
2013-01-03 19:27:00,48.2,39.9,30.10,NW,315,0.2,4.7,73,0.00,,,0.00,WUHU216HW,2013-01-04 03:27:00,
2013-01-03 19:28:00,48.2,39.9,30.11,NNW,338,1.1,4.7,73,0.00,,,0.00,WUHU216HW,2013-01-04 03:28:00,
2013-01-03 19:29:00,48.2,39.9,30.11,NE,45,1.1,4.7,73,0.00,,,0.00,WUHU216HW,2013-01-04 03:29:00,
2013-01-03 19:30:00,48.2,39.9,30.11,NE,45,1.1,4.7,73,0.00,,,0.00,WUHU216HW,2013-01-04 03:30:00,
2013-01-03 19:31:00,48.2,39.9,30.11,WNW,293,1.1,4.7,73,0.00,,,0.00,WUHU216HW,2013-01-04 03:31:00,
2013-01-03 19:32:00,48.2,39.9,30.11,NE,45,1.8,4.7,73,0.00,,,0.00,WUHU216HW,2013-01-04 03:32:00,
2013-01-03 19:33:00,48.2,39.9,30.11,North,0,0.4,4.7,73,0.00,,,0.00,WUHU216HW,2013-01-04 03:33:00,
2013-01-03 19:34:00,48.2,39.9,30.11,North,0,0.4,4.7,73,0.00,,,0.00,WUHU216HW,2013-01-04 03:34:00,
2013-01-03 19:35:00,48.2,39.9,30.11,NE,45,1.8,1.8,73,0.00,,,0.00,WUHU216HW,2013-01-04 03:35:00,
2013-01-03 19:36:00,48.2,39.9,30.11,North,0,0.7,1.8,73,0.00,,,0.00,WUHU216HW,2013-01-04 03:36:00,
2013-01-03 19:37:00,48.2,39.9,30.11,NNE,23,0.4,1.8,73,0.00,,,0.00,WUHU216HW,2013-01-04 03:37:00,
2013-01-03 19:38:00,48.2,39.6,30.11,NNW,338,1.8,1.8,72,0.00,,,0.00,WUHU216HW,2013-01-04 03:38:00,
2013-01-03 19:39:00,48.2,39.6,30.11,North,0,0.7,1.8,72,0.00,,,0.00,WUHU216HW,2013-01-04 03:39:00,
2013-01-03 19:40:00,48.2,39.6,30.11,North,0,1.1,1.8,72,0.00,,,0.00,WUHU216HW,2013-01-04 03:40:00,
2013-01-03 19:41:00,48.2,39.6,30.11,NNE,23,2.0,2.0,72,0.00,,,0.00,WUHU216HW,2013-01-04 03:41:00,
2013-01-03 19:42:00,48.2,39.6,30.11,NNW,338,0.7,2.0,72,0.00,,,0.00,WUHU216HW,2013-01-04 03:42:00,
2013-01-03 19:43:00,48.2,39.6,30.11,ENE,68,4.0,4.0,72,0.00,,,0.00,WUHU216HW,2013-01-04 03:43:00,
2013-01-03 19:44:00,48.2,39.6,30.11,NNE,23,4.0,4.0,72,0.00,,,0.00,WUHU216HW,2013-01-04 03:44:00,
2013-01-03 19:45:00,48.2,39.6,30.11,NNE,23,2.0,4.0,72,0.00,,,0.00,WUHU216HW,2013-01-04 03:45:00,
2013-01-03 19:46:00,48.2,39.6,30.11,NE,45,4.0,4.0,72,0.00,,,0.00,WUHU216HW,2013-01-04 03:46:00,
2013-01-03 19:47:00,48.2,39.6,30.11,NNE,23,2.5,4.0,72,0.00,,,0.00,WUHU216HW,2013-01-04 03:47:00,
2013-01-03 19:48:00,48.2,39.6,30.11,NNE,23,5.8,5.8,72,0.00,,,0.00,WUHU216HW,2013-01-04 03:48:00,
2013-01-03 19:49:00,48.4,39.8,30.11,NNE,23,4.7,5.8,72,0.00,,,0.00,WUHU216HW,2013-01-04 03:49:00,
2013-01-03 19:50:00,48.4,39.8,30.11,North,0,6.5,6.5,72,0.00,,,0.00,WUHU216HW,2013-01-04 03:50:00,
2013-01-03 19:51:00,48.6,40.0,30.11,NE,45,2.5,6.5,72,0.00,,,0.00,WUHU216HW,2013-01-04 03:51:00,
2013-01-03 19:52:00,48.6,40.0,30.11,NNE,23,5.4,6.5,72,0.00,,,0.00,WUHU216HW,2013-01-04 03:52:00,
2013-01-03 19:53:00,48.6,40.0,30.11,NE,45,2.5,6.5,72,0.00,,,0.00,WUHU216HW,2013-01-04 03:53:00,
2013-01-03 19:54:00,48.6,40.0,30.11,NNE,23,5.1,6.5,72,0.00,,,0.00,WUHU216HW,2013-01-04 03:54:00,
2013-01-03 19:55:00,48.6,40.0,30.11,NNE,23,0.9,6.5,72,0.00,,,0.00,WUHU216HW,2013-01-04 03:55:00,
2013-01-03 19:56:00,48.6,40.0,30.11,NNE,23,1.6,6.5,72,0.00,,,0.00,WUHU216HW,2013-01-04 03:56:00,
2013-01-03 19:57:00,48.6,40.0,30.11,North,0,0.7,6.5,72,0.00,,,0.00,WUHU216HW,2013-01-04 03:57:00,
2013-01-03 19:58:00,48.6,40.0,30.11,North,0,1.8,6.5,72,0.00,,,0.00,WUHU216HW,2013-01-04 03:58:00,
2013-01-03 19:59:00,48.6,40.0,30.11,North,0,3.8,6.5,72,0.00,,,0.00,WUHU216HW,2013-01-04 03:59:00,
2013-01-03 20:01:00,48.6,40.0,30.11,North,0,1.3,5.4,72,0.00,,,0.00,WUHU216HW,2013-01-04 04:01:00,
2013-01-03 20:02:00,48.4,39.8,30.11,North,0,1.8,5.4,72,0.00,,,0.00,WUHU216HW,2013-01-04 04:02:00,
2013-01-03 20:03:00,48.4,39.8,30.11,North,0,3.1,5.1,72,0.00,,,0.00,WUHU216HW,2013-01-04 04:03:00,
2013-01-03 20:04:00,48.4,39.8,30.12,NNE,23,1.6,5.1,72,0.00,,,0.00,WUHU216HW,2013-01-04 04:04:00,
2013-01-03 20:05:00,48.4,39.8,30.11,NNE,23,4.0,4.0,72,0.00,,,0.00,WUHU216HW,2013-01-04 04:05:00,
2013-01-03 20:06:00,48.4,39.8,30.11,North,0,1.1,4.0,72,0.00,,,0.00,WUHU216HW,2013-01-04 04:06:00,
2013-01-03 20:07:00,48.4,39.8,30.11,NE,45,2.0,4.0,72,0.00,,,0.00,WUHU216HW,2013-01-04 04:07:00,
2013-01-03 20:08:00,48.4,39.8,30.12,NNW,338,0.4,4.0,72,0.00,,,0.00,WUHU216HW,2013-01-04 04:08:00,
2013-01-03 20:09:00,48.2,39.6,30.11,NNE,23,2.5,4.0,72,0.00,,,0.00,WUHU216HW,2013-01-04 04:09:00,
2013-01-03 20:10:00,48.2,39.6,30.11,NNE,23,1.6,4.0,72,0.00,,,0.00,WUHU216HW,2013-01-04 04:10:00,
2013-01-03 20:11:00,48.2,39.6,30.12,NNW,338,1.8,4.0,72,0.00,,,0.00,WUHU216HW,2013-01-04 04:11:00,
2013-01-03 20:12:00,48.2,39.6,30.11,North,0,0.4,4.0,72,0.00,,,0.00,WUHU216HW,2013-01-04 04:12:00,
2013-01-03 20:13:00,48.2,39.6,30.12,NE,45,1.1,4.0,72,0.00,,,0.00,WUHU216HW,2013-01-04 04:13:00,
2013-01-03 20:14:00,48.2,39.6,30.12,North,0,1.1,4.0,72,0.00,,,0.00,WUHU216HW,2013-01-04 04:14:00,
2013-01-03 20:15:00,48.2,39.6,30.12,North,0,0.9,2.5,72,0.00,,,0.00,WUHU216HW,2013-01-04 04:15:00,
2013-01-03 20:16:00,48.2,39.6,30.12,North,0,2.5,2.5,72,0.00,,,0.00,WUHU216HW,2013-01-04 04:16:00,
2013-01-03 20:17:00,48.2,39.6,30.12,NNE,23,2.5,2.5,72,0.00,,,0.00,WUHU216HW,2013-01-04 04:17:00,
2013-01-03 20:18:00,48.2,39.6,30.12,ENE,68,1.6,2.5,72,0.00,,,0.00,WUHU216HW,2013-01-04 04:18:00,
2013-01-03 20:19:00,48.4,39.8,30.11,SSW,203,0.4,2.5,72,0.00,,,0.00,WUHU216HW,2013-01-04 04:19:00,
2013-01-03 20:20:00,48.4,39.8,30.12,ENE,68,0.4,2.5,72,0.00,,,0.00,WUHU216HW,2013-01-04 04:20:00,
2013-01-03 20:21:00,48.4,39.8,30.12,ENE,68,6.0,6.0,72,0.00,,,0.00,WUHU216HW,2013-01-04 04:21:00,
2013-01-03 20:22:00,48.4,39.8,30.12,NE,45,2.0,6.0,72,0.00,,,0.00,WUHU216HW,2013-01-04 04:22:00,
2013-01-03 20:23:00,48.6,40.0,30.11,NNE,23,2.9,6.0,72,0.00,,,0.00,WUHU216HW,2013-01-04 04:23:00,
2013-01-03 20:24:00,48.6,40.0,30.11,NNE,23,4.7,6.0,72,0.00,,,0.00,WUHU216HW,2013-01-04 04:24:00,
2013-01-03 20:25:00,48.6,40.0,30.11,North,0,2.5,6.0,72,0.00,,,0.00,WUHU216HW,2013-01-04 04:25:00,
2013-01-03 20:26:00,48.6,40.0,30.11,NE,45,0.9,6.0,72,0.00,,,0.00,WUHU216HW,2013-01-04 04:26:00,
2013-01-03 20:27:00,48.6,40.0,30.11,NE,45,5.1,6.0,72,0.00,,,0.00,WUHU216HW,2013-01-04 04:27:00,
2013-01-03 20:28:00,48.6,40.0,30.11,North,0,1.1,6.0,72,0.00,,,0.00,WUHU216HW,2013-01-04 04:28:00,
2013-01-03 20:29:00,48.6,40.0,30.11,North,0,0.7,6.0,72,0.00,,,0.00,WUHU216HW,2013-01-04 04:29:00,
2013-01-03 20:30:00,48.6,40.0,30.11,NE,45,1.1,6.0,72,0.00,,,0.00,WUHU216HW,2013-01-04 04:30:00,
2013-01-03 20:31:00,48.4,39.8,30.11,North,0,0.9,5.1,72,0.00,,,0.00,WUHU216HW,2013-01-04 04:31:00,
2013-01-03 20:32:00,48.4,39.8,30.11,North,0,0.4,5.1,72,0.00,,,0.00,WUHU216HW,2013-01-04 04:32:00,
2013-01-03 20:33:00,48.4,39.8,30.11,WSW,248,0.4,5.1,72,0.00,,,0.00,WUHU216HW,2013-01-04 04:33:00,
2013-01-03 20:34:00,48.2,39.6,30.11,NNW,338,0.4,5.1,72,0.00,,,0.00,WUHU216HW,2013-01-04 04:34:00,
2013-01-03 20:35:00,48.2,39.6,30.11,North,0,0.4,5.1,72,0.00,,,0.00,WUHU216HW,2013-01-04 04:35:00,
2013-01-03 20:36:00,48.2,39.6,30.12,North,0,1.8,5.1,72,0.00,,,0.00,WUHU216HW,2013-01-04 04:36:00,
2013-01-03 20:37:00,48.2,39.6,30.11,NW,315,0.9,1.8,72,0.00,,,0.00,WUHU216HW,2013-01-04 04:37:00,
2013-01-03 20:38:00,48.1,39.8,30.12,NNE,23,0.4,1.8,73,0.00,,,0.00,WUHU216HW,2013-01-04 04:38:00,
2013-01-03 20:39:00,48.1,39.4,30.12,NNW,338,2.5,2.5,72,0.00,,,0.00,WUHU216HW,2013-01-04 04:39:00,
2013-01-03 20:40:00,48.1,39.8,30.12,ENE,68,1.1,2.5,73,0.00,,,0.00,WUHU216HW,2013-01-04 04:40:00,
2013-01-03 20:41:00,47.9,39.6,30.12,NE,45,6.9,6.9,73,0.00,,,0.00,WUHU216HW,2013-01-04 04:41:00,
2013-01-03 20:42:00,47.9,39.6,30.12,North,0,0.4,6.9,73,0.00,,,0.00,WUHU216HW,2013-01-04 04:42:00,
2013-01-03 20:43:00,47.9,39.6,30.12,NNW,338,2.2,6.9,73,0.00,,,0.00,WUHU216HW,2013-01-04 04:43:00,
2013-01-03 20:44:00,47.9,39.6,30.12,NNW,338,0.0,6.9,73,0.00,,,0.00,WUHU216HW,2013-01-04 04:44:00,
2013-01-03 20:45:00,47.9,39.6,30.12,North,0,0.9,6.9,73,0.00,,,0.00,WUHU216HW,2013-01-04 04:45:00,
2013-01-03 20:46:00,47.9,39.6,30.12,NE,45,1.3,6.9,73,0.00,,,0.00,WUHU216HW,2013-01-04 04:46:00,
2013-01-03 20:47:00,47.9,39.6,30.12,ENE,68,1.6,6.9,73,0.00,,,0.00,WUHU216HW,2013-01-04 04:47:00,
2013-01-03 20:48:00,47.9,39.6,30.12,NE,45,1.1,6.9,73,0.00,,,0.00,WUHU216HW,2013-01-04 04:48:00,
2013-01-03 20:49:00,47.9,39.6,30.12,North,0,1.1,6.9,73,0.00,,,0.00,WUHU216HW,2013-01-04 04:49:00,
2013-01-03 20:50:00,47.9,39.6,30.12,NE,45,4.0,6.9,73,0.00,,,0.00,WUHU216HW,2013-01-04 04:50:00,
2013-01-03 20:51:00,47.7,39.4,30.12,ENE,68,3.1,4.0,73,0.00,,,0.00,WUHU216HW,2013-01-04 04:51:00,
2013-01-03 20:52:00,47.7,39.8,30.12,NE,45,3.8,4.0,74,0.00,,,0.00,WUHU216HW,2013-01-04 04:52:00,
2013-01-03 20:53:00,47.7,39.4,30.12,NE,45,1.3,4.0,73,0.00,,,0.00,WUHU216HW,2013-01-04 04:53:00,
2013-01-03 20:54:00,47.7,39.4,30.12,NNW,338,4.7,4.7,73,0.00,,,0.00,WUHU216HW,2013-01-04 04:54:00,
2013-01-03 20:55:00,47.7,39.8,30.12,East,90,1.8,4.7,74,0.00,,,0.00,WUHU216HW,2013-01-04 04:55:00,
2013-01-03 20:56:00,47.7,39.4,30.12,ENE,68,2.2,4.7,73,0.00,,,0.00,WUHU216HW,2013-01-04 04:56:00,
2013-01-03 20:57:00,47.7,39.4,30.12,NE,45,1.1,4.7,73,0.00,,,0.00,WUHU216HW,2013-01-04 04:57:00,
2013-01-03 20:58:00,47.7,39.4,30.12,NE,45,0.7,4.7,73,0.00,,,0.00,WUHU216HW,2013-01-04 04:58:00,
2013-01-03 20:59:00,47.7,39.4,30.12,ESE,113,0.2,4.7,73,0.00,,,0.00,WUHU216HW,2013-01-04 04:59:00,
2013-01-03 21:01:00,47.5,39.2,30.12,East,90,0.9,4.7,73,0.00,,,0.00,WUHU216HW,2013-01-04 05:01:00,
2013-01-03 21:02:00,47.5,39.2,30.12,ENE,68,0.4,4.7,73,0.00,,,0.00,WUHU216HW,2013-01-04 05:02:00,
2013-01-03 21:03:00,47.3,39.1,30.12,East,90,0.4,4.7,73,0.00,,,0.00,WUHU216HW,2013-01-04 05:03:00,
2013-01-03 21:04:00,47.3,39.1,30.12,ENE,68,0.4,4.7,73,0.00,,,0.00,WUHU216HW,2013-01-04 05:04:00,
2013-01-03 21:05:00,47.3,39.1,30.12,NNE,23,0.7,2.2,73,0.00,,,0.00,WUHU216HW,2013-01-04 05:05:00,
2013-01-03 21:06:00,47.2,39.0,30.12,NNE,23,0.0,2.2,73,0.00,,,0.00,WUHU216HW,2013-01-04 05:06:00,
2013-01-03 21:07:00,47.2,39.0,30.12,SSE,158,0.7,1.1,73,0.00,,,0.00,WUHU216HW,2013-01-04 05:07:00,
2013-01-03 21:08:00,47.2,39.0,30.12,SSE,158,0.0,0.9,73,0.00,,,0.00,WUHU216HW,2013-01-04 05:08:00,
2013-01-03 21:09:00,47.0,38.8,30.12,SSE,158,0.0,0.9,73,0.00,,,0.00,WUHU216HW,2013-01-04 05:09:00,
2013-01-03 21:10:00,46.8,38.6,30.12,SSE,158,0.0,0.9,73,0.00,,,0.00,WUHU216HW,2013-01-04 05:10:00,
2013-01-03 21:11:00,46.8,38.6,30.12,SW,225,0.4,0.7,73,0.00,,,0.00,WUHU216HW,2013-01-04 05:11:00,
2013-01-03 21:12:00,46.8,38.6,30.12,ENE,68,0.4,0.7,73,0.00,,,0.00,WUHU216HW,2013-01-04 05:12:00,
2013-01-03 21:13:00,46.6,38.4,30.12,NW,315,0.2,0.7,73,0.00,,,0.00,WUHU216HW,2013-01-04 05:13:00,
2013-01-03 21:14:00,46.4,38.6,30.12,North,0,2.9,2.9,74,0.00,,,0.00,WUHU216HW,2013-01-04 05:14:00,
2013-01-03 21:15:00,46.6,39.2,30.12,NNE,23,2.5,2.9,75,0.00,,,0.00,WUHU216HW,2013-01-04 05:15:00,
2013-01-03 21:16:00,46.4,39.0,30.12,North,0,4.7,4.7,75,0.00,,,0.00,WUHU216HW,2013-01-04 05:16:00,
2013-01-03 21:17:00,46.6,39.2,30.12,ENE,68,6.7,6.7,75,0.00,,,0.00,WUHU216HW,2013-01-04 05:17:00,
2013-01-03 21:18:00,46.8,39.3,30.12,ESE,113,1.1,6.7,75,0.00,,,0.00,WUHU216HW,2013-01-04 05:18:00,
2013-01-03 21:19:00,46.8,39.3,30.12,North,0,0.7,6.7,75,0.00,,,0.00,WUHU216HW,2013-01-04 05:19:00,
2013-01-03 21:20:00,46.8,39.3,30.12,WNW,293,1.6,6.7,75,0.00,,,0.00,WUHU216HW,2013-01-04 05:20:00,
2013-01-03 21:21:00,47.0,39.8,30.12,NW,315,0.4,6.7,76,0.00,,,0.00,WUHU216HW,2013-01-04 05:21:00,
2013-01-03 21:22:00,47.0,39.8,30.12,East,90,1.1,6.7,76,0.00,,,0.00,WUHU216HW,2013-01-04 05:22:00,
2013-01-03 21:23:00,47.2,40.0,30.12,NNW,338,2.2,6.7,76,0.00,,,0.00,WUHU216HW,2013-01-04 05:23:00,
2013-01-03 21:24:00,47.2,40.0,30.12,NW,315,1.8,6.7,76,0.00,,,0.00,WUHU216HW,2013-01-04 05:24:00,
2013-01-03 21:25:00,47.2,40.0,30.12,ENE,68,0.2,6.7,76,0.00,,,0.00,WUHU216HW,2013-01-04 05:25:00,
2013-01-03 21:26:00,47.2,40.0,30.12,NE,45,0.4,6.7,76,0.00,,,0.00,WUHU216HW,2013-01-04 05:26:00,
2013-01-03 21:27:00,47.2,40.0,30.12,NNW,338,1.8,2.2,76,0.00,,,0.00,WUHU216HW,2013-01-04 05:27:00,
2013-01-03 21:28:00,47.0,39.8,30.12,North,0,1.6,2.2,76,0.00,,,0.00,WUHU216HW,2013-01-04 05:28:00,
2013-01-03 21:29:00,47.2,40.0,30.12,WSW,248,0.7,2.2,76,0.00,,,0.00,WUHU216HW,2013-01-04 05:29:00,
2013-01-03 21:30:00,47.2,40.0,30.12,NNW,338,0.9,2.2,76,0.00,,,0.00,WUHU216HW,2013-01-04 05:30:00,
2013-01-03 21:31:00,47.2,40.0,30.12,NNE,23,4.7,4.7,76,0.00,,,0.00,WUHU216HW,2013-01-04 05:31:00,
2013-01-03 21:32:00,47.0,39.8,30.12,NW,315,1.6,4.7,76,0.00,,,0.00,WUHU216HW,2013-01-04 05:32:00,
2013-01-03 21:33:00,47.2,40.0,30.12,NW,315,0.4,4.7,76,0.00,,,0.00,WUHU216HW,2013-01-04 05:33:00,
2013-01-03 21:34:00,47.2,40.0,30.12,East,90,1.3,4.7,76,0.00,,,0.00,WUHU216HW,2013-01-04 05:34:00,
2013-01-03 21:35:00,47.2,40.0,30.12,ENE,68,2.7,4.7,76,0.00,,,0.00,WUHU216HW,2013-01-04 05:35:00,
2013-01-03 21:36:00,47.2,40.0,30.12,NNW,338,0.4,4.7,76,0.00,,,0.00,WUHU216HW,2013-01-04 05:36:00,
2013-01-03 21:37:00,47.2,40.0,30.12,North,0,2.5,4.7,76,0.00,,,0.00,WUHU216HW,2013-01-04 05:37:00,
2013-01-03 21:38:00,47.2,40.0,30.12,East,90,0.4,4.7,76,0.00,,,0.00,WUHU216HW,2013-01-04 05:38:00,
2013-01-03 21:39:00,47.2,40.0,30.12,ENE,68,1.3,4.7,76,0.00,,,0.00,WUHU216HW,2013-01-04 05:39:00,
2013-01-03 21:40:00,47.2,39.6,30.12,NE,45,1.6,4.7,75,0.00,,,0.00,WUHU216HW,2013-01-04 05:40:00,
2013-01-03 21:41:00,47.2,39.6,30.12,SSE,158,1.1,2.7,75,0.00,,,0.00,WUHU216HW,2013-01-04 05:41:00,
2013-01-03 21:42:00,47.2,39.6,30.12,ENE,68,1.1,2.7,75,0.00,,,0.00,WUHU216HW,2013-01-04 05:42:00,
2013-01-03 21:43:00,47.2,39.6,30.12,NE,45,1.6,2.7,75,0.00,,,0.00,WUHU216HW,2013-01-04 05:43:00,
2013-01-03 21:44:00,47.2,39.6,30.12,ENE,68,0.7,2.7,75,0.00,,,0.00,WUHU216HW,2013-01-04 05:44:00,
2013-01-03 21:45:00,47.2,39.6,30.12,NNE,23,2.0,2.5,75,0.00,,,0.00,WUHU216HW,2013-01-04 05:45:00,
2013-01-03 21:46:00,47.2,39.6,30.12,SSW,203,1.3,2.5,75,0.00,,,0.00,WUHU216HW,2013-01-04 05:46:00,
2013-01-03 21:47:00,47.2,39.6,30.12,SSW,203,0.4,2.0,75,0.00,,,0.00,WUHU216HW,2013-01-04 05:47:00,
2013-01-03 21:48:00,47.2,39.6,30.12,SSW,203,0.4,2.0,75,0.00,,,0.00,WUHU216HW,2013-01-04 05:48:00,
2013-01-03 21:49:00,47.0,39.4,30.12,SE,135,0.4,2.0,75,0.00,,,0.00,WUHU216HW,2013-01-04 05:49:00,
2013-01-03 21:50:00,47.0,39.4,30.12,SE,135,1.8,2.0,75,0.00,,,0.00,WUHU216HW,2013-01-04 05:50:00,
2013-01-03 21:51:00,47.0,39.4,30.12,SSE,158,1.3,2.0,75,0.00,,,0.00,WUHU216HW,2013-01-04 05:51:00,
2013-01-03 21:52:00,46.8,39.3,30.12,NNE,23,1.1,2.0,75,0.00,,,0.00,WUHU216HW,2013-01-04 05:52:00,
2013-01-03 21:53:00,46.8,39.3,30.12,NW,315,0.4,2.0,75,0.00,,,0.00,WUHU216HW,2013-01-04 05:53:00,
2013-01-03 21:54:00,46.8,39.3,30.12,SSE,158,1.6,2.0,75,0.00,,,0.00,WUHU216HW,2013-01-04 05:54:00,
2013-01-03 21:55:00,46.8,39.3,30.12,WNW,293,4.3,4.3,75,0.00,,,0.00,WUHU216HW,2013-01-04 05:55:00,
2013-01-03 21:56:00,46.8,39.3,30.12,NW,315,0.4,4.3,75,0.00,,,0.00,WUHU216HW,2013-01-04 05:56:00,
2013-01-03 21:57:00,46.8,39.3,30.12,NNW,338,2.5,4.3,75,0.00,,,0.00,WUHU216HW,2013-01-04 05:57:00,
2013-01-03 21:58:00,46.8,39.3,30.12,NNW,338,1.6,4.3,75,0.00,,,0.00,WUHU216HW,2013-01-04 05:58:00,
2013-01-03 21:59:00,46.8,39.3,30.12,NNE,23,0.9,4.3,75,0.00,,,0.00,WUHU216HW,2013-01-04 05:59:00,
2013-01-03 22:00:00,46.8,39.3,30.12,North,0,0.4,4.3,75,0.00,,,0.00,WUHU216HW,2013-01-04 06:00:00,
2013-01-03 22:01:00,46.8,39.3,30.12,NNE,23,3.4,4.3,75,0.00,,,0.00,WUHU216HW,2013-01-04 06:01:00,
2013-01-03 22:02:00,46.6,39.2,30.12,North,0,1.1,4.3,75,0.00,,,0.00,WUHU216HW,2013-01-04 06:02:00,
2013-01-03 22:03:00,46.6,39.2,30.12,NE,45,6.3,6.3,75,0.00,,,0.00,WUHU216HW,2013-01-04 06:03:00,
2013-01-03 22:04:00,46.6,39.2,30.12,North,0,1.8,6.3,75,0.00,,,0.00,WUHU216HW,2013-01-04 06:04:00,
2013-01-03 22:06:00,46.6,39.2,30.12,NE,45,9.8,9.8,75,0.00,,,0.00,WUHU216HW,2013-01-04 06:06:00,
2013-01-03 22:07:00,46.6,39.2,30.12,ENE,68,4.0,9.8,75,0.00,,,0.00,WUHU216HW,2013-01-04 06:07:00,
2013-01-03 22:08:00,46.6,39.2,30.12,ENE,68,7.4,9.8,75,0.00,,,0.00,WUHU216HW,2013-01-04 06:08:00,
2013-01-03 22:09:00,46.6,39.2,30.12,NE,45,3.6,9.8,75,0.00,,,0.00,WUHU216HW,2013-01-04 06:09:00,
2013-01-03 22:10:00,46.6,39.2,30.12,ENE,68,6.7,9.8,75,0.00,,,0.00,WUHU216HW,2013-01-04 06:10:00,
2013-01-03 22:11:00,46.6,39.2,30.12,North,0,1.1,9.8,75,0.00,,,0.00,WUHU216HW,2013-01-04 06:11:00,
2013-01-03 22:12:00,46.8,39.3,30.12,NNE,23,1.8,9.8,75,0.00,,,0.00,WUHU216HW,2013-01-04 06:12:00,
2013-01-03 22:13:00,46.8,39.3,30.12,NNE,23,1.6,9.8,75,0.00,,,0.00,WUHU216HW,2013-01-04 06:13:00,
2013-01-03 22:14:00,46.8,39.3,30.12,NNE,23,0.7,9.8,75,0.00,,,0.00,WUHU216HW,2013-01-04 06:14:00,
2013-01-03 22:15:00,46.8,39.6,30.12,NNE,23,1.8,9.8,76,0.00,,,0.00,WUHU216HW,2013-01-04 06:15:00,
2013-01-03 22:16:00,46.8,39.6,30.12,NNE,23,1.1,7.4,76,0.00,,,0.00,WUHU216HW,2013-01-04 06:16:00,
2013-01-03 22:17:00,46.8,39.6,30.13,NNE,23,0.0,7.4,76,0.00,,,0.00,WUHU216HW,2013-01-04 06:17:00,
2013-01-03 22:18:00,46.8,39.6,30.12,NW,315,0.4,6.7,76,0.00,,,0.00,WUHU216HW,2013-01-04 06:18:00,
2013-01-03 22:19:00,46.6,39.5,30.12,NNW,338,1.1,6.7,76,0.00,,,0.00,WUHU216HW,2013-01-04 06:19:00,
2013-01-03 22:20:00,46.8,40.0,30.13,NE,45,1.6,1.8,77,0.00,,,0.00,WUHU216HW,2013-01-04 06:20:00,
2013-01-03 22:21:00,46.8,40.0,30.13,North,0,0.9,1.8,77,0.00,,,0.00,WUHU216HW,2013-01-04 06:21:00,
2013-01-03 22:22:00,46.6,39.8,30.13,NW,315,0.9,1.8,77,0.00,,,0.00,WUHU216HW,2013-01-04 06:22:00,
2013-01-03 22:23:00,46.8,39.6,30.13,NW,315,0.4,1.8,76,0.00,,,0.00,WUHU216HW,2013-01-04 06:23:00,
2013-01-03 22:24:00,46.8,40.0,30.13,WNW,293,0.9,1.8,77,0.00,,,0.00,WUHU216HW,2013-01-04 06:24:00,
2013-01-03 22:25:00,46.8,39.6,30.13,NNW,338,0.2,1.6,76,0.00,,,0.00,WUHU216HW,2013-01-04 06:25:00,
2013-01-03 22:26:00,46.8,40.0,30.13,NNW,338,0.7,1.6,77,0.00,,,0.00,WUHU216HW,2013-01-04 06:26:00,
2013-01-03 22:27:00,46.6,39.5,30.13,NNW,338,0.7,1.6,76,0.00,,,0.00,WUHU216HW,2013-01-04 06:27:00,
2013-01-03 22:28:00,46.6,39.8,30.13,NNW,338,0.4,1.6,77,0.00,,,0.00,WUHU216HW,2013-01-04 06:28:00,
2013-01-03 22:29:00,46.4,39.7,30.13,NNW,338,2.5,2.5,77,0.00,,,0.00,WUHU216HW,2013-01-04 06:29:00,
2013-01-03 22:30:00,46.4,39.7,30.13,NNW,338,0.2,2.5,77,0.00,,,0.00,WUHU216HW,2013-01-04 06:30:00,
2013-01-03 22:31:00,46.4,39.7,30.13,NNW,338,0.0,2.5,77,0.00,,,0.00,WUHU216HW,2013-01-04 06:31:00,
2013-01-03 22:32:00,46.4,39.7,30.13,NNW,338,0.9,2.5,77,0.00,,,0.00,WUHU216HW,2013-01-04 06:32:00,
2013-01-03 22:33:00,46.4,39.7,30.13,North,0,0.4,2.5,77,0.00,,,0.00,WUHU216HW,2013-01-04 06:33:00,
2013-01-03 22:34:00,46.4,39.7,30.13,WNW,293,0.9,2.5,77,0.00,,,0.00,WUHU216HW,2013-01-04 06:34:00,
2013-01-03 22:35:00,46.4,39.7,30.13,North,0,1.1,2.5,77,0.00,,,0.00,WUHU216HW,2013-01-04 06:35:00,
2013-01-03 22:36:00,46.3,39.5,30.13,NNW,338,0.9,2.5,77,0.00,,,0.00,WUHU216HW,2013-01-04 06:36:00,
2013-01-03 22:37:00,46.3,39.5,30.13,North,0,1.1,2.5,77,0.00,,,0.00,WUHU216HW,2013-01-04 06:37:00,
2013-01-03 22:38:00,46.3,39.5,30.13,NNE,23,0.4,2.5,77,0.00,,,0.00,WUHU216HW,2013-01-04 06:38:00,
2013-01-03 22:39:00,46.4,39.3,30.13,ENE,68,0.7,1.1,76,0.00,,,0.00,WUHU216HW,2013-01-04 06:39:00,
2013-01-03 22:40:00,46.4,39.3,30.13,WNW,293,1.1,1.1,76,0.00,,,0.00,WUHU216HW,2013-01-04 06:40:00,
2013-01-03 22:41:00,46.4,39.3,30.13,North,0,0.4,1.1,76,0.00,,,0.00,WUHU216HW,2013-01-04 06:41:00,
2013-01-03 22:42:00,46.4,39.3,30.13,NE,45,1.3,1.3,76,0.00,,,0.00,WUHU216HW,2013-01-04 06:42:00,
2013-01-03 22:43:00,46.4,39.3,30.12,NNE,23,0.7,1.3,76,0.00,,,0.00,WUHU216HW,2013-01-04 06:43:00,
2013-01-03 22:44:00,46.4,39.3,30.13,NNE,23,0.2,1.3,76,0.00,,,0.00,WUHU216HW,2013-01-04 06:44:00,
2013-01-03 22:45:00,46.4,39.3,30.13,NNE,23,0.0,1.3,76,0.00,,,0.00,WUHU216HW,2013-01-04 06:45:00,
2013-01-03 22:46:00,46.4,39.3,30.12,NNE,23,0.4,1.3,76,0.00,,,0.00,WUHU216HW,2013-01-04 06:46:00,
2013-01-03 22:47:00,46.3,39.2,30.12,North,0,0.4,1.3,76,0.00,,,0.00,WUHU216HW,2013-01-04 06:47:00,
2013-01-03 22:48:00,46.3,39.2,30.12,WNW,293,0.4,1.3,76,0.00,,,0.00,WUHU216HW,2013-01-04 06:48:00,
2013-01-03 22:49:00,46.1,39.0,30.13,WNW,293,0.2,1.3,76,0.00,,,0.00,WUHU216HW,2013-01-04 06:49:00,
2013-01-03 22:50:00,46.1,39.0,30.12,WNW,293,0.2,1.3,76,0.00,,,0.00,WUHU216HW,2013-01-04 06:50:00,
2013-01-03 22:51:00,45.9,38.8,30.12,NW,315,0.0,1.3,76,0.00,,,0.00,WUHU216HW,2013-01-04 06:51:00,
2013-01-03 22:52:00,45.9,38.8,30.12,NW,315,0.4,0.7,76,0.00,,,0.00,WUHU216HW,2013-01-04 06:52:00,
2013-01-03 22:53:00,45.7,38.6,30.12,NW,315,0.2,0.4,76,0.00,,,0.00,WUHU216HW,2013-01-04 06:53:00,
2013-01-03 22:54:00,45.7,38.6,30.12,NW,315,0.2,0.4,76,0.00,,,0.00,WUHU216HW,2013-01-04 06:54:00,
2013-01-03 22:55:00,45.7,38.6,30.12,ENE,68,0.2,0.4,76,0.00,,,0.00,WUHU216HW,2013-01-04 06:55:00,
2013-01-03 22:56:00,45.7,38.6,30.12,ENE,68,0.4,0.4,76,0.00,,,0.00,WUHU216HW,2013-01-04 06:56:00,
2013-01-03 22:57:00,45.5,38.4,30.12,ENE,68,0.2,0.4,76,0.00,,,0.00,WUHU216HW,2013-01-04 06:57:00,
2013-01-03 22:58:00,45.5,38.4,30.12,East,90,2.2,2.2,76,0.00,,,0.00,WUHU216HW,2013-01-04 06:58:00,
2013-01-03 22:59:00,45.5,38.4,30.12,East,90,1.1,2.2,76,0.00,,,0.00,WUHU216HW,2013-01-04 06:59:00,
2013-01-03 23:00:00,45.5,38.4,30.12,East,90,1.1,2.2,76,0.00,,,0.00,WUHU216HW,2013-01-04 07:00:00,
2013-01-03 23:01:00,45.4,37.9,30.12,East,90,0.4,2.2,75,0.00,,,0.00,WUHU216HW,2013-01-04 07:01:00,
2013-01-03 23:02:00,45.4,37.9,30.12,East,90,0.4,2.2,75,0.00,,,0.00,WUHU216HW,2013-01-04 07:02:00,
2013-01-03 23:03:00,45.4,37.9,30.12,ENE,68,0.4,2.2,75,0.00,,,0.00,WUHU216HW,2013-01-04 07:03:00,
2013-01-03 23:04:00,45.4,37.9,30.12,ENE,68,0.0,2.2,75,0.00,,,0.00,WUHU216HW,2013-01-04 07:04:00,
2013-01-03 23:05:00,45.2,37.7,30.12,ENE,68,0.0,2.2,75,0.00,,,0.00,WUHU216HW,2013-01-04 07:05:00,
2013-01-03 23:06:00,45.2,37.7,30.12,ENE,68,0.0,2.2,75,0.00,,,0.00,WUHU216HW,2013-01-04 07:06:00,
2013-01-03 23:07:00,45.2,37.7,30.12,ENE,68,0.7,2.2,75,0.00,,,0.00,WUHU216HW,2013-01-04 07:07:00,
2013-01-03 23:08:00,45.0,37.5,30.12,ENE,68,0.2,2.2,75,0.00,,,0.00,WUHU216HW,2013-01-04 07:08:00,
2013-01-03 23:09:00,45.0,37.5,30.12,ENE,68,0.0,1.1,75,0.00,,,0.00,WUHU216HW,2013-01-04 07:09:00,
2013-01-03 23:10:00,45.0,37.5,30.12,SE,135,1.1,1.1,75,0.00,,,0.00,WUHU216HW,2013-01-04 07:10:00,
2013-01-03 23:11:00,45.0,37.5,30.12,SE,135,0.7,1.1,75,0.00,,,0.00,WUHU216HW,2013-01-04 07:11:00,
2013-01-03 23:12:00,44.8,37.4,30.12,SE,135,0.9,1.1,75,0.00,,,0.00,WUHU216HW,2013-01-04 07:12:00,
2013-01-03 23:13:00,44.8,37.4,30.12,SE,135,0.0,1.1,75,0.00,,,0.00,WUHU216HW,2013-01-04 07:13:00,
2013-01-03 23:14:00,44.6,37.2,30.12,SE,135,0.0,1.1,75,0.00,,,0.00,WUHU216HW,2013-01-04 07:14:00,
2013-01-03 23:15:00,44.6,37.2,30.12,SSE,158,0.7,1.1,75,0.00,,,0.00,WUHU216HW,2013-01-04 07:15:00,
2013-01-03 23:16:00,44.5,37.0,30.12,SW,225,0.0,1.1,75,0.00,,,0.00,WUHU216HW,2013-01-04 07:16:00,
2013-01-03 23:17:00,44.5,37.0,30.12,WSW,248,0.4,1.1,75,0.00,,,0.00,WUHU216HW,2013-01-04 07:17:00,
2013-01-03 23:18:00,44.3,36.8,30.12,WSW,248,0.2,1.1,75,0.00,,,0.00,WUHU216HW,2013-01-04 07:18:00,
2013-01-03 23:19:00,44.3,36.8,30.12,WSW,248,0.2,1.1,75,0.00,,,0.00,WUHU216HW,2013-01-04 07:19:00,
2013-01-03 23:20:00,44.3,36.8,30.12,WSW,248,0.4,0.9,75,0.00,,,0.00,WUHU216HW,2013-01-04 07:20:00,
2013-01-03 23:21:00,44.1,37.0,30.12,WSW,248,0.2,0.9,76,0.00,,,0.00,WUHU216HW,2013-01-04 07:21:00,
2013-01-03 23:22:00,44.1,37.0,30.12,East,90,0.4,0.7,76,0.00,,,0.00,WUHU216HW,2013-01-04 07:22:00,
2013-01-03 23:23:00,43.9,36.8,30.12,ESE,113,1.1,1.1,76,0.00,,,0.00,WUHU216HW,2013-01-04 07:23:00,
2013-01-03 23:24:00,43.9,36.8,30.12,ESE,113,0.0,1.1,76,0.00,,,0.00,WUHU216HW,2013-01-04 07:24:00,
2013-01-03 23:25:00,43.7,36.6,30.12,ESE,113,0.0,1.1,76,0.00,,,0.00,WUHU216HW,2013-01-04 07:25:00,
2013-01-03 23:26:00,43.7,36.6,30.12,ESE,113,0.0,1.1,76,0.00,,,0.00,WUHU216HW,2013-01-04 07:26:00,
2013-01-03 23:27:00,43.6,36.5,30.12,ESE,113,0.0,1.1,76,0.00,,,0.00,WUHU216HW,2013-01-04 07:27:00,
2013-01-03 23:28:00,43.6,36.5,30.12,ESE,113,0.4,1.1,76,0.00,,,0.00,WUHU216HW,2013-01-04 07:28:00,
2013-01-03 23:29:00,43.6,36.5,30.12,ESE,113,0.7,1.1,76,0.00,,,0.00,WUHU216HW,2013-01-04 07:29:00,
2013-01-03 23:30:00,43.6,36.8,30.12,ESE,113,0.9,1.1,77,0.00,,,0.00,WUHU216HW,2013-01-04 07:30:00,
2013-01-03 23:31:00,43.4,36.6,30.12,ESE,113,0.4,1.1,77,0.00,,,0.00,WUHU216HW,2013-01-04 07:31:00,
2013-01-03 23:32:00,43.4,36.6,30.12,ESE,113,0.4,1.1,77,0.00,,,0.00,WUHU216HW,2013-01-04 07:32:00,
2013-01-03 23:33:00,43.4,36.6,30.12,ESE,113,0.4,0.9,77,0.00,,,0.00,WUHU216HW,2013-01-04 07:33:00,
2013-01-03 23:34:00,43.2,36.5,30.12,ESE,113,0.0,0.9,77,0.00,,,0.00,WUHU216HW,2013-01-04 07:34:00,
2013-01-03 23:35:00,43.2,36.5,30.12,ESE,113,0.4,0.9,77,0.00,,,0.00,WUHU216HW,2013-01-04 07:35:00,
2013-01-03 23:36:00,43.2,36.5,30.12,East,90,0.7,0.9,77,0.00,,,0.00,WUHU216HW,2013-01-04 07:36:00,
2013-01-03 23:37:00,43.0,36.3,30.12,East,90,0.9,0.9,77,0.00,,,0.00,WUHU216HW,2013-01-04 07:37:00,
2013-01-03 23:38:00,43.0,36.3,30.12,ESE,113,0.7,0.9,77,0.00,,,0.00,WUHU216HW,2013-01-04 07:38:00,
2013-01-03 23:39:00,43.0,36.3,30.12,ESE,113,0.7,0.9,77,0.00,,,0.00,WUHU216HW,2013-01-04 07:39:00,
2013-01-03 23:40:00,42.8,36.1,30.12,ESE,113,0.7,0.9,77,0.00,,,0.00,WUHU216HW,2013-01-04 07:40:00,
2013-01-03 23:41:00,42.8,36.1,30.12,ESE,113,1.1,1.1,77,0.00,,,0.00,WUHU216HW,2013-01-04 07:41:00,
2013-01-03 23:42:00,42.8,36.1,30.12,ESE,113,1.1,1.1,77,0.00,,,0.00,WUHU216HW,2013-01-04 07:42:00,
2013-01-03 23:43:00,42.8,36.1,30.12,ESE,113,0.7,1.1,77,0.00,,,0.00,WUHU216HW,2013-01-04 07:43:00,
2013-01-03 23:44:00,42.7,35.9,30.12,ESE,113,0.4,1.1,77,0.00,,,0.00,WUHU216HW,2013-01-04 07:44:00,
2013-01-03 23:45:00,42.7,35.9,30.12,ESE,113,0.2,1.1,77,0.00,,,0.00,WUHU216HW,2013-01-04 07:45:00,
2013-01-03 23:46:00,42.5,35.7,30.12,ESE,113,0.0,1.1,77,0.00,,,0.00,WUHU216HW,2013-01-04 07:46:00,
2013-01-03 23:47:00,42.5,35.7,30.12,ESE,113,0.4,1.1,77,0.00,,,0.00,WUHU216HW,2013-01-04 07:47:00,
2013-01-03 23:48:00,42.5,35.7,30.12,ESE,113,0.7,1.1,77,0.00,,,0.00,WUHU216HW,2013-01-04 07:48:00,
2013-01-03 23:49:00,42.5,35.7,30.12,ESE,113,0.4,1.1,77,0.00,,,0.00,WUHU216HW,2013-01-04 07:49:00,
2013-01-03 23:50:00,42.3,35.6,30.12,ESE,113,0.2,1.1,77,0.00,,,0.00,WUHU216HW,2013-01-04 07:50:00,
2013-01-03 23:51:00,42.1,35.4,30.12,ENE,68,0.0,1.1,77,0.00,,,0.00,WUHU216HW,2013-01-04 07:51:00,
2013-01-03 23:52:00,42.1,35.4,30.11,East,90,1.1,1.1,77,0.00,,,0.00,WUHU216HW,2013-01-04 07:52:00,
2013-01-03 23:53:00,42.1,35.4,30.12,East,90,0.9,1.1,77,0.00,,,0.00,WUHU216HW,2013-01-04 07:53:00,
2013-01-03 23:54:00,42.1,35.4,30.12,East,90,0.4,1.1,77,0.00,,,0.00,WUHU216HW,2013-01-04 07:54:00,
2013-01-03 23:55:00,42.1,35.7,30.11,WNW,293,0.7,1.1,78,0.00,,,0.00,WUHU216HW,2013-01-04 07:55:00,
2013-01-03 23:56:00,41.9,35.6,30.11,WNW,293,0.2,1.1,78,0.00,,,0.00,WUHU216HW,2013-01-04 07:56:00,
2013-01-03 23:57:00,41.9,35.6,30.11,WNW,293,0.0,1.1,78,0.00,,,0.00,WUHU216HW,2013-01-04 07:57:00,
2013-01-03 23:58:00,41.9,35.6,30.11,WNW,293,0.0,1.1,78,0.00,,,0.00,WUHU216HW,2013-01-04 07:58:00,
2013-01-03 23:59:00,41.8,35.4,30.11,WNW,293,0.0,1.1,78,0.00,,,0.00,WUHU216HW,2013-01-04 07:59:00,